Darstellungsparameter: Aktuell verwendete Einstellungen:
Skalierung der Graphiken ... ?
xyx+y,   Skalierungsfaktor:      Skalierung: Modus: x, Faktor: 1
Darstellungszeitraum ... ?
Vom - - bis: - -   Zeitraum: 27.05.2020 - 26.06.2020
Min/Max/Avg-Anzeige ... ?
Zeige MMA aktuell
Zeige MMA Monat
Zeige MMA alles
Zeige --A aktuell
Zeige --A Monat
Zeige --A alles
Keine MMA-Anzeige
MMA:
Average (ber die Originaldaten)
MMA-Basis: 27.05.2020 - 26.06.2020
Quicknavigation für Darstellung... ?
Tage:      1T, 2T, 3T, 5T -1T -2T -3T -5T +1T +2T +3T +5T
Wochen: 1W, 2W, 3W -1W -2W -3W +1W +2W +3W
Monate: 1M, 3M, 6M -1M -3M -6M +1M +3M +6M
Jahre:    1J, 3J, 5J, 10J -1J -3J -5J -10J +1J +3J +5J +10J
Nutze für die Darstellung ... ?
Originaldaten oder Mittelwerte auf ...
Stundenbasis Tagesbasis Wochenbasis
Monatsbasis Jahresbasis      Datenbasis: Original-Daten
Darstellen als:
Statistik (Auto) Statistik J:M      Darstellung:
Zur Graphik,    zurück zur Übersicht aller Sensoren.
 
Tabellarische Datenbersicht: ?
 
Sensor: Nr:Datum:Temp:Abs-Feuchte:Windchill:Wind:
Aussen-T/F 1 27-05-2020 00:00:00 12.2 C 8.52 g/m*3 12.2 C 0 km/h
2 27-05-2020 00:05:00 12.1 C 8.58 g/m*3 12.1 C 0 km/h
3 27-05-2020 00:10:00 12.1 C 8.58 g/m*3 12.1 C 0 km/h
4 27-05-2020 00:15:00 11.9 C 8.58 g/m*3 11.9 C 0 km/h
5 27-05-2020 00:20:00 11.9 C 8.58 g/m*3 11.9 C 0 km/h
6 27-05-2020 00:25:00 11.8 C 8.53 g/m*3 11.8 C 0 km/h
7 27-05-2020 00:30:00 11.7 C 8.47 g/m*3 11.7 C 0 km/h
8 27-05-2020 00:35:00 11.6 C 8.42 g/m*3 11.6 C 0 km/h
9 27-05-2020 00:40:00 11.6 C 8.42 g/m*3 11.6 C 0 km/h
10 27-05-2020 00:45:00 11.5 C 8.47 g/m*3 11.5 C 0 km/h
11 27-05-2020 00:50:00 11.4 C 8.42 g/m*3 11.4 C 0 km/h
12 27-05-2020 00:55:00 11.3 C 8.36 g/m*3 11.3 C 0 km/h
13 27-05-2020 01:00:00 11.3 C 8.36 g/m*3 11.3 C 0 km/h
14 27-05-2020 01:05:00 11.2 C 8.31 g/m*3 11.2 C 0 km/h
15 27-05-2020 01:10:00 11.1 C 8.36 g/m*3 11.1 C 0 km/h
16 27-05-2020 01:15:00 10.9 C 8.26 g/m*3 10.9 C 0 km/h
17 27-05-2020 01:20:00 10.8 C 8.2 g/m*3 10.8 C 0 km/h
18 27-05-2020 01:25:00 10.7 C 8.15 g/m*3 10.7 C 0 km/h
19 27-05-2020 01:30:00 10.6 C 8.2 g/m*3 10.6 C 0 km/h
20 27-05-2020 01:35:00 10.5 C 8.15 g/m*3 10.5 C 0 km/h
21 27-05-2020 01:40:00 10.4 C 8.1 g/m*3 10.4 C 0 km/h
22 27-05-2020 01:45:00 10.3 C 8.14 g/m*3 10.3 C 0 km/h
23 27-05-2020 01:50:00 10.2 C 8.09 g/m*3 10.2 C 0 km/h
24 27-05-2020 01:55:00 10.1 C 8.04 g/m*3 10.1 C 0 km/h
25 27-05-2020 02:00:00 10 C 7.99 g/m*3 10 C 0 km/h
Sensor: Nr:Datum:Temp:Abs-Feuchte:Windchill:Wind:
Aussen-T/F 26 27-05-2020 02:05:00 9.9 C 8.03 g/m*3 9.9 C 0 km/h
27 27-05-2020 02:10:00 9.9 C 8.03 g/m*3 9.9 C 0 km/h
28 27-05-2020 02:15:00 9.8 C 7.98 g/m*3 9.8 C 0 km/h
29 27-05-2020 02:20:00 9.8 C 7.98 g/m*3 9.8 C 0 km/h
30 27-05-2020 02:25:00 9.7 C 7.93 g/m*3 9.7 C 0 km/h
31 27-05-2020 02:30:00 9.7 C 7.93 g/m*3 9.7 C 0 km/h
32 27-05-2020 02:35:00 9.6 C 7.97 g/m*3 9.6 C 0 km/h
33 27-05-2020 02:40:00 9.6 C 7.97 g/m*3 9.6 C 0 km/h
34 27-05-2020 02:45:00 9.6 C 8.06 g/m*3 9.6 C 0 km/h
35 27-05-2020 02:50:00 9.7 C 8.11 g/m*3 9.7 C 0 km/h
36 27-05-2020 02:55:00 9.7 C 8.11 g/m*3 9.7 C 0 km/h
37 27-05-2020 03:00:00 9.7 C 8.11 g/m*3 9.7 C 0 km/h
38 27-05-2020 03:05:00 9.7 C 8.11 g/m*3 9.7 C 0 km/h
39 27-05-2020 03:10:00 9.6 C 8.06 g/m*3 9.6 C 0 km/h
40 27-05-2020 03:15:00 9.4 C 7.96 g/m*3 9.4 C 0 km/h
41 27-05-2020 03:20:00 9.3 C 7.91 g/m*3 9.3 C 0 km/h
42 27-05-2020 03:25:00 9.3 C 7.91 g/m*3 9.3 C 0 km/h
43 27-05-2020 03:30:00 9.2 C 7.86 g/m*3 9.2 C 0 km/h
44 27-05-2020 03:35:00 9.1 C 7.9 g/m*3 9.1 C 0 km/h
45 27-05-2020 03:40:00 9.1 C 7.9 g/m*3 9.1 C 0 km/h
46 27-05-2020 03:45:00 9 C 7.85 g/m*3 9 C 0 km/h
47 27-05-2020 03:50:00 8.9 C 7.8 g/m*3 8.9 C 0 km/h
48 27-05-2020 03:55:00 8.8 C 7.75 g/m*3 8.8 C 0 km/h
49 27-05-2020 04:00:00 8.8 C 7.75 g/m*3 8.8 C 0 km/h
50 27-05-2020 04:05:00 8.8 C 7.83 g/m*3 8.8 C 0 km/h
Sensor: Nr:Datum:Temp:Abs-Feuchte:Windchill:Wind:
Aussen-T/F 51 27-05-2020 04:10:00 8.7 C 7.78 g/m*3 8.7 C 0 km/h
52 27-05-2020 04:15:00 8.7 C 7.78 g/m*3 8.7 C 0 km/h
53 27-05-2020 04:20:00 8.6 C 7.73 g/m*3 8.6 C 0 km/h
54 27-05-2020 04:25:00 8.6 C 7.73 g/m*3 8.6 C 0 km/h
55 27-05-2020 04:30:00 8.6 C 7.82 g/m*3 8.6 C 0 km/h
56 27-05-2020 04:35:00 8.6 C 7.82 g/m*3 8.6 C 0 km/h
57 27-05-2020 04:40:00 8.6 C 7.82 g/m*3 8.6 C 0 km/h
58 27-05-2020 04:45:00 8.5 C 7.77 g/m*3 8.5 C 0 km/h
59 27-05-2020 04:50:00 8.4 C 7.72 g/m*3 8.4 C 0 km/h
60 27-05-2020 04:55:00 8.3 C 7.67 g/m*3 8.3 C 0 km/h
61 27-05-2020 05:00:00 8.2 C 7.62 g/m*3 8.2 C 0 km/h
62 27-05-2020 05:05:00 8.2 C 7.62 g/m*3 8.2 C 0 km/h
63 27-05-2020 05:10:00 8.1 C 7.57 g/m*3 8.1 C 0 km/h
64 27-05-2020 05:15:00 8.1 C 7.57 g/m*3 8.1 C 0 km/h
65 27-05-2020 05:20:00 7.9 C 7.47 g/m*3 7.9 C 0 km/h
66 27-05-2020 05:25:00 7.9 C 7.56 g/m*3 7.9 C 0 km/h
67 27-05-2020 05:30:00 7.8 C 7.51 g/m*3 7.8 C 0 km/h
68 27-05-2020 05:35:00 7.8 C 7.51 g/m*3 7.8 C 0 km/h
69 27-05-2020 05:40:00 7.8 C 7.51 g/m*3 7.8 C 0 km/h
70 27-05-2020 05:45:00 7.8 C 7.51 g/m*3 7.8 C 0 km/h
71 27-05-2020 05:50:00 7.8 C 7.51 g/m*3 7.8 C 0 km/h
72 27-05-2020 05:55:00 7.8 C 7.59 g/m*3 7.8 C 0 km/h
73 27-05-2020 06:00:00 7.8 C 7.59 g/m*3 7.8 C 0 km/h
74 27-05-2020 06:05:00 8 C 7.69 g/m*3 8 C 0 km/h
75 27-05-2020 06:10:00 8.1 C 7.82 g/m*3 8.1 C 0 km/h
Sensor: Nr:Datum:Temp:Abs-Feuchte:Windchill:Wind:
Aussen-T/F 76 27-05-2020 06:15:00 8.1 C 7.74 g/m*3 8.1 C 0 km/h
77 27-05-2020 06:20:00 8.1 C 7.74 g/m*3 8.1 C 0 km/h
78 27-05-2020 06:25:00 8 C 7.69 g/m*3 8 C 0 km/h
79 27-05-2020 06:30:00 8 C 7.69 g/m*3 8 C 0 km/h
80 27-05-2020 06:35:00 8 C 7.69 g/m*3 8 C 0 km/h
81 27-05-2020 06:40:00 7.9 C 7.64 g/m*3 7.9 C 0 km/h
82 27-05-2020 06:45:00 7.9 C 7.64 g/m*3 7.9 C 0 km/h
83 27-05-2020 06:50:00 7.9 C 7.64 g/m*3 7.9 C 0 km/h
84 27-05-2020 06:55:00 8 C 7.69 g/m*3 8 C 0 km/h
85 27-05-2020 07:00:00 8.1 C 7.82 g/m*3 8.1 C 0 km/h
86 27-05-2020 07:05:00 8.1 C 7.82 g/m*3 8.1 C 0 km/h
87 27-05-2020 07:10:00 8.2 C 7.87 g/m*3 8.2 C 0 km/h
88 27-05-2020 07:15:00 8.2 C 7.87 g/m*3 8.2 C 0 km/h
89 27-05-2020 07:20:00 8.2 C 7.87 g/m*3 8.2 C 0 km/h
90 27-05-2020 07:25:00 8.3 C 7.92 g/m*3 8.3 C 0 km/h
91 27-05-2020 07:30:00 8.3 C 7.92 g/m*3 8.3 C 0 km/h
92 27-05-2020 07:35:00 8.4 C 7.97 g/m*3 8.4 C 0 km/h
93 27-05-2020 07:40:00 8.4 C 7.97 g/m*3 8.4 C 0 km/h
94 27-05-2020 07:45:00 8.6 C 8.08 g/m*3 8.6 C 0 km/h
95 27-05-2020 07:50:00 8.7 C 8.13 g/m*3 8.7 C 0 km/h
96 27-05-2020 07:55:00 8.8 C 8.18 g/m*3 8.8 C 0 km/h
97 27-05-2020 08:00:00 8.9 C 8.32 g/m*3 8.9 C 0 km/h
98 27-05-2020 08:05:00 9 C 8.38 g/m*3 9 C 0 km/h
99 27-05-2020 08:10:00 9.1 C 8.34 g/m*3 9.1 C 0 km/h
100 27-05-2020 08:15:00 9.2 C 8.39 g/m*3 9.2 C 0 km/h
Sensor: Nr:Datum:Temp:Abs-Feuchte:Windchill:Wind:
Aussen-T/F 101 27-05-2020 08:20:00 9.3 C 8.54 g/m*3 9.3 C 0 km/h
102 27-05-2020 08:25:00 9.5 C 8.56 g/m*3 9.5 C 0 km/h
103 27-05-2020 08:30:00 9.6 C 8.61 g/m*3 9.6 C 0 km/h
104 27-05-2020 08:35:00 9.7 C 8.67 g/m*3 9.7 C 0 km/h
105 27-05-2020 08:40:00 9.7 C 8.67 g/m*3 9.7 C 0 km/h
106 27-05-2020 08:45:00 9.8 C 8.72 g/m*3 9.8 C 0 km/h
107 27-05-2020 08:50:00 10 C 8.83 g/m*3 10 C 0 km/h
108 27-05-2020 08:55:00 10.1 C 8.89 g/m*3 10.1 C 0 km/h
109 27-05-2020 09:00:00 10.3 C 9 g/m*3 10.3 C 0 km/h
110 27-05-2020 09:05:00 10.4 C 9.06 g/m*3 10.4 C 0 km/h
111 27-05-2020 09:10:00 10.6 C 9.17 g/m*3 10.6 C 0 km/h
112 27-05-2020 09:15:00 10.7 C 9.23 g/m*3 10.7 C 0 km/h
113 27-05-2020 09:20:00 10.9 C 9.35 g/m*3 10.9 C 0 km/h
114 27-05-2020 09:25:00 11.2 C 9.53 g/m*3 11.2 C 0 km/h
115 27-05-2020 09:30:00 11.3 C 9.49 g/m*3 11.3 C 0 km/h
116 27-05-2020 09:35:00 11.6 C 9.67 g/m*3 11.6 C 0 km/h
117 27-05-2020 09:40:00 11.8 C 9.79 g/m*3 11.8 C 0 km/h
118 27-05-2020 09:45:00 11.9 C 9.74 g/m*3 11.9 C 0 km/h
119 27-05-2020 09:50:00 12.2 C 9.82 g/m*3 12.2 C 0 km/h
120 27-05-2020 09:55:00 12.4 C 9.94 g/m*3 12.4 C 0 km/h
121 27-05-2020 10:00:00 12.7 C 10.02 g/m*3 12.7 C 0 km/h
122 27-05-2020 10:05:00 13.1 C 10.16 g/m*3 13.1 C 0 km/h
123 27-05-2020 10:10:00 13.4 C 10.23 g/m*3 13.4 C 0 km/h
124 27-05-2020 10:15:00 13.8 C 10.25 g/m*3 13.8 C 0 km/h
125 27-05-2020 10:20:00 14.2 C 10.38 g/m*3 14.2 C 0 km/h
Sensor: Nr:Datum:Temp:Abs-Feuchte:Windchill:Wind:
Aussen-T/F 126 27-05-2020 10:25:00 14.7 C 10.32 g/m*3 14.7 C 0 km/h
127 27-05-2020 10:30:00 15.3 C 10.32 g/m*3 15.3 C 0 km/h
128 27-05-2020 10:35:00 15.8 C 10.77 g/m*3 15.8 C 0 km/h
129 27-05-2020 10:40:00 16.2 C 10.07 g/m*3 16.2 C 0 km/h
130 27-05-2020 10:45:00 16.7 C 10.23 g/m*3 16.7 C 0 km/h
131 27-05-2020 10:50:00 17 C 10.13 g/m*3 17 C 4.8 km/h
132 27-05-2020 10:55:00 17.5 C 9.39 g/m*3 17.5 C 6.4 km/h
133 27-05-2020 11:00:00 17.9 C 9.92 g/m*3 17.9 C 1.6 km/h
134 27-05-2020 11:05:00 18.2 C 9.64 g/m*3 18.2 C 3.2 km/h
135 27-05-2020 11:10:00 18.7 C 9.29 g/m*3 18.7 C 4.8 km/h
136 27-05-2020 11:15:00 18.9 C 8.91 g/m*3 18.9 C 6.4 km/h
137 27-05-2020 11:20:00 19.1 C 8.85 g/m*3 19.1 C 6.4 km/h
138 27-05-2020 11:25:00 19.3 C 8.79 g/m*3 19.3 C 11.3 km/h
139 27-05-2020 11:30:00 19.3 C 8.63 g/m*3 19.3 C 6.4 km/h
140 27-05-2020 11:35:00 19.2 C 8.41 g/m*3 19.2 C 4.8 km/h
141 27-05-2020 11:40:00 19.3 C 8.46 g/m*3 19.3 C 9.7 km/h
142 27-05-2020 11:45:00 19.6 C 7.93 g/m*3 19.6 C 8.1 km/h
143 27-05-2020 11:50:00 19.7 C 7.81 g/m*3 19.7 C 6.4 km/h
144 27-05-2020 11:55:00 19.8 C 7.52 g/m*3 19.8 C 9.7 km/h
145 27-05-2020 12:00:00 19.9 C 7.73 g/m*3 19.9 C 9.7 km/h
146 27-05-2020 12:05:00 20.1 C 7.82 g/m*3 20.1 C 12.9 km/h
147 27-05-2020 12:10:00 20.2 C 7.87 g/m*3 20.2 C 8.1 km/h
148 27-05-2020 12:15:00 20.2 C 7.87 g/m*3 20.2 C 9.7 km/h
149 27-05-2020 12:20:00 20.3 C 8.09 g/m*3 20.3 C 8.1 km/h
150 27-05-2020 12:25:00 20.4 C 7.78 g/m*3 20.4 C 11.3 km/h
Sensor: Nr:Datum:Temp:Abs-Feuchte:Windchill:Wind:
Aussen-T/F 151 27-05-2020 12:30:00 20.3 C 7.91 g/m*3 20.3 C 6.4 km/h
152 27-05-2020 12:35:00 20.3 C 7.74 g/m*3 20.3 C 11.3 km/h
153 27-05-2020 12:40:00 20.5 C 8.01 g/m*3 20.5 C 9.7 km/h
154 27-05-2020 12:45:00 20.7 C 7.92 g/m*3 20.7 C 8.1 km/h
155 27-05-2020 12:50:00 20.7 C 7.92 g/m*3 20.7 C 6.4 km/h
156 27-05-2020 12:55:00 20.7 C 7.92 g/m*3 20.7 C 9.7 km/h
157 27-05-2020 13:00:00 20.8 C 7.79 g/m*3 20.8 C 9.7 km/h
158 27-05-2020 13:05:00 20.8 C 7.97 g/m*3 20.8 C 4.8 km/h
159 27-05-2020 13:10:00 21 C 8.06 g/m*3 21 C 4.8 km/h
160 27-05-2020 13:15:00 21 C 7.69 g/m*3 21 C 9.7 km/h
161 27-05-2020 13:20:00 21 C 8.06 g/m*3 21 C 8.1 km/h
162 27-05-2020 13:25:00 21.1 C 7.74 g/m*3 21.1 C 8.1 km/h
163 27-05-2020 13:30:00 21.2 C 7.78 g/m*3 21.2 C 11.3 km/h
164 27-05-2020 13:35:00 21.3 C 7.83 g/m*3 21.3 C 11.3 km/h
165 27-05-2020 13:40:00 21.4 C 7.87 g/m*3 21.4 C 11.3 km/h
166 27-05-2020 13:45:00 21.3 C 7.64 g/m*3 21.3 C 9.7 km/h
167 27-05-2020 13:50:00 21.3 C 7.83 g/m*3 21.3 C 4.8 km/h
168 27-05-2020 13:55:00 21.3 C 7.83 g/m*3 21.3 C 6.4 km/h
169 27-05-2020 14:00:00 21.3 C 7.64 g/m*3 21.3 C 6.4 km/h
170 27-05-2020 14:05:00 21.6 C 8.16 g/m*3 21.6 C 8.1 km/h
171 27-05-2020 14:10:00 21.8 C 7.48 g/m*3 21.8 C 8.1 km/h
172 27-05-2020 14:15:00 21.9 C 8.1 g/m*3 21.9 C 3.2 km/h
173 27-05-2020 14:20:00 21.9 C 7.53 g/m*3 21.9 C 8.1 km/h
174 27-05-2020 14:25:00 22.2 C 7.46 g/m*3 22.2 C 11.3 km/h
175 27-05-2020 14:30:00 22.3 C 7.7 g/m*3 22.3 C 9.7 km/h
Sensor: Nr:Datum:Temp:Abs-Feuchte:Windchill:Wind:
Aussen-T/F 176 27-05-2020 14:35:00 22.3 C 7.31 g/m*3 22.3 C 8.1 km/h
177 27-05-2020 14:40:00 22.3 C 7.5 g/m*3 22.3 C 8.1 km/h
178 27-05-2020 14:45:00 22.5 C 7.19 g/m*3 22.5 C 9.7 km/h
179 27-05-2020 14:50:00 22.7 C 7.07 g/m*3 22.7 C 8.1 km/h
180 27-05-2020 14:55:00 22.9 C 7.36 g/m*3 22.9 C 12.9 km/h
181 27-05-2020 15:00:00 23 C 6.58 g/m*3 23 C 8.1 km/h
182 27-05-2020 15:05:00 23 C 6.78 g/m*3 23 C 9.7 km/h
183 27-05-2020 15:10:00 23.2 C 6.65 g/m*3 23.2 C 8.1 km/h
184 27-05-2020 15:15:00 23.3 C 6.69 g/m*3 23.3 C 9.7 km/h
185 27-05-2020 15:20:00 23.4 C 7.15 g/m*3 23.4 C 6.4 km/h
186 27-05-2020 15:25:00 23.7 C 7.06 g/m*3 23.7 C 6.4 km/h
187 27-05-2020 15:30:00 24.2 C 6.82 g/m*3 24.2 C 6.4 km/h
188 27-05-2020 15:35:00 24.6 C 6.98 g/m*3 24.6 C 11.3 km/h
189 27-05-2020 15:40:00 24.7 C 7.02 g/m*3 24.7 C 8.1 km/h
190 27-05-2020 15:45:00 24.9 C 6.87 g/m*3 24.9 C 9.7 km/h
191 27-05-2020 15:50:00 25 C 7.37 g/m*3 25 C 4.8 km/h
192 27-05-2020 15:55:00 25 C 6.91 g/m*3 25 C 8.1 km/h
193 27-05-2020 16:00:00 25.3 C 7.49 g/m*3 25.3 C 4.8 km/h
194 27-05-2020 16:05:00 25.6 C 7.14 g/m*3 25.6 C 6.4 km/h
195 27-05-2020 16:10:00 25.6 C 7.38 g/m*3 25.6 C 8.1 km/h
196 27-05-2020 16:15:00 25.4 C 7.3 g/m*3 25.4 C 8.1 km/h
197 27-05-2020 16:20:00 25.2 C 7.68 g/m*3 25.2 C 9.7 km/h
198 27-05-2020 16:25:00 25.1 C 7.41 g/m*3 25.1 C 14.5 km/h
199 27-05-2020 16:30:00 25 C 7.37 g/m*3 25 C 12.9 km/h
200 27-05-2020 16:35:00 25.1 C 7.64 g/m*3 25.1 C 8.1 km/h
Sensor: Nr:Datum:Temp:Abs-Feuchte:Windchill:Wind:
Aussen-T/F 201 27-05-2020 16:40:00 25.6 C 7.86 g/m*3 25.6 C 8.1 km/h
202 27-05-2020 16:45:00 25.8 C 7.46 g/m*3 25.8 C 6.4 km/h
203 27-05-2020 16:50:00 25.8 C 7.46 g/m*3 25.8 C 4.8 km/h
204 27-05-2020 16:55:00 25.9 C 7.99 g/m*3 25.9 C 3.2 km/h
205 27-05-2020 17:00:00 26.2 C 7.63 g/m*3 26.2 C 8.1 km/h
206 27-05-2020 17:05:00 26.1 C 8.08 g/m*3 26.1 C 8.1 km/h
207 27-05-2020 17:10:00 26.3 C 8.42 g/m*3 26.3 C 8.1 km/h
208 27-05-2020 17:15:00 26.3 C 8.42 g/m*3 26.3 C 11.3 km/h
209 27-05-2020 17:20:00 26.4 C 7.97 g/m*3 26.4 C 1.6 km/h
210 27-05-2020 17:25:00 26.2 C 7.88 g/m*3 26.2 C 4.8 km/h
211 27-05-2020 17:30:00 25.9 C 8.23 g/m*3 25.9 C 11.3 km/h
212 27-05-2020 17:35:00 25.7 C 8.38 g/m*3 25.7 C 9.7 km/h
213 27-05-2020 17:40:00 25.9 C 8.23 g/m*3 25.9 C 6.4 km/h
214 27-05-2020 17:45:00 25.9 C 8.23 g/m*3 25.9 C 11.3 km/h
215 27-05-2020 17:50:00 25.9 C 8.23 g/m*3 25.9 C 9.7 km/h
216 27-05-2020 17:55:00 25.9 C 8.23 g/m*3 25.9 C 6.4 km/h
217 27-05-2020 18:00:00 26 C 8.03 g/m*3 26 C 8.1 km/h
218 27-05-2020 18:05:00 25.9 C 8.23 g/m*3 25.9 C 9.7 km/h
219 27-05-2020 18:10:00 26 C 8.28 g/m*3 26 C 8.1 km/h
220 27-05-2020 18:15:00 26.2 C 8.12 g/m*3 26.2 C 4.8 km/h
221 27-05-2020 18:20:00 26.2 C 8.37 g/m*3 26.2 C 6.4 km/h
222 27-05-2020 18:25:00 25.9 C 7.99 g/m*3 25.9 C 6.4 km/h
223 27-05-2020 18:30:00 25.4 C 8 g/m*3 25.4 C 4.8 km/h
224 27-05-2020 18:35:00 24.8 C 7.97 g/m*3 24.8 C 8.1 km/h
225 27-05-2020 18:40:00 24.6 C 8.1 g/m*3 24.6 C 3.2 km/h
Sensor: Nr:Datum:Temp:Abs-Feuchte:Windchill:Wind:
Aussen-T/F 226 27-05-2020 18:45:00 24.4 C 9.57 g/m*3 24.4 C 1.6 km/h
227 27-05-2020 18:50:00 24.2 C 10.12 g/m*3 24.2 C 1.6 km/h
228 27-05-2020 18:55:00 24 C 10.01 g/m*3 24 C 0 km/h
229 27-05-2020 19:00:00 23.7 C 10.27 g/m*3 23.7 C 0 km/h
230 27-05-2020 19:05:00 23.7 C 9.63 g/m*3 23.7 C 0 km/h
231 27-05-2020 19:10:00 24.1 C 8.53 g/m*3 24.1 C 4.8 km/h
232 27-05-2020 19:15:00 24.5 C 8.5 g/m*3 24.5 C 9.7 km/h
233 27-05-2020 19:20:00 24.5 C 8.28 g/m*3 24.5 C 11.3 km/h
234 27-05-2020 19:25:00 24.4 C 8.23 g/m*3 24.4 C 9.7 km/h
235 27-05-2020 19:30:00 24.1 C 8.31 g/m*3 24.1 C 6.4 km/h
236 27-05-2020 19:35:00 23.8 C 8.17 g/m*3 23.8 C 8.1 km/h
237 27-05-2020 19:40:00 23.7 C 8.56 g/m*3 23.7 C 6.4 km/h
238 27-05-2020 19:45:00 23.6 C 8.51 g/m*3 23.6 C 8.1 km/h
239 27-05-2020 19:50:00 23.3 C 8.36 g/m*3 23.3 C 9.7 km/h
240 27-05-2020 19:55:00 23.3 C 8.78 g/m*3 23.3 C 6.4 km/h
241 27-05-2020 20:00:00 23.2 C 8.52 g/m*3 23.2 C 8.1 km/h
242 27-05-2020 20:05:00 23.1 C 8.68 g/m*3 23.1 C 8.1 km/h
243 27-05-2020 20:10:00 23.2 C 8.73 g/m*3 23.2 C 6.4 km/h
244 27-05-2020 20:15:00 23.2 C 8.94 g/m*3 23.2 C 12.9 km/h
245 27-05-2020 20:20:00 23.2 C 8.94 g/m*3 23.2 C 6.4 km/h
246 27-05-2020 20:25:00 23 C 8.84 g/m*3 23 C 9.7 km/h
247 27-05-2020 20:30:00 22.9 C 8.99 g/m*3 22.9 C 6.4 km/h
248 27-05-2020 20:35:00 22.9 C 9.2 g/m*3 22.9 C 4.8 km/h
249 27-05-2020 20:40:00 22.8 C 8.94 g/m*3 22.8 C 8.1 km/h
250 27-05-2020 20:45:00 22.7 C 9.29 g/m*3 22.7 C 3.2 km/h
Sensor: Nr:Datum:Temp:Abs-Feuchte:Windchill:Wind:
Aussen-T/F 251 27-05-2020 20:50:00 22.4 C 9.14 g/m*3 22.4 C 8.1 km/h
252 27-05-2020 20:55:00 22.2 C 9.62 g/m*3 22.2 C 0 km/h
253 27-05-2020 21:00:00 21.9 C 9.26 g/m*3 21.9 C 8.1 km/h
254 27-05-2020 21:05:00 21.6 C 9.29 g/m*3 21.6 C 4.8 km/h
255 27-05-2020 21:10:00 21.3 C 9.32 g/m*3 21.3 C 1.6 km/h
256 27-05-2020 21:15:00 21.1 C 9.4 g/m*3 21.1 C 6.4 km/h
257 27-05-2020 21:20:00 20.8 C 9.78 g/m*3 20.8 C 4.8 km/h
258 27-05-2020 21:25:00 20.3 C 9.67 g/m*3 20.3 C 4.8 km/h
259 27-05-2020 21:30:00 20.1 C 9.73 g/m*3 20.1 C 4.8 km/h
260 27-05-2020 21:35:00 19.7 C 9.85 g/m*3 19.7 C 1.6 km/h
261 27-05-2020 21:40:00 19.3 C 9.62 g/m*3 19.3 C 1.6 km/h
262 27-05-2020 21:45:00 18.9 C 9.23 g/m*3 18.9 C 4.8 km/h
263 27-05-2020 21:50:00 18.8 C 9.34 g/m*3 18.8 C 4.8 km/h
264 27-05-2020 21:55:00 18.9 C 9.4 g/m*3 18.9 C 4.8 km/h
265 27-05-2020 22:00:00 18.9 C 9.4 g/m*3 18.9 C 3.2 km/h
266 27-05-2020 22:05:00 18.9 C 9.56 g/m*3 18.9 C 1.6 km/h
267 27-05-2020 22:10:00 18.9 C 9.56 g/m*3 18.9 C 1.6 km/h
268 27-05-2020 22:15:00 18.8 C 9.66 g/m*3 18.8 C 1.6 km/h
269 27-05-2020 22:20:00 18.7 C 9.45 g/m*3 18.7 C 3.2 km/h
270 27-05-2020 22:25:00 18.6 C 9.71 g/m*3 18.6 C 3.2 km/h
271 27-05-2020 22:30:00 18.3 C 9.69 g/m*3 18.3 C 0 km/h
272 27-05-2020 22:35:00 18.1 C 9.58 g/m*3 18.1 C 4.8 km/h
273 27-05-2020 22:40:00 17.9 C 9.77 g/m*3 17.9 C 3.2 km/h
274 27-05-2020 22:45:00 17.7 C 9.66 g/m*3 17.7 C 3.2 km/h
275 27-05-2020 22:50:00 17.5 C 9.69 g/m*3 17.5 C 1.6 km/h
Sensor: Nr:Datum:Temp:Abs-Feuchte:Windchill:Wind:
Aussen-T/F 276 27-05-2020 22:55:00 17.4 C 9.63 g/m*3 17.4 C 4.8 km/h
277 27-05-2020 23:00:00 17.4 C 9.63 g/m*3 17.4 C 4.8 km/h
278 27-05-2020 23:05:00 17.3 C 9.87 g/m*3 17.3 C 3.2 km/h
279 27-05-2020 23:10:00 17.2 C 9.81 g/m*3 17.2 C 4.8 km/h
280 27-05-2020 23:15:00 17.1 C 9.75 g/m*3 17.1 C 3.2 km/h
281 27-05-2020 23:20:00 16.9 C 9.78 g/m*3 16.9 C 1.6 km/h
282 27-05-2020 23:25:00 16.8 C 9.87 g/m*3 16.8 C 1.6 km/h
283 27-05-2020 23:30:00 16.7 C 9.81 g/m*3 16.7 C 4.8 km/h
284 27-05-2020 23:35:00 16.5 C 9.83 g/m*3 16.5 C 3.2 km/h
285 27-05-2020 23:40:00 16.3 C 9.85 g/m*3 16.3 C 6.4 km/h
286 27-05-2020 23:45:00 16.2 C 9.93 g/m*3 16.2 C 6.4 km/h
287 27-05-2020 23:50:00 16.1 C 9.87 g/m*3 16.1 C 0 km/h
288 27-05-2020 23:55:00 16 C 9.81 g/m*3 16 C 3.2 km/h
289 28-05-2020 00:00:00 15.9 C 9.89 g/m*3 15.9 C 3.2 km/h
290 28-05-2020 00:05:00 15.7 C 9.9 g/m*3 15.7 C 1.6 km/h
291 28-05-2020 00:10:00 15.6 C 9.84 g/m*3 15.6 C 0 km/h
292 28-05-2020 00:15:00 15.5 C 9.78 g/m*3 15.5 C 1.6 km/h
293 28-05-2020 00:20:00 15.5 C 9.78 g/m*3 15.5 C 4.8 km/h
294 28-05-2020 00:25:00 15.5 C 9.91 g/m*3 15.5 C 4.8 km/h
295 28-05-2020 00:30:00 15.4 C 9.85 g/m*3 15.4 C 3.2 km/h
296 28-05-2020 00:35:00 15.5 C 9.78 g/m*3 15.5 C 3.2 km/h
297 28-05-2020 00:40:00 15.6 C 9.84 g/m*3 15.6 C 0 km/h
298 28-05-2020 00:45:00 15.6 C 9.84 g/m*3 15.6 C 0 km/h
299 28-05-2020 00:50:00 15.7 C 9.9 g/m*3 15.7 C 0 km/h
300 28-05-2020 00:55:00 15.6 C 9.97 g/m*3 15.6 C 3.2 km/h
Sensor: Nr:Datum:Temp:Abs-Feuchte:Windchill:Wind:
Aussen-T/F 301 28-05-2020 01:00:00 15.6 C 9.97 g/m*3 15.6 C 0 km/h
302 28-05-2020 01:05:00 15.5 C 9.78 g/m*3 15.5 C 0 km/h
303 28-05-2020 01:10:00 15.7 C 9.9 g/m*3 15.7 C 4.8 km/h
304 28-05-2020 01:15:00 15.8 C 10.1 g/m*3 15.8 C 3.2 km/h
305 28-05-2020 01:20:00 15.8 C 9.96 g/m*3 15.8 C 4.8 km/h
306 28-05-2020 01:25:00 15.8 C 9.96 g/m*3 15.8 C 4.8 km/h
307 28-05-2020 01:30:00 15.7 C 9.77 g/m*3 15.7 C 3.2 km/h
308 28-05-2020 01:35:00 15.7 C 9.9 g/m*3 15.7 C 3.2 km/h
309 28-05-2020 01:40:00 15.7 C 9.9 g/m*3 15.7 C 0 km/h
310 28-05-2020 01:45:00 15.7 C 9.77 g/m*3 15.7 C 4.8 km/h
311 28-05-2020 01:50:00 15.8 C 9.96 g/m*3 15.8 C 1.6 km/h
312 28-05-2020 01:55:00 15.8 C 9.96 g/m*3 15.8 C 3.2 km/h
313 28-05-2020 02:00:00 15.8 C 9.96 g/m*3 15.8 C 0 km/h
314 28-05-2020 02:05:00 15.7 C 10.03 g/m*3 15.7 C 4.8 km/h
315 28-05-2020 02:10:00 15.6 C 9.97 g/m*3 15.6 C 1.6 km/h
316 28-05-2020 02:15:00 15.6 C 9.97 g/m*3 15.6 C 1.6 km/h
317 28-05-2020 02:20:00 15.4 C 9.85 g/m*3 15.4 C 0 km/h
318 28-05-2020 02:25:00 15.4 C 9.99 g/m*3 15.4 C 0 km/h
319 28-05-2020 02:30:00 15.3 C 9.92 g/m*3 15.3 C 0 km/h
320 28-05-2020 02:35:00 15.3 C 10.06 g/m*3 15.3 C 0 km/h
321 28-05-2020 02:40:00 15.3 C 10.06 g/m*3 15.3 C 0 km/h
322 28-05-2020 02:45:00 15.3 C 10.06 g/m*3 15.3 C 0 km/h
323 28-05-2020 02:50:00 15.3 C 10.06 g/m*3 15.3 C 0 km/h
324 28-05-2020 02:55:00 15.3 C 10.06 g/m*3 15.3 C 1.6 km/h
325 28-05-2020 03:00:00 15.4 C 10.12 g/m*3 15.4 C 0 km/h
Sensor: Nr:Datum:Temp:Abs-Feuchte:Windchill:Wind:
Aussen-T/F 326 28-05-2020 03:05:00 15.4 C 10.12 g/m*3 15.4 C 1.6 km/h
327 28-05-2020 03:10:00 15.3 C 10.06 g/m*3 15.3 C 0 km/h
328 28-05-2020 03:15:00 15.3 C 10.06 g/m*3 15.3 C 0 km/h
329 28-05-2020 03:20:00 15.2 C 10.12 g/m*3 15.2 C 0 km/h
330 28-05-2020 03:25:00 15.2 C 10.12 g/m*3 15.2 C 0 km/h
331 28-05-2020 03:30:00 15.2 C 10.25 g/m*3 15.2 C 0 km/h
332 28-05-2020 03:35:00 15.2 C 10.25 g/m*3 15.2 C 0 km/h
333 28-05-2020 03:40:00 15.1 C 10.19 g/m*3 15.1 C 0 km/h
334 28-05-2020 03:45:00 15 C 10 g/m*3 15 C 1.6 km/h
335 28-05-2020 03:50:00 15.1 C 10.06 g/m*3 15.1 C 6.4 km/h
336 28-05-2020 03:55:00 15.2 C 9.99 g/m*3 15.2 C 6.4 km/h
337 28-05-2020 04:00:00 15.3 C 10.06 g/m*3 15.3 C 0 km/h
338 28-05-2020 04:05:00 15.4 C 10.25 g/m*3 15.4 C 0 km/h
339 28-05-2020 04:10:00 15.4 C 10.25 g/m*3 15.4 C 0 km/h
340 28-05-2020 04:15:00 15.3 C 10.06 g/m*3 15.3 C 1.6 km/h
341 28-05-2020 04:20:00 15.3 C 9.92 g/m*3 15.3 C 3.2 km/h
342 28-05-2020 04:25:00 15.3 C 10.06 g/m*3 15.3 C 1.6 km/h
343 28-05-2020 04:30:00 15.3 C 9.92 g/m*3 15.3 C 1.6 km/h
344 28-05-2020 04:35:00 15.2 C 9.73 g/m*3 15.2 C 3.2 km/h
345 28-05-2020 04:40:00 15 C 9.62 g/m*3 15 C 0 km/h
346 28-05-2020 04:45:00 14.9 C 9.56 g/m*3 14.9 C 4.8 km/h
347 28-05-2020 04:50:00 14.7 C 9.57 g/m*3 14.7 C 1.6 km/h
348 28-05-2020 04:55:00 14.5 C 9.33 g/m*3 14.5 C 11.3 km/h
349 28-05-2020 05:00:00 14.5 C 9.2 g/m*3 14.5 C 6.4 km/h
350 28-05-2020 05:05:00 14.4 C 9.15 g/m*3 14.4 C 4.8 km/h
Sensor: Nr:Datum:Temp:Abs-Feuchte:Windchill:Wind:
Aussen-T/F 351 28-05-2020 05:10:00 14.3 C 8.97 g/m*3 14.3 C 6.4 km/h
352 28-05-2020 05:15:00 14.2 C 8.91 g/m*3 14.2 C 0 km/h
353 28-05-2020 05:20:00 14 C 8.81 g/m*3 14 C 3.2 km/h
354 28-05-2020 05:25:00 13.8 C 8.82 g/m*3 13.8 C 1.6 km/h
355 28-05-2020 05:30:00 13.6 C 8.71 g/m*3 13.6 C 4.8 km/h
356 28-05-2020 05:35:00 13.5 C 8.54 g/m*3 13.5 C 4.8 km/h
357 28-05-2020 05:40:00 13.5 C 8.66 g/m*3 13.5 C 3.2 km/h
358 28-05-2020 05:45:00 13.3 C 8.55 g/m*3 13.3 C 0 km/h
359 28-05-2020 05:50:00 13.1 C 8.56 g/m*3 13.1 C 0 km/h
360 28-05-2020 05:55:00 12.8 C 8.4 g/m*3 12.8 C 0 km/h
361 28-05-2020 06:00:00 12.6 C 8.41 g/m*3 12.6 C 4.8 km/h
362 28-05-2020 06:05:00 12.5 C 8.36 g/m*3 12.5 C 1.6 km/h
363 28-05-2020 06:10:00 12.4 C 8.3 g/m*3 12.4 C 4.8 km/h
364 28-05-2020 06:15:00 12.4 C 8.3 g/m*3 12.4 C 3.2 km/h
365 28-05-2020 06:20:00 12.6 C 8.52 g/m*3 12.6 C 0 km/h
366 28-05-2020 06:25:00 12.7 C 8.57 g/m*3 12.7 C 4.8 km/h
367 28-05-2020 06:30:00 12.7 C 8.46 g/m*3 12.7 C 1.6 km/h
368 28-05-2020 06:35:00 12.7 C 8.46 g/m*3 12.7 C 1.6 km/h
369 28-05-2020 06:40:00 12.8 C 8.51 g/m*3 12.8 C 4.8 km/h
370 28-05-2020 06:45:00 12.7 C 8.35 g/m*3 12.7 C 4.8 km/h
371 28-05-2020 06:50:00 12.8 C 8.4 g/m*3 12.8 C 1.6 km/h
372 28-05-2020 06:55:00 12.8 C 8.62 g/m*3 12.8 C 0 km/h
373 28-05-2020 07:00:00 12.7 C 8.46 g/m*3 12.7 C 1.6 km/h
374 28-05-2020 07:05:00 12.6 C 8.52 g/m*3 12.6 C 1.6 km/h
375 28-05-2020 07:10:00 12.6 C 8.3 g/m*3 12.6 C 4.8 km/h
Sensor: Nr:Datum:Temp:Abs-Feuchte:Windchill:Wind:
Aussen-T/F 376 28-05-2020 07:15:00 12.6 C 8.52 g/m*3 12.6 C 1.6 km/h
377 28-05-2020 07:20:00 12.6 C 8.41 g/m*3 12.6 C 3.2 km/h
378 28-05-2020 07:25:00 12.5 C 8.36 g/m*3 12.5 C 1.6 km/h
379 28-05-2020 07:30:00 12.4 C 8.41 g/m*3 12.4 C 0 km/h
380 28-05-2020 07:35:00 12.3 C 8.25 g/m*3 12.3 C 8.1 km/h
381 28-05-2020 07:40:00 12.4 C 8.3 g/m*3 12.4 C 4.8 km/h
382 28-05-2020 07:45:00 12.6 C 8.3 g/m*3 12.6 C 3.2 km/h
383 28-05-2020 07:50:00 12.7 C 8.35 g/m*3 12.7 C 3.2 km/h
384 28-05-2020 07:55:00 12.8 C 8.18 g/m*3 12.8 C 9.7 km/h
385 28-05-2020 08:00:00 13.1 C 8.33 g/m*3 13.1 C 11.3 km/h
386 28-05-2020 08:05:00 13.2 C 8.27 g/m*3 13.2 C 9.7 km/h
387 28-05-2020 08:10:00 13.3 C 8.32 g/m*3 13.3 C 9.7 km/h
388 28-05-2020 08:15:00 13.4 C 8.25 g/m*3 13.4 C 11.3 km/h
389 28-05-2020 08:20:00 13.6 C 8.36 g/m*3 13.6 C 8.1 km/h
390 28-05-2020 08:25:00 13.7 C 8.41 g/m*3 13.7 C 8.1 km/h
391 28-05-2020 08:30:00 13.7 C 8.41 g/m*3 13.7 C 9.7 km/h
392 28-05-2020 08:35:00 13.7 C 8.29 g/m*3 13.7 C 8.1 km/h
393 28-05-2020 08:40:00 13.7 C 8.41 g/m*3 13.7 C 9.7 km/h
394 28-05-2020 08:45:00 13.8 C 8.46 g/m*3 13.8 C 6.4 km/h
395 28-05-2020 08:50:00 13.9 C 8.51 g/m*3 13.9 C 6.4 km/h
396 28-05-2020 08:55:00 13.9 C 8.51 g/m*3 13.9 C 4.8 km/h
397 28-05-2020 09:00:00 14 C 8.56 g/m*3 14 C 6.4 km/h
398 28-05-2020 09:05:00 14.1 C 8.74 g/m*3 14.1 C 1.6 km/h
399 28-05-2020 09:10:00 14.1 C 8.74 g/m*3 14.1 C 3.2 km/h
400 28-05-2020 09:15:00 14.2 C 8.79 g/m*3 14.2 C 3.2 km/h
Sensor: Nr:Datum:Temp:Abs-Feuchte:Windchill:Wind:
Aussen-T/F 401 28-05-2020 09:20:00 14.3 C 8.72 g/m*3 14.3 C 6.4 km/h
402 28-05-2020 09:25:00 14.4 C 8.65 g/m*3 14.4 C 4.8 km/h
403 28-05-2020 09:30:00 14.5 C 8.58 g/m*3 14.5 C 6.4 km/h
404 28-05-2020 09:35:00 14.7 C 8.69 g/m*3 14.7 C 6.4 km/h
405 28-05-2020 09:40:00 14.8 C 8.74 g/m*3 14.8 C 3.2 km/h
406 28-05-2020 09:45:00 14.9 C 8.67 g/m*3 14.9 C 8.1 km/h
407 28-05-2020 09:50:00 15 C 8.59 g/m*3 15 C 6.4 km/h
408 28-05-2020 09:55:00 15.1 C 8.64 g/m*3 15.1 C 1.6 km/h
409 28-05-2020 10:00:00 15.2 C 8.57 g/m*3 15.2 C 3.2 km/h
410 28-05-2020 10:05:00 15.3 C 8.62 g/m*3 15.3 C 3.2 km/h
411 28-05-2020 10:10:00 15.5 C 8.86 g/m*3 15.5 C 3.2 km/h
412 28-05-2020 10:15:00 15.8 C 8.88 g/m*3 15.8 C 1.6 km/h
413 28-05-2020 10:20:00 16.1 C 8.91 g/m*3 16.1 C 3.2 km/h
414 28-05-2020 10:25:00 16.4 C 8.93 g/m*3 16.4 C 4.8 km/h
415 28-05-2020 10:30:00 16.7 C 9.1 g/m*3 16.7 C 3.2 km/h
416 28-05-2020 10:35:00 17.1 C 8.73 g/m*3 17.1 C 9.7 km/h
417 28-05-2020 10:40:00 17.3 C 8.69 g/m*3 17.3 C 4.8 km/h
418 28-05-2020 10:45:00 17.4 C 8.45 g/m*3 17.4 C 4.8 km/h
419 28-05-2020 10:50:00 17.4 C 8.3 g/m*3 17.4 C 4.8 km/h
420 28-05-2020 10:55:00 17.5 C 7.16 g/m*3 17.5 C 16.1 km/h
421 28-05-2020 11:00:00 17.7 C 7.39 g/m*3 17.7 C 9.7 km/h
422 28-05-2020 11:05:00 17.8 C 7.13 g/m*3 17.8 C 9.7 km/h
423 28-05-2020 11:10:00 18 C 7.22 g/m*3 18 C 9.7 km/h
424 28-05-2020 11:15:00 18.2 C 6.99 g/m*3 18.2 C 12.9 km/h
425 28-05-2020 11:20:00 18.3 C 7.04 g/m*3 18.3 C 11.3 km/h
Sensor: Nr:Datum:Temp:Abs-Feuchte:Windchill:Wind:
Aussen-T/F 426 28-05-2020 11:25:00 18.3 C 7.04 g/m*3 18.3 C 8.1 km/h
427 28-05-2020 11:30:00 18.3 C 6.88 g/m*3 18.3 C 12.9 km/h
428 28-05-2020 11:35:00 18.6 C 7.16 g/m*3 18.6 C 8.1 km/h
429 28-05-2020 11:40:00 18.7 C 6.88 g/m*3 18.7 C 8.1 km/h
430 28-05-2020 11:45:00 18.7 C 7.04 g/m*3 18.7 C 3.2 km/h
431 28-05-2020 11:50:00 18.8 C 6.76 g/m*3 18.8 C 14.5 km/h
432 28-05-2020 11:55:00 18.8 C 6.6 g/m*3 18.8 C 17.7 km/h
433 28-05-2020 12:00:00 18.9 C 6.8 g/m*3 18.9 C 19.3 km/h
434 28-05-2020 12:05:00 19 C 6.68 g/m*3 19 C 11.3 km/h
435 28-05-2020 12:10:00 18.8 C 6.76 g/m*3 18.8 C 6.4 km/h
436 28-05-2020 12:15:00 18.9 C 7.13 g/m*3 18.9 C 12.9 km/h
437 28-05-2020 12:20:00 18.9 C 7.45 g/m*3 18.9 C 16.1 km/h
438 28-05-2020 12:25:00 18.9 C 7.45 g/m*3 18.9 C 8.1 km/h
439 28-05-2020 12:30:00 18.8 C 7.25 g/m*3 18.8 C 12.9 km/h
440 28-05-2020 12:35:00 18.8 C 7.25 g/m*3 18.8 C 6.4 km/h
441 28-05-2020 12:40:00 18.8 C 7.41 g/m*3 18.8 C 8.1 km/h
442 28-05-2020 12:45:00 18.9 C 7.45 g/m*3 18.9 C 16.1 km/h
443 28-05-2020 12:50:00 19.3 C 7.63 g/m*3 19.3 C 12.9 km/h
444 28-05-2020 12:55:00 19.4 C 7.34 g/m*3 19.4 C 11.3 km/h
445 28-05-2020 13:00:00 19.3 C 7.46 g/m*3 19.3 C 3.2 km/h
446 28-05-2020 13:05:00 19.4 C 7.34 g/m*3 19.4 C 17.7 km/h
447 28-05-2020 13:10:00 19.6 C 7.43 g/m*3 19.6 C 14.5 km/h
448 28-05-2020 13:15:00 19.7 C 7.3 g/m*3 19.7 C 12.9 km/h
449 28-05-2020 13:20:00 19.6 C 7.26 g/m*3 19.6 C 4.8 km/h
450 28-05-2020 13:25:00 19.7 C 7.3 g/m*3 19.7 C 12.9 km/h
Sensor: Nr:Datum:Temp:Abs-Feuchte:Windchill:Wind:
Aussen-T/F 451 28-05-2020 13:30:00 19.8 C 7.17 g/m*3 19.8 C 16.1 km/h
452 28-05-2020 13:35:00 19.8 C 7 g/m*3 19.8 C 4.8 km/h
453 28-05-2020 13:40:00 19.7 C 7.13 g/m*3 19.7 C 9.7 km/h
454 28-05-2020 13:45:00 19.8 C 6.83 g/m*3 19.8 C 9.7 km/h
455 28-05-2020 13:50:00 19.9 C 6.87 g/m*3 19.9 C 9.7 km/h
456 28-05-2020 13:55:00 20 C 7.09 g/m*3 20 C 4.8 km/h
457 28-05-2020 14:00:00 20.1 C 6.95 g/m*3 20.1 C 4.8 km/h
458 28-05-2020 14:05:00 20.2 C 6.82 g/m*3 20.2 C 9.7 km/h
459 28-05-2020 14:10:00 20.4 C 6.72 g/m*3 20.4 C 14.5 km/h
460 28-05-2020 14:15:00 20.6 C 6.8 g/m*3 20.6 C 14.5 km/h
461 28-05-2020 14:20:00 20.7 C 6.48 g/m*3 20.7 C 22.5 km/h
462 28-05-2020 14:25:00 20.7 C 6.66 g/m*3 20.7 C 14.5 km/h
463 28-05-2020 14:30:00 20.8 C 6.7 g/m*3 20.8 C 4.8 km/h
464 28-05-2020 14:35:00 21 C 6.59 g/m*3 21 C 19.3 km/h
465 28-05-2020 14:40:00 21.2 C 6.67 g/m*3 21.2 C 8.1 km/h
466 28-05-2020 14:45:00 21.4 C 6.56 g/m*3 21.4 C 12.9 km/h
467 28-05-2020 14:50:00 21.6 C 6.64 g/m*3 21.6 C 16.1 km/h
468 28-05-2020 14:55:00 21.8 C 6.72 g/m*3 21.8 C 8.1 km/h
469 28-05-2020 15:00:00 21.8 C 6.33 g/m*3 21.8 C 16.1 km/h
470 28-05-2020 15:05:00 21.7 C 6.49 g/m*3 21.7 C 11.3 km/h
471 28-05-2020 15:10:00 21.8 C 6.72 g/m*3 21.8 C 16.1 km/h
472 28-05-2020 15:15:00 21.8 C 6.52 g/m*3 21.8 C 16.1 km/h
473 28-05-2020 15:20:00 22 C 6.4 g/m*3 22 C 12.9 km/h
474 28-05-2020 15:25:00 22.4 C 6.36 g/m*3 22.4 C 9.7 km/h
475 28-05-2020 15:30:00 22.7 C 6.06 g/m*3 22.7 C 16.1 km/h
Sensor: Nr:Datum:Temp:Abs-Feuchte:Windchill:Wind:
Aussen-T/F 476 28-05-2020 15:35:00 22.4 C 6.16 g/m*3 22.4 C 17.7 km/h
477 28-05-2020 15:40:00 22.6 C 6.03 g/m*3 22.6 C 14.5 km/h
478 28-05-2020 15:45:00 22.6 C 6.03 g/m*3 22.6 C 16.1 km/h
479 28-05-2020 15:50:00 22.6 C 6.03 g/m*3 22.6 C 14.5 km/h
480 28-05-2020 15:55:00 22.7 C 5.86 g/m*3 22.7 C 11.3 km/h
481 28-05-2020 16:00:00 22.9 C 5.93 g/m*3 22.9 C 11.3 km/h
482 28-05-2020 16:05:00 22.9 C 5.93 g/m*3 22.9 C 16.1 km/h
483 28-05-2020 16:10:00 23 C 5.96 g/m*3 23 C 16.1 km/h
484 28-05-2020 16:15:00 23.3 C 6.06 g/m*3 23.3 C 16.1 km/h
485 28-05-2020 16:20:00 23.4 C 5.89 g/m*3 23.4 C 14.5 km/h
486 28-05-2020 16:25:00 23.5 C 5.71 g/m*3 23.5 C 14.5 km/h
487 28-05-2020 16:30:00 23.6 C 5.74 g/m*3 23.6 C 17.7 km/h
488 28-05-2020 16:35:00 23.7 C 5.99 g/m*3 23.7 C 16.1 km/h
489 28-05-2020 16:40:00 23.6 C 5.74 g/m*3 23.6 C 12.9 km/h
490 28-05-2020 16:45:00 23.7 C 5.78 g/m*3 23.7 C 19.3 km/h
491 28-05-2020 16:50:00 23.7 C 5.78 g/m*3 23.7 C 14.5 km/h
492 28-05-2020 16:55:00 23.7 C 5.78 g/m*3 23.7 C 17.7 km/h
493 28-05-2020 17:00:00 23.7 C 5.78 g/m*3 23.7 C 19.3 km/h
494 28-05-2020 17:05:00 23.4 C 5.26 g/m*3 23.4 C 19.3 km/h
495 28-05-2020 17:10:00 23.3 C 5.65 g/m*3 23.3 C 16.1 km/h
496 28-05-2020 17:15:00 23.3 C 5.65 g/m*3 23.3 C 14.5 km/h
497 28-05-2020 17:20:00 23.4 C 5.68 g/m*3 23.4 C 14.5 km/h
498 28-05-2020 17:25:00 23.4 C 5.89 g/m*3 23.4 C 11.3 km/h
499 28-05-2020 17:30:00 23.9 C 5.84 g/m*3 23.9 C 11.3 km/h
500 28-05-2020 17:35:00 24.1 C 5.69 g/m*3 24.1 C 14.5 km/h
Sensor: Nr:Datum:Temp:Abs-Feuchte:Windchill:Wind:
Aussen-T/F 501 28-05-2020 17:40:00 23.8 C 5.59 g/m*3 23.8 C 14.5 km/h
502 28-05-2020 17:45:00 23.7 C 5.78 g/m*3 23.7 C 17.7 km/h
503 28-05-2020 17:50:00 23.8 C 5.59 g/m*3 23.8 C 17.7 km/h
504 28-05-2020 17:55:00 23.6 C 5.32 g/m*3 23.6 C 16.1 km/h
505 28-05-2020 18:00:00 23.4 C 5.47 g/m*3 23.4 C 17.7 km/h
506 28-05-2020 18:05:00 23.5 C 5.5 g/m*3 23.5 C 14.5 km/h
507 28-05-2020 18:10:00 23.8 C 5.81 g/m*3 23.8 C 17.7 km/h
508 28-05-2020 18:15:00 23.8 C 5.59 g/m*3 23.8 C 17.7 km/h
509 28-05-2020 18:20:00 23.8 C 5.38 g/m*3 23.8 C 9.7 km/h
510 28-05-2020 18:25:00 23.5 C 5.29 g/m*3 23.5 C 12.9 km/h
511 28-05-2020 18:30:00 23.4 C 5.26 g/m*3 23.4 C 16.1 km/h
512 28-05-2020 18:35:00 23.2 C 5.41 g/m*3 23.2 C 12.9 km/h
513 28-05-2020 18:40:00 23.1 C 5.37 g/m*3 23.1 C 20.9 km/h
514 28-05-2020 18:45:00 23.2 C 5.82 g/m*3 23.2 C 19.3 km/h
515 28-05-2020 18:50:00 23.4 C 5.47 g/m*3 23.4 C 12.9 km/h
516 28-05-2020 18:55:00 23.4 C 5.47 g/m*3 23.4 C 16.1 km/h
517 28-05-2020 19:00:00 23.1 C 5.37 g/m*3 23.1 C 24.1 km/h
518 28-05-2020 19:05:00 22.9 C 5.52 g/m*3 22.9 C 16.1 km/h
519 28-05-2020 19:10:00 22.7 C 5.66 g/m*3 22.7 C 16.1 km/h
520 28-05-2020 19:15:00 22.4 C 5.56 g/m*3 22.4 C 16.1 km/h
521 28-05-2020 19:20:00 22.3 C 5.73 g/m*3 22.3 C 11.3 km/h
522 28-05-2020 19:25:00 22.2 C 5.3 g/m*3 22.2 C 14.5 km/h
523 28-05-2020 19:30:00 21.8 C 5.37 g/m*3 21.8 C 19.3 km/h
524 28-05-2020 19:35:00 21.7 C 5.53 g/m*3 21.7 C 12.9 km/h
525 28-05-2020 19:40:00 21.7 C 5.53 g/m*3 21.7 C 16.1 km/h
Sensor: Nr:Datum:Temp:Abs-Feuchte:Windchill:Wind:
Aussen-T/F 526 28-05-2020 19:45:00 21.6 C 5.69 g/m*3 21.6 C 16.1 km/h
527 28-05-2020 19:50:00 21.6 C 5.88 g/m*3 21.6 C 19.3 km/h
528 28-05-2020 19:55:00 21.4 C 5.81 g/m*3 21.4 C 17.7 km/h
529 28-05-2020 20:00:00 21.2 C 5.56 g/m*3 21.2 C 14.5 km/h
530 28-05-2020 20:05:00 21.1 C 5.71 g/m*3 21.1 C 14.5 km/h
531 28-05-2020 20:10:00 21.1 C 5.71 g/m*3 21.1 C 12.9 km/h
532 28-05-2020 20:15:00 21 C 6.05 g/m*3 21 C 9.7 km/h
533 28-05-2020 20:20:00 20.8 C 5.79 g/m*3 20.8 C 16.1 km/h
534 28-05-2020 20:25:00 20.8 C 5.98 g/m*3 20.8 C 11.3 km/h
535 28-05-2020 20:30:00 20.7 C 5.94 g/m*3 20.7 C 11.3 km/h
536 28-05-2020 20:35:00 20.7 C 5.76 g/m*3 20.7 C 11.3 km/h
537 28-05-2020 20:40:00 20.6 C 5.55 g/m*3 20.6 C 14.5 km/h
538 28-05-2020 20:45:00 20.3 C 5.63 g/m*3 20.3 C 11.3 km/h
539 28-05-2020 20:50:00 20.2 C 5.6 g/m*3 20.2 C 11.3 km/h
540 28-05-2020 20:55:00 20 C 5.53 g/m*3 20 C 11.3 km/h
541 28-05-2020 21:00:00 19.8 C 5.81 g/m*3 19.8 C 8.1 km/h
542 28-05-2020 21:05:00 19.6 C 5.74 g/m*3 19.6 C 8.1 km/h
543 28-05-2020 21:10:00 19.4 C 5.67 g/m*3 19.4 C 11.3 km/h
544 28-05-2020 21:15:00 19.3 C 5.81 g/m*3 19.3 C 8.1 km/h
545 28-05-2020 21:20:00 19.1 C 6.07 g/m*3 19.1 C 9.7 km/h
546 28-05-2020 21:25:00 18.8 C 6.12 g/m*3 18.8 C 6.4 km/h
547 28-05-2020 21:30:00 18.7 C 6.56 g/m*3 18.7 C 6.4 km/h
548 28-05-2020 21:35:00 18.4 C 6.76 g/m*3 18.4 C 1.6 km/h
549 28-05-2020 21:40:00 17.9 C 6.57 g/m*3 17.9 C 1.6 km/h
550 28-05-2020 21:45:00 17.3 C 6.63 g/m*3 17.3 C 1.6 km/h
Sensor: Nr:Datum:Temp:Abs-Feuchte:Windchill:Wind:
Aussen-T/F 551 28-05-2020 21:50:00 16.9 C 6.62 g/m*3 16.9 C 0 km/h
552 28-05-2020 21:55:00 16.4 C 6.7 g/m*3 16.4 C 0 km/h
553 28-05-2020 22:00:00 15.9 C 6.77 g/m*3 15.9 C 0 km/h
554 28-05-2020 22:05:00 15.6 C 6.65 g/m*3 15.6 C 0 km/h
555 28-05-2020 22:10:00 15.3 C 6.66 g/m*3 15.3 C 0 km/h
556 28-05-2020 22:15:00 14.9 C 6.63 g/m*3 14.9 C 0 km/h
557 28-05-2020 22:20:00 14.7 C 6.55 g/m*3 14.7 C 1.6 km/h
558 28-05-2020 22:25:00 14.5 C 6.59 g/m*3 14.5 C 0 km/h
559 28-05-2020 22:30:00 14.3 C 6.63 g/m*3 14.3 C 0 km/h
560 28-05-2020 22:35:00 14.1 C 6.67 g/m*3 14.1 C 4.8 km/h
561 28-05-2020 22:40:00 14 C 6.63 g/m*3 14 C 1.6 km/h
562 28-05-2020 22:45:00 13.8 C 6.55 g/m*3 13.8 C 0 km/h
563 28-05-2020 22:50:00 13.7 C 6.75 g/m*3 13.7 C 1.6 km/h
564 28-05-2020 22:55:00 13.6 C 6.71 g/m*3 13.6 C 1.6 km/h
565 28-05-2020 23:00:00 13.4 C 6.63 g/m*3 13.4 C 0 km/h
566 28-05-2020 23:05:00 13.3 C 6.7 g/m*3 13.3 C 1.6 km/h
567 28-05-2020 23:10:00 13.2 C 6.77 g/m*3 13.2 C 1.6 km/h
568 28-05-2020 23:15:00 13 C 6.69 g/m*3 13 C 1.6 km/h
569 28-05-2020 23:20:00 12.8 C 6.72 g/m*3 12.8 C 3.2 km/h
570 28-05-2020 23:25:00 12.7 C 6.68 g/m*3 12.7 C 3.2 km/h
571 28-05-2020 23:30:00 12.6 C 6.75 g/m*3 12.6 C 3.2 km/h
572 28-05-2020 23:35:00 12.5 C 6.71 g/m*3 12.5 C 4.8 km/h
573 28-05-2020 23:40:00 12.4 C 6.77 g/m*3 12.4 C 4.8 km/h
574 28-05-2020 23:45:00 12.3 C 6.84 g/m*3 12.3 C 3.2 km/h
575 28-05-2020 23:50:00 12.3 C 6.84 g/m*3 12.3 C 6.4 km/h
Sensor: Nr:Datum:Temp:Abs-Feuchte:Windchill:Wind:
Aussen-T/F 576 28-05-2020 23:55:00 12.2 C 6.8 g/m*3 12.2 C 3.2 km/h
577 29-05-2020 00:00:00 12.1 C 6.86 g/m*3 12.1 C 1.6 km/h
578 29-05-2020 00:05:00 12.1 C 6.76 g/m*3 12.1 C 3.2 km/h
579 29-05-2020 00:10:00 11.9 C 6.88 g/m*3 11.9 C 3.2 km/h
580 29-05-2020 00:15:00 11.8 C 6.74 g/m*3 11.8 C 1.6 km/h
581 29-05-2020 00:20:00 11.8 C 6.84 g/m*3 11.8 C 1.6 km/h
582 29-05-2020 00:25:00 11.7 C 6.8 g/m*3 11.7 C 3.2 km/h
583 29-05-2020 00:30:00 11.7 C 6.8 g/m*3 11.7 C 3.2 km/h
584 29-05-2020 00:35:00 11.6 C 6.86 g/m*3 11.6 C 1.6 km/h
585 29-05-2020 00:40:00 11.4 C 6.88 g/m*3 11.4 C 4.8 km/h
586 29-05-2020 00:45:00 11.3 C 6.94 g/m*3 11.3 C 1.6 km/h
587 29-05-2020 00:50:00 11.2 C 6.89 g/m*3 11.2 C 0 km/h
588 29-05-2020 00:55:00 11.1 C 6.85 g/m*3 11.1 C 0 km/h
589 29-05-2020 01:00:00 10.9 C 6.86 g/m*3 10.9 C 1.6 km/h
590 29-05-2020 01:05:00 10.8 C 6.82 g/m*3 10.8 C 0 km/h
591 29-05-2020 01:10:00 10.7 C 6.78 g/m*3 10.7 C 0 km/h
592 29-05-2020 01:15:00 10.6 C 6.83 g/m*3 10.6 C 0 km/h
593 29-05-2020 01:20:00 10.4 C 6.84 g/m*3 10.4 C 0 km/h
594 29-05-2020 01:25:00 10.3 C 6.8 g/m*3 10.3 C 0 km/h
595 29-05-2020 01:30:00 10.2 C 6.76 g/m*3 10.2 C 0 km/h
596 29-05-2020 01:35:00 10.1 C 6.81 g/m*3 10.1 C 0 km/h
597 29-05-2020 01:40:00 10.1 C 6.81 g/m*3 10.1 C 0 km/h
598 29-05-2020 01:45:00 10.1 C 6.81 g/m*3 10.1 C 0 km/h
599 29-05-2020 01:50:00 9.9 C 6.82 g/m*3 9.9 C 0 km/h
600 29-05-2020 01:55:00 9.8 C 6.77 g/m*3 9.8 C 0 km/h
Sensor: Nr:Datum:Temp:Abs-Feuchte:Windchill:Wind:
Aussen-T/F 601 29-05-2020 02:00:00 9.7 C 6.82 g/m*3 9.7 C 0 km/h
602 29-05-2020 02:05:00 9.6 C 6.78 g/m*3 9.6 C 0 km/h
603 29-05-2020 02:10:00 9.5 C 6.74 g/m*3 9.5 C 0 km/h
604 29-05-2020 02:15:00 9.5 C 6.83 g/m*3 9.5 C 0 km/h
605 29-05-2020 02:20:00 9.4 C 6.78 g/m*3 9.4 C 0 km/h
606 29-05-2020 02:25:00 9.3 C 6.74 g/m*3 9.3 C 0 km/h
607 29-05-2020 02:30:00 9.2 C 6.79 g/m*3 9.2 C 0 km/h
608 29-05-2020 02:35:00 9.1 C 6.74 g/m*3 9.1 C 0 km/h
609 29-05-2020 02:40:00 9 C 6.79 g/m*3 9 C 0 km/h
610 29-05-2020 02:45:00 8.9 C 6.75 g/m*3 8.9 C 0 km/h
611 29-05-2020 02:50:00 8.8 C 6.7 g/m*3 8.8 C 0 km/h
612 29-05-2020 02:55:00 8.6 C 6.7 g/m*3 8.6 C 0 km/h
613 29-05-2020 03:00:00 8.6 C 6.7 g/m*3 8.6 C 0 km/h
614 29-05-2020 03:05:00 8.5 C 6.66 g/m*3 8.5 C 0 km/h
615 29-05-2020 03:10:00 8.4 C 6.7 g/m*3 8.4 C 0 km/h
616 29-05-2020 03:15:00 8.3 C 6.66 g/m*3 8.3 C 0 km/h
617 29-05-2020 03:20:00 8.3 C 6.74 g/m*3 8.3 C 0 km/h
618 29-05-2020 03:25:00 8.2 C 6.7 g/m*3 8.2 C 0 km/h
619 29-05-2020 03:30:00 8.1 C 6.66 g/m*3 8.1 C 0 km/h
620 29-05-2020 03:35:00 8 C 6.61 g/m*3 8 C 0 km/h
621 29-05-2020 03:40:00 8 C 6.7 g/m*3 8 C 0 km/h
622 29-05-2020 03:45:00 7.9 C 6.65 g/m*3 7.9 C 0 km/h
623 29-05-2020 03:50:00 7.8 C 6.61 g/m*3 7.8 C 0 km/h
624 29-05-2020 03:55:00 7.8 C 6.61 g/m*3 7.8 C 0 km/h
625 29-05-2020 04:00:00 7.7 C 6.65 g/m*3 7.7 C 0 km/h
Sensor: Nr:Datum:Temp:Abs-Feuchte:Windchill:Wind:
Aussen-T/F 626 29-05-2020 04:05:00 7.7 C 6.65 g/m*3 7.7 C 0 km/h
627 29-05-2020 04:10:00 7.6 C 6.69 g/m*3 7.6 C 0 km/h
628 29-05-2020 04:15:00 7.5 C 6.64 g/m*3 7.5 C 0 km/h
629 29-05-2020 04:20:00 7.4 C 6.6 g/m*3 7.4 C 0 km/h
630 29-05-2020 04:25:00 7.3 C 6.56 g/m*3 7.3 C 0 km/h
631 29-05-2020 04:30:00 7.3 C 6.64 g/m*3 7.3 C 0 km/h
632 29-05-2020 04:35:00 7.3 C 6.64 g/m*3 7.3 C 0 km/h
633 29-05-2020 04:40:00 7.2 C 6.59 g/m*3 7.2 C 0 km/h
634 29-05-2020 04:45:00 7.2 C 6.59 g/m*3 7.2 C 0 km/h
635 29-05-2020 04:50:00 7.1 C 6.63 g/m*3 7.1 C 0 km/h
636 29-05-2020 04:55:00 7.1 C 6.63 g/m*3 7.1 C 0 km/h
637 29-05-2020 05:00:00 7 C 6.59 g/m*3 7 C 0 km/h
638 29-05-2020 05:05:00 6.9 C 6.54 g/m*3 6.9 C 0 km/h
639 29-05-2020 05:10:00 6.9 C 6.62 g/m*3 6.9 C 0 km/h
640 29-05-2020 05:15:00 6.9 C 6.62 g/m*3 6.9 C 0 km/h
641 29-05-2020 05:20:00 6.9 C 6.62 g/m*3 6.9 C 0 km/h
642 29-05-2020 05:25:00 6.8 C 6.58 g/m*3 6.8 C 0 km/h
643 29-05-2020 05:30:00 6.8 C 6.58 g/m*3 6.8 C 0 km/h
644 29-05-2020 05:35:00 6.8 C 6.65 g/m*3 6.8 C 0 km/h
645 29-05-2020 05:40:00 6.7 C 6.61 g/m*3 6.7 C 0 km/h
646 29-05-2020 05:45:00 6.7 C 6.61 g/m*3 6.7 C 0 km/h
647 29-05-2020 05:50:00 6.7 C 6.61 g/m*3 6.7 C 0 km/h
648 29-05-2020 05:55:00 6.7 C 6.69 g/m*3 6.7 C 1.6 km/h
649 29-05-2020 06:00:00 6.7 C 6.69 g/m*3 6.7 C 0 km/h
650 29-05-2020 06:05:00 6.7 C 6.69 g/m*3 6.7 C 0 km/h
Sensor: Nr:Datum:Temp:Abs-Feuchte:Windchill:Wind:
Aussen-T/F 651 29-05-2020 06:10:00 6.7 C 6.69 g/m*3 6.7 C 0 km/h
652 29-05-2020 06:15:00 6.7 C 6.69 g/m*3 6.7 C 0 km/h
653 29-05-2020 06:20:00 6.7 C 6.69 g/m*3 6.7 C 0 km/h
654 29-05-2020 06:25:00 6.7 C 6.69 g/m*3 6.7 C 0 km/h
655 29-05-2020 06:30:00 6.7 C 6.69 g/m*3 6.7 C 0 km/h
656 29-05-2020 06:35:00 6.8 C 6.81 g/m*3 6.8 C 0 km/h
657 29-05-2020 06:40:00 6.8 C 6.81 g/m*3 6.8 C 0 km/h
658 29-05-2020 06:45:00 6.8 C 6.81 g/m*3 6.8 C 0 km/h
659 29-05-2020 06:50:00 6.8 C 6.81 g/m*3 6.8 C 0 km/h
660 29-05-2020 06:55:00 6.9 C 6.85 g/m*3 6.9 C 0 km/h
661 29-05-2020 07:00:00 6.9 C 6.85 g/m*3 6.9 C 0 km/h
662 29-05-2020 07:05:00 7 C 6.97 g/m*3 7 C 0 km/h
663 29-05-2020 07:10:00 7.1 C 7.02 g/m*3 7.1 C 0 km/h
664 29-05-2020 07:15:00 7.1 C 7.02 g/m*3 7.1 C 0 km/h
665 29-05-2020 07:20:00 7.2 C 7.06 g/m*3 7.2 C 0 km/h
666 29-05-2020 07:25:00 7.3 C 7.11 g/m*3 7.3 C 0 km/h
667 29-05-2020 07:30:00 7.3 C 7.11 g/m*3 7.3 C 0 km/h
668 29-05-2020 07:35:00 7.4 C 7.16 g/m*3 7.4 C 0 km/h
669 29-05-2020 07:40:00 7.5 C 7.2 g/m*3 7.5 C 0 km/h
670 29-05-2020 07:45:00 7.6 C 7.25 g/m*3 7.6 C 0 km/h
671 29-05-2020 07:50:00 7.7 C 7.38 g/m*3 7.7 C 0 km/h
672 29-05-2020 07:55:00 7.8 C 7.35 g/m*3 7.8 C 0 km/h
673 29-05-2020 08:00:00 7.9 C 7.39 g/m*3 7.9 C 0 km/h
674 29-05-2020 08:05:00 8.1 C 7.49 g/m*3 8.1 C 0 km/h
675 29-05-2020 08:10:00 8.2 C 7.54 g/m*3 8.2 C 0 km/h
Sensor: Nr:Datum:Temp:Abs-Feuchte:Windchill:Wind:
Aussen-T/F 676 29-05-2020 08:15:00 8.3 C 7.59 g/m*3 8.3 C 0 km/h
677 29-05-2020 08:20:00 8.5 C 7.68 g/m*3 8.5 C 0 km/h
678 29-05-2020 08:25:00 8.7 C 7.78 g/m*3 8.7 C 0 km/h
679 29-05-2020 08:30:00 8.8 C 7.83 g/m*3 8.8 C 0 km/h
680 29-05-2020 08:35:00 8.9 C 7.88 g/m*3 8.9 C 0 km/h
681 29-05-2020 08:40:00 9.2 C 7.95 g/m*3 9.2 C 0 km/h
682 29-05-2020 08:45:00 9.3 C 8 g/m*3 9.3 C 0 km/h
683 29-05-2020 08:50:00 9.5 C 8.1 g/m*3 9.5 C 0 km/h
684 29-05-2020 08:55:00 9.7 C 8.11 g/m*3 9.7 C 0 km/h
685 29-05-2020 09:00:00 9.8 C 8.16 g/m*3 9.8 C 0 km/h
686 29-05-2020 09:05:00 10.1 C 8.23 g/m*3 10.1 C 0 km/h
687 29-05-2020 09:10:00 10.3 C 8.33 g/m*3 10.3 C 0 km/h
688 29-05-2020 09:15:00 10.5 C 8.34 g/m*3 10.5 C 0 km/h
689 29-05-2020 09:20:00 10.8 C 8.5 g/m*3 10.8 C 0 km/h
690 29-05-2020 09:25:00 11.1 C 8.56 g/m*3 11.1 C 0 km/h
691 29-05-2020 09:30:00 11.4 C 8.52 g/m*3 11.4 C 0 km/h
692 29-05-2020 09:35:00 11.7 C 8.58 g/m*3 11.7 C 0 km/h
693 29-05-2020 09:40:00 12 C 8.63 g/m*3 12 C 0 km/h
694 29-05-2020 09:45:00 12.3 C 8.47 g/m*3 12.3 C 1.6 km/h
695 29-05-2020 09:50:00 12.7 C 8.46 g/m*3 12.7 C 1.6 km/h
696 29-05-2020 09:55:00 13.3 C 8.43 g/m*3 13.3 C 4.8 km/h
697 29-05-2020 10:00:00 13.9 C 8.39 g/m*3 13.9 C 4.8 km/h
698 29-05-2020 10:05:00 14.4 C 8.41 g/m*3 14.4 C 6.4 km/h
699 29-05-2020 10:10:00 15 C 8.46 g/m*3 15 C 6.4 km/h
700 29-05-2020 10:15:00 15.5 C 8.46 g/m*3 15.5 C 6.4 km/h
Sensor: Nr:Datum:Temp:Abs-Feuchte:Windchill:Wind:
Aussen-T/F 701 29-05-2020 10:20:00 15.9 C 8.8 g/m*3 15.9 C 3.2 km/h
702 29-05-2020 10:25:00 16.3 C 8.6 g/m*3 16.3 C 6.4 km/h
703 29-05-2020 10:30:00 16.7 C 8.67 g/m*3 16.7 C 4.8 km/h
704 29-05-2020 10:35:00 17.1 C 8.59 g/m*3 17.1 C 6.4 km/h
705 29-05-2020 10:40:00 17.4 C 8.15 g/m*3 17.4 C 8.1 km/h
706 29-05-2020 10:45:00 17.7 C 8.45 g/m*3 17.7 C 9.7 km/h
707 29-05-2020 10:50:00 17.9 C 8.09 g/m*3 17.9 C 14.5 km/h
708 29-05-2020 10:55:00 18.1 C 8.03 g/m*3 18.1 C 6.4 km/h
709 29-05-2020 11:00:00 18.2 C 7.93 g/m*3 18.2 C 11.3 km/h
710 29-05-2020 11:05:00 18.2 C 7.77 g/m*3 18.2 C 9.7 km/h
711 29-05-2020 11:10:00 18.4 C 8.02 g/m*3 18.4 C 6.4 km/h
712 29-05-2020 11:15:00 18.6 C 7.96 g/m*3 18.6 C 12.9 km/h
713 29-05-2020 11:20:00 18.7 C 8.01 g/m*3 18.7 C 11.3 km/h
714 29-05-2020 11:25:00 18.9 C 8.1 g/m*3 18.9 C 8.1 km/h
715 29-05-2020 11:30:00 19.1 C 7.38 g/m*3 19.1 C 14.5 km/h
716 29-05-2020 11:35:00 19.2 C 7.42 g/m*3 19.2 C 16.1 km/h
717 29-05-2020 11:40:00 19.3 C 7.46 g/m*3 19.3 C 16.1 km/h
718 29-05-2020 11:45:00 19.3 C 7.63 g/m*3 19.3 C 11.3 km/h
719 29-05-2020 11:50:00 19.3 C 7.3 g/m*3 19.3 C 17.7 km/h
720 29-05-2020 11:55:00 19.2 C 7.09 g/m*3 19.2 C 20.9 km/h
721 29-05-2020 12:00:00 18.9 C 7.13 g/m*3 18.9 C 14.5 km/h
722 29-05-2020 12:05:00 18.9 C 7.13 g/m*3 18.9 C 9.7 km/h
723 29-05-2020 12:10:00 18.8 C 7.09 g/m*3 18.8 C 6.4 km/h
724 29-05-2020 12:15:00 18.9 C 7.13 g/m*3 18.9 C 14.5 km/h
725 29-05-2020 12:20:00 19.2 C 7.09 g/m*3 19.2 C 12.9 km/h
Sensor: Nr:Datum:Temp:Abs-Feuchte:Windchill:Wind:
Aussen-T/F 726 29-05-2020 12:25:00 19.3 C 7.3 g/m*3 19.3 C 12.9 km/h
727 29-05-2020 12:30:00 19.6 C 7.09 g/m*3 19.6 C 14.5 km/h
728 29-05-2020 12:35:00 19.5 C 6.88 g/m*3 19.5 C 12.9 km/h
729 29-05-2020 12:40:00 19.4 C 6.84 g/m*3 19.4 C 9.7 km/h
730 29-05-2020 12:45:00 19.4 C 7.01 g/m*3 19.4 C 14.5 km/h
731 29-05-2020 12:50:00 19.5 C 6.71 g/m*3 19.5 C 16.1 km/h
732 29-05-2020 12:55:00 19.4 C 6.67 g/m*3 19.4 C 16.1 km/h
733 29-05-2020 13:00:00 19.4 C 6.84 g/m*3 19.4 C 16.1 km/h
734 29-05-2020 13:05:00 19.7 C 6.96 g/m*3 19.7 C 17.7 km/h
735 29-05-2020 13:10:00 19.8 C 7 g/m*3 19.8 C 8.1 km/h
736 29-05-2020 13:15:00 20 C 6.91 g/m*3 20 C 16.1 km/h
737 29-05-2020 13:20:00 20.1 C 6.78 g/m*3 20.1 C 20.9 km/h
738 29-05-2020 13:25:00 20.2 C 6.82 g/m*3 20.2 C 16.1 km/h
739 29-05-2020 13:30:00 20.1 C 6.78 g/m*3 20.1 C 11.3 km/h
740 29-05-2020 13:35:00 20.2 C 6.64 g/m*3 20.2 C 9.7 km/h
741 29-05-2020 13:40:00 20.1 C 6.61 g/m*3 20.1 C 22.5 km/h
742 29-05-2020 13:45:00 20.1 C 6.61 g/m*3 20.1 C 8.1 km/h
743 29-05-2020 13:50:00 20.1 C 6.61 g/m*3 20.1 C 11.3 km/h
744 29-05-2020 13:55:00 20.3 C 6.86 g/m*3 20.3 C 14.5 km/h
745 29-05-2020 14:00:00 20.4 C 6.9 g/m*3 20.4 C 11.3 km/h
746 29-05-2020 14:05:00 20.4 C 6.9 g/m*3 20.4 C 16.1 km/h
747 29-05-2020 14:10:00 20.5 C 7.12 g/m*3 20.5 C 8.1 km/h
748 29-05-2020 14:15:00 20.6 C 6.98 g/m*3 20.6 C 14.5 km/h
749 29-05-2020 14:20:00 20.7 C 6.66 g/m*3 20.7 C 12.9 km/h
750 29-05-2020 14:25:00 20.6 C 7.16 g/m*3 20.6 C 12.9 km/h
Sensor: Nr:Datum:Temp:Abs-Feuchte:Windchill:Wind:
Aussen-T/F 751 29-05-2020 14:30:00 20.6 C 6.98 g/m*3 20.6 C 14.5 km/h
752 29-05-2020 14:35:00 20.8 C 6.88 g/m*3 20.8 C 20.9 km/h
753 29-05-2020 14:40:00 20.9 C 6.92 g/m*3 20.9 C 22.5 km/h
754 29-05-2020 14:45:00 20.9 C 6.92 g/m*3 20.9 C 8.1 km/h
755 29-05-2020 14:50:00 21.1 C 7.19 g/m*3 21.1 C 11.3 km/h
756 29-05-2020 14:55:00 20.9 C 6.92 g/m*3 20.9 C 14.5 km/h
757 29-05-2020 15:00:00 21 C 6.96 g/m*3 21 C 9.7 km/h
758 29-05-2020 15:05:00 21.3 C 7.08 g/m*3 21.3 C 6.4 km/h
759 29-05-2020 15:10:00 21.7 C 7.25 g/m*3 21.7 C 9.7 km/h
760 29-05-2020 15:15:00 21.8 C 7.1 g/m*3 21.8 C 14.5 km/h
761 29-05-2020 15:20:00 21.9 C 7.14 g/m*3 21.9 C 9.7 km/h
762 29-05-2020 15:25:00 22.1 C 7.22 g/m*3 22.1 C 17.7 km/h
763 29-05-2020 15:30:00 22.2 C 7.07 g/m*3 22.2 C 14.5 km/h
764 29-05-2020 15:35:00 22.3 C 6.91 g/m*3 22.3 C 9.7 km/h
765 29-05-2020 15:40:00 22.7 C 7.07 g/m*3 22.7 C 11.3 km/h
766 29-05-2020 15:45:00 23 C 6.99 g/m*3 23 C 19.3 km/h
767 29-05-2020 15:50:00 22.8 C 7.11 g/m*3 22.8 C 14.5 km/h
768 29-05-2020 15:55:00 22.6 C 7.03 g/m*3 22.6 C 9.7 km/h
769 29-05-2020 16:00:00 22.7 C 6.87 g/m*3 22.7 C 9.7 km/h
770 29-05-2020 16:05:00 22.8 C 6.91 g/m*3 22.8 C 14.5 km/h
771 29-05-2020 16:10:00 22.8 C 6.91 g/m*3 22.8 C 14.5 km/h
772 29-05-2020 16:15:00 22.9 C 6.95 g/m*3 22.9 C 11.3 km/h
773 29-05-2020 16:20:00 23.2 C 7.28 g/m*3 23.2 C 9.7 km/h
774 29-05-2020 16:25:00 23.6 C 7.23 g/m*3 23.6 C 12.9 km/h
775 29-05-2020 16:30:00 23.4 C 6.94 g/m*3 23.4 C 14.5 km/h
Sensor: Nr:Datum:Temp:Abs-Feuchte:Windchill:Wind:
Aussen-T/F 776 29-05-2020 16:35:00 23.2 C 7.07 g/m*3 23.2 C 9.7 km/h
777 29-05-2020 16:40:00 23.2 C 7.07 g/m*3 23.2 C 8.1 km/h
778 29-05-2020 16:45:00 23.3 C 6.9 g/m*3 23.3 C 11.3 km/h
779 29-05-2020 16:50:00 23.3 C 6.9 g/m*3 23.3 C 17.7 km/h
780 29-05-2020 16:55:00 22.9 C 6.95 g/m*3 22.9 C 12.9 km/h
781 29-05-2020 17:00:00 22.8 C 7.11 g/m*3 22.8 C 14.5 km/h
782 29-05-2020 17:05:00 22.9 C 7.36 g/m*3 22.9 C 14.5 km/h
783 29-05-2020 17:10:00 23.5 C 7.19 g/m*3 23.5 C 9.7 km/h
784 29-05-2020 17:15:00 23.6 C 7.02 g/m*3 23.6 C 6.4 km/h
785 29-05-2020 17:20:00 23.4 C 7.15 g/m*3 23.4 C 17.7 km/h
786 29-05-2020 17:25:00 23.4 C 7.15 g/m*3 23.4 C 9.7 km/h
787 29-05-2020 17:30:00 23.6 C 7.02 g/m*3 23.6 C 9.7 km/h
788 29-05-2020 17:35:00 23.4 C 6.94 g/m*3 23.4 C 8.1 km/h
789 29-05-2020 17:40:00 23.3 C 6.9 g/m*3 23.3 C 4.8 km/h
790 29-05-2020 17:45:00 23 C 6.78 g/m*3 23 C 4.8 km/h
791 29-05-2020 17:50:00 22.9 C 6.74 g/m*3 22.9 C 9.7 km/h
792 29-05-2020 17:55:00 23.3 C 6.9 g/m*3 23.3 C 6.4 km/h
793 29-05-2020 18:00:00 23.7 C 6.63 g/m*3 23.7 C 12.9 km/h
794 29-05-2020 18:05:00 23.8 C 6.88 g/m*3 23.8 C 9.7 km/h
795 29-05-2020 18:10:00 23.7 C 6.42 g/m*3 23.7 C 16.1 km/h
796 29-05-2020 18:15:00 23.5 C 6.34 g/m*3 23.5 C 14.5 km/h
797 29-05-2020 18:20:00 23.2 C 6.44 g/m*3 23.2 C 24.1 km/h
798 29-05-2020 18:25:00 22.8 C 6.5 g/m*3 22.8 C 24.1 km/h
799 29-05-2020 18:30:00 23.1 C 6.61 g/m*3 23.1 C 16.1 km/h
800 29-05-2020 18:35:00 23.5 C 6.56 g/m*3 23.5 C 8.1 km/h
Sensor: Nr:Datum:Temp:Abs-Feuchte:Windchill:Wind:
Aussen-T/F 801 29-05-2020 18:40:00 23.5 C 6.34 g/m*3 23.5 C 8.1 km/h
802 29-05-2020 18:45:00 23.6 C 6.59 g/m*3 23.6 C 12.9 km/h
803 29-05-2020 18:50:00 23.8 C 6.45 g/m*3 23.8 C 8.1 km/h
804 29-05-2020 18:55:00 23.7 C 6.2 g/m*3 23.7 C 11.3 km/h
805 29-05-2020 19:00:00 23.6 C 6.17 g/m*3 23.6 C 11.3 km/h
806 29-05-2020 19:05:00 23.3 C 6.48 g/m*3 23.3 C 11.3 km/h
807 29-05-2020 19:10:00 23.2 C 6.03 g/m*3 23.2 C 9.7 km/h
808 29-05-2020 19:15:00 23.1 C 5.79 g/m*3 23.1 C 11.3 km/h
809 29-05-2020 19:20:00 22.9 C 5.93 g/m*3 22.9 C 11.3 km/h
810 29-05-2020 19:25:00 22.7 C 5.86 g/m*3 22.7 C 11.3 km/h
811 29-05-2020 19:30:00 22.4 C 5.76 g/m*3 22.4 C 12.9 km/h
812 29-05-2020 19:35:00 22.3 C 5.92 g/m*3 22.3 C 9.7 km/h
813 29-05-2020 19:40:00 22.3 C 5.92 g/m*3 22.3 C 8.1 km/h
814 29-05-2020 19:45:00 22.2 C 5.89 g/m*3 22.2 C 11.3 km/h
815 29-05-2020 19:50:00 22.2 C 5.89 g/m*3 22.2 C 6.4 km/h
816 29-05-2020 19:55:00 22.2 C 5.89 g/m*3 22.2 C 8.1 km/h
817 29-05-2020 20:00:00 21.9 C 5.79 g/m*3 21.9 C 6.4 km/h
818 29-05-2020 20:05:00 21.8 C 5.56 g/m*3 21.8 C 11.3 km/h
819 29-05-2020 20:10:00 21.7 C 5.53 g/m*3 21.7 C 8.1 km/h
820 29-05-2020 20:15:00 21.7 C 5.72 g/m*3 21.7 C 4.8 km/h
821 29-05-2020 20:20:00 21.7 C 5.53 g/m*3 21.7 C 8.1 km/h
822 29-05-2020 20:25:00 21.6 C 5.88 g/m*3 21.6 C 4.8 km/h
823 29-05-2020 20:30:00 21.5 C 5.66 g/m*3 21.5 C 6.4 km/h
824 29-05-2020 20:35:00 21.4 C 5.81 g/m*3 21.4 C 3.2 km/h
825 29-05-2020 20:40:00 21.3 C 5.96 g/m*3 21.3 C 3.2 km/h
Sensor: Nr:Datum:Temp:Abs-Feuchte:Windchill:Wind:
Aussen-T/F 826 29-05-2020 20:45:00 21.2 C 6.12 g/m*3 21.2 C 3.2 km/h
827 29-05-2020 20:50:00 21 C 7.33 g/m*3 21 C 1.6 km/h
828 29-05-2020 20:55:00 20.7 C 7.2 g/m*3 20.7 C 1.6 km/h
829 29-05-2020 21:00:00 20.3 C 7.03 g/m*3 20.3 C 1.6 km/h
830 29-05-2020 21:05:00 19.9 C 7.22 g/m*3 19.9 C 3.2 km/h
831 29-05-2020 21:10:00 19.3 C 7.13 g/m*3 19.3 C 4.8 km/h
832 29-05-2020 21:15:00 18.8 C 7.09 g/m*3 18.8 C 3.2 km/h
833 29-05-2020 21:20:00 18.3 C 6.72 g/m*3 18.3 C 3.2 km/h
834 29-05-2020 21:25:00 17.8 C 6.68 g/m*3 17.8 C 4.8 km/h
835 29-05-2020 21:30:00 17.4 C 6.82 g/m*3 17.4 C 1.6 km/h
836 29-05-2020 21:35:00 16.9 C 6.62 g/m*3 16.9 C 3.2 km/h
837 29-05-2020 21:40:00 16.5 C 6.74 g/m*3 16.5 C 3.2 km/h
838 29-05-2020 21:45:00 16.2 C 6.48 g/m*3 16.2 C 3.2 km/h
839 29-05-2020 21:50:00 15.9 C 6.5 g/m*3 15.9 C 3.2 km/h
840 29-05-2020 21:55:00 15.7 C 6.56 g/m*3 15.7 C 1.6 km/h
841 29-05-2020 22:00:00 15.4 C 6.44 g/m*3 15.4 C 6.4 km/h
842 29-05-2020 22:05:00 15.3 C 6.4 g/m*3 15.3 C 3.2 km/h
843 29-05-2020 22:10:00 15.1 C 6.45 g/m*3 15.1 C 6.4 km/h
844 29-05-2020 22:15:00 14.9 C 6.5 g/m*3 14.9 C 1.6 km/h
845 29-05-2020 22:20:00 14.8 C 6.33 g/m*3 14.8 C 1.6 km/h
846 29-05-2020 22:25:00 14.6 C 6.38 g/m*3 14.6 C 4.8 km/h
847 29-05-2020 22:30:00 14.5 C 6.34 g/m*3 14.5 C 0 km/h
848 29-05-2020 22:35:00 14.4 C 6.3 g/m*3 14.4 C 6.4 km/h
849 29-05-2020 22:40:00 14.3 C 6.51 g/m*3 14.3 C 6.4 km/h
850 29-05-2020 22:45:00 14.2 C 6.23 g/m*3 14.2 C 8.1 km/h
Sensor: Nr:Datum:Temp:Abs-Feuchte:Windchill:Wind:
Aussen-T/F 851 29-05-2020 22:50:00 14.2 C 6.23 g/m*3 14.2 C 6.4 km/h
852 29-05-2020 22:55:00 14.2 C 6.47 g/m*3 14.2 C 8.1 km/h
853 29-05-2020 23:00:00 14.1 C 6.43 g/m*3 14.1 C 4.8 km/h
854 29-05-2020 23:05:00 14 C 6.39 g/m*3 14 C 6.4 km/h
855 29-05-2020 23:10:00 13.9 C 6.47 g/m*3 13.9 C 8.1 km/h
856 29-05-2020 23:15:00 13.9 C 6.59 g/m*3 13.9 C 6.4 km/h
857 29-05-2020 23:20:00 13.8 C 6.67 g/m*3 13.8 C 4.8 km/h
858 29-05-2020 23:25:00 13.7 C 6.75 g/m*3 13.7 C 3.2 km/h
859 29-05-2020 23:30:00 13.6 C 6.71 g/m*3 13.6 C 3.2 km/h
860 29-05-2020 23:35:00 13.4 C 6.63 g/m*3 13.4 C 4.8 km/h
861 29-05-2020 23:40:00 13.3 C 6.82 g/m*3 13.3 C 1.6 km/h
862 29-05-2020 23:45:00 13.3 C 6.7 g/m*3 13.3 C 3.2 km/h
863 29-05-2020 23:50:00 13.2 C 6.89 g/m*3 13.2 C 1.6 km/h
864 29-05-2020 23:55:00 13.2 C 6.89 g/m*3 13.2 C 3.2 km/h
865 30-05-2020 00:00:00 13.3 C 6.82 g/m*3 13.3 C 3.2 km/h
866 30-05-2020 00:05:00 13.3 C 6.93 g/m*3 13.3 C 1.6 km/h
867 30-05-2020 00:10:00 13.3 C 6.82 g/m*3 13.3 C 3.2 km/h
868 30-05-2020 00:15:00 13.3 C 6.82 g/m*3 13.3 C 1.6 km/h
869 30-05-2020 00:20:00 13.3 C 6.93 g/m*3 13.3 C 1.6 km/h
870 30-05-2020 00:25:00 13.2 C 7 g/m*3 13.2 C 1.6 km/h
871 30-05-2020 00:30:00 13.2 C 7 g/m*3 13.2 C 4.8 km/h
872 30-05-2020 00:35:00 13.1 C 7.07 g/m*3 13.1 C 0 km/h
873 30-05-2020 00:40:00 13 C 7.03 g/m*3 13 C 3.2 km/h
874 30-05-2020 00:45:00 12.9 C 6.99 g/m*3 12.9 C 1.6 km/h
875 30-05-2020 00:50:00 12.8 C 6.94 g/m*3 12.8 C 4.8 km/h
Sensor: Nr:Datum:Temp:Abs-Feuchte:Windchill:Wind:
Aussen-T/F 876 30-05-2020 00:55:00 12.8 C 6.94 g/m*3 12.8 C 0 km/h
877 30-05-2020 01:00:00 12.7 C 7.01 g/m*3 12.7 C 0 km/h
878 30-05-2020 01:05:00 12.6 C 6.97 g/m*3 12.6 C 1.6 km/h
879 30-05-2020 01:10:00 12.5 C 6.82 g/m*3 12.5 C 3.2 km/h
880 30-05-2020 01:15:00 12.4 C 6.77 g/m*3 12.4 C 3.2 km/h
881 30-05-2020 01:20:00 12.4 C 6.77 g/m*3 12.4 C 1.6 km/h
882 30-05-2020 01:25:00 12.3 C 6.84 g/m*3 12.3 C 0 km/h
883 30-05-2020 01:30:00 12.3 C 6.73 g/m*3 12.3 C 3.2 km/h
884 30-05-2020 01:35:00 12.3 C 6.95 g/m*3 12.3 C 3.2 km/h
885 30-05-2020 01:40:00 12.2 C 6.91 g/m*3 12.2 C 3.2 km/h
886 30-05-2020 01:45:00 12.1 C 6.86 g/m*3 12.1 C 3.2 km/h
887 30-05-2020 01:50:00 11.9 C 6.78 g/m*3 11.9 C 3.2 km/h
888 30-05-2020 01:55:00 11.8 C 6.84 g/m*3 11.8 C 3.2 km/h
889 30-05-2020 02:00:00 11.7 C 6.8 g/m*3 11.7 C 4.8 km/h
890 30-05-2020 02:05:00 11.6 C 6.76 g/m*3 11.6 C 1.6 km/h
891 30-05-2020 02:10:00 11.4 C 6.77 g/m*3 11.4 C 3.2 km/h
892 30-05-2020 02:15:00 11.4 C 6.77 g/m*3 11.4 C 3.2 km/h
893 30-05-2020 02:20:00 11.3 C 6.83 g/m*3 11.3 C 3.2 km/h
894 30-05-2020 02:25:00 11.3 C 6.83 g/m*3 11.3 C 0 km/h
895 30-05-2020 02:30:00 11.3 C 6.83 g/m*3 11.3 C 0 km/h
896 30-05-2020 02:35:00 11.2 C 6.79 g/m*3 11.2 C 3.2 km/h
897 30-05-2020 02:40:00 11.1 C 6.75 g/m*3 11.1 C 0 km/h
898 30-05-2020 02:45:00 11.1 C 6.85 g/m*3 11.1 C 1.6 km/h
899 30-05-2020 02:50:00 11 C 6.81 g/m*3 11 C 0 km/h
900 30-05-2020 02:55:00 10.9 C 6.76 g/m*3 10.9 C 1.6 km/h
Sensor: Nr:Datum:Temp:Abs-Feuchte:Windchill:Wind:
Aussen-T/F 901 30-05-2020 03:00:00 10.9 C 6.76 g/m*3 10.9 C 1.6 km/h
902 30-05-2020 03:05:00 10.8 C 6.72 g/m*3 10.8 C 1.6 km/h
903 30-05-2020 03:10:00 10.8 C 6.72 g/m*3 10.8 C 3.2 km/h
904 30-05-2020 03:15:00 10.8 C 6.72 g/m*3 10.8 C 1.6 km/h
905 30-05-2020 03:20:00 10.7 C 6.68 g/m*3 10.7 C 3.2 km/h
906 30-05-2020 03:25:00 10.6 C 6.73 g/m*3 10.6 C 3.2 km/h
907 30-05-2020 03:30:00 10.6 C 6.73 g/m*3 10.6 C 3.2 km/h
908 30-05-2020 03:35:00 10.5 C 6.69 g/m*3 10.5 C 1.6 km/h
909 30-05-2020 03:40:00 10.4 C 6.75 g/m*3 10.4 C 3.2 km/h
910 30-05-2020 03:45:00 10.3 C 6.7 g/m*3 10.3 C 3.2 km/h
911 30-05-2020 03:50:00 10.2 C 6.66 g/m*3 10.2 C 3.2 km/h
912 30-05-2020 03:55:00 10.1 C 6.62 g/m*3 10.1 C 3.2 km/h
913 30-05-2020 04:00:00 10.1 C 6.71 g/m*3 10.1 C 3.2 km/h
914 30-05-2020 04:05:00 10 C 6.67 g/m*3 10 C 4.8 km/h
915 30-05-2020 04:10:00 9.9 C 6.63 g/m*3 9.9 C 4.8 km/h
916 30-05-2020 04:15:00 9.8 C 6.68 g/m*3 9.8 C 3.2 km/h
917 30-05-2020 04:20:00 9.8 C 6.68 g/m*3 9.8 C 1.6 km/h
918 30-05-2020 04:25:00 9.7 C 6.64 g/m*3 9.7 C 1.6 km/h
919 30-05-2020 04:30:00 9.6 C 6.69 g/m*3 9.6 C 0 km/h
920 30-05-2020 04:35:00 9.4 C 6.69 g/m*3 9.4 C 0 km/h
921 30-05-2020 04:40:00 9.4 C 6.69 g/m*3 9.4 C 3.2 km/h
922 30-05-2020 04:45:00 9.3 C 6.74 g/m*3 9.3 C 4.8 km/h
923 30-05-2020 04:50:00 9.3 C 6.65 g/m*3 9.3 C 1.6 km/h
924 30-05-2020 04:55:00 9.3 C 6.74 g/m*3 9.3 C 0 km/h
925 30-05-2020 05:00:00 9.2 C 6.7 g/m*3 9.2 C 0 km/h
Sensor: Nr:Datum:Temp:Abs-Feuchte:Windchill:Wind:
Aussen-T/F 926 30-05-2020 05:05:00 9.1 C 6.74 g/m*3 9.1 C 0 km/h
927 30-05-2020 05:10:00 8.9 C 6.66 g/m*3 8.9 C 0 km/h
928 30-05-2020 05:15:00 8.9 C 6.66 g/m*3 8.9 C 0 km/h
929 30-05-2020 05:20:00 8.8 C 6.7 g/m*3 8.8 C 0 km/h
930 30-05-2020 05:25:00 8.7 C 6.66 g/m*3 8.7 C 0 km/h
931 30-05-2020 05:30:00 8.6 C 6.62 g/m*3 8.6 C 0 km/h
932 30-05-2020 05:35:00 8.6 C 6.7 g/m*3 8.6 C 0 km/h
933 30-05-2020 05:40:00 8.4 C 6.7 g/m*3 8.4 C 0 km/h
934 30-05-2020 05:45:00 8.4 C 6.7 g/m*3 8.4 C 0 km/h
935 30-05-2020 05:50:00 8.3 C 6.74 g/m*3 8.3 C 0 km/h
936 30-05-2020 05:55:00 8.2 C 6.7 g/m*3 8.2 C 0 km/h
937 30-05-2020 06:00:00 8.2 C 6.78 g/m*3 8.2 C 0 km/h
938 30-05-2020 06:05:00 8.1 C 6.74 g/m*3 8.1 C 0 km/h
939 30-05-2020 06:10:00 8.1 C 6.74 g/m*3 8.1 C 0 km/h
940 30-05-2020 06:15:00 8.1 C 6.82 g/m*3 8.1 C 0 km/h
941 30-05-2020 06:20:00 8 C 6.78 g/m*3 8 C 0 km/h
942 30-05-2020 06:25:00 8 C 6.78 g/m*3 8 C 0 km/h
943 30-05-2020 06:30:00 8 C 6.86 g/m*3 8 C 0 km/h
944 30-05-2020 06:35:00 8.1 C 6.91 g/m*3 8.1 C 0 km/h
945 30-05-2020 06:40:00 8.1 C 6.99 g/m*3 8.1 C 0 km/h
946 30-05-2020 06:45:00 8.2 C 7.03 g/m*3 8.2 C 0 km/h
947 30-05-2020 06:50:00 8.2 C 7.03 g/m*3 8.2 C 0 km/h
948 30-05-2020 06:55:00 8.3 C 7.16 g/m*3 8.3 C 0 km/h
949 30-05-2020 07:00:00 8.3 C 7.08 g/m*3 8.3 C 0 km/h
950 30-05-2020 07:05:00 8.3 C 7.16 g/m*3 8.3 C 0 km/h
Sensor: Nr:Datum:Temp:Abs-Feuchte:Windchill:Wind:
Aussen-T/F 951 30-05-2020 07:10:00 8.4 C 7.21 g/m*3 8.4 C 0 km/h
952 30-05-2020 07:15:00 8.4 C 7.21 g/m*3 8.4 C 0 km/h
953 30-05-2020 07:20:00 8.5 C 7.26 g/m*3 8.5 C 0 km/h
954 30-05-2020 07:25:00 8.6 C 7.3 g/m*3 8.6 C 0 km/h
955 30-05-2020 07:30:00 8.6 C 7.3 g/m*3 8.6 C 0 km/h
956 30-05-2020 07:35:00 8.7 C 7.44 g/m*3 8.7 C 0 km/h
957 30-05-2020 07:40:00 8.8 C 7.49 g/m*3 8.8 C 0 km/h
958 30-05-2020 07:45:00 8.8 C 7.49 g/m*3 8.8 C 0 km/h
959 30-05-2020 07:50:00 8.9 C 7.53 g/m*3 8.9 C 0 km/h
960 30-05-2020 07:55:00 9.1 C 7.63 g/m*3 9.1 C 0 km/h
961 30-05-2020 08:00:00 9.2 C 7.68 g/m*3 9.2 C 0 km/h
962 30-05-2020 08:05:00 9.3 C 7.73 g/m*3 9.3 C 1.6 km/h
963 30-05-2020 08:10:00 9.5 C 7.83 g/m*3 9.5 C 0 km/h
964 30-05-2020 08:15:00 9.7 C 7.84 g/m*3 9.7 C 0 km/h
965 30-05-2020 08:20:00 9.8 C 7.89 g/m*3 9.8 C 0 km/h
966 30-05-2020 08:25:00 10.1 C 7.94 g/m*3 10.1 C 0 km/h
967 30-05-2020 08:30:00 10.2 C 7.99 g/m*3 10.2 C 0 km/h
968 30-05-2020 08:35:00 10.4 C 8 g/m*3 10.4 C 0 km/h
969 30-05-2020 08:40:00 10.7 C 8.15 g/m*3 10.7 C 0 km/h
970 30-05-2020 08:45:00 10.8 C 8.11 g/m*3 10.8 C 0 km/h
971 30-05-2020 08:50:00 11.1 C 8.26 g/m*3 11.1 C 0 km/h
972 30-05-2020 08:55:00 11.3 C 8.26 g/m*3 11.3 C 0 km/h
973 30-05-2020 09:00:00 11.4 C 8.31 g/m*3 11.4 C 0 km/h
974 30-05-2020 09:05:00 11.7 C 8.37 g/m*3 11.7 C 0 km/h
975 30-05-2020 09:10:00 11.9 C 8.47 g/m*3 11.9 C 0 km/h
Sensor: Nr:Datum:Temp:Abs-Feuchte:Windchill:Wind:
Aussen-T/F 976 30-05-2020 09:15:00 12.1 C 8.47 g/m*3 12.1 C 0 km/h
977 30-05-2020 09:20:00 12.3 C 8.47 g/m*3 12.3 C 0 km/h
978 30-05-2020 09:25:00 12.6 C 8.52 g/m*3 12.6 C 0 km/h
979 30-05-2020 09:30:00 12.9 C 8.45 g/m*3 12.9 C 0 km/h
980 30-05-2020 09:35:00 13.2 C 8.61 g/m*3 13.2 C 8.1 km/h
981 30-05-2020 09:40:00 14.2 C 8.3 g/m*3 14.2 C 8.1 km/h
982 30-05-2020 09:45:00 15 C 7.95 g/m*3 15 C 6.4 km/h
983 30-05-2020 09:50:00 15.7 C 8.16 g/m*3 15.7 C 9.7 km/h
984 30-05-2020 09:55:00 16.2 C 7.72 g/m*3 16.2 C 8.1 km/h
985 30-05-2020 10:00:00 16.7 C 7.96 g/m*3 16.7 C 9.7 km/h
986 30-05-2020 10:05:00 17.1 C 7.86 g/m*3 17.1 C 11.3 km/h
987 30-05-2020 10:10:00 17.5 C 7.75 g/m*3 17.5 C 12.9 km/h
988 30-05-2020 10:15:00 17.8 C 7.74 g/m*3 17.8 C 9.7 km/h
989 30-05-2020 10:20:00 18 C 7.68 g/m*3 18 C 9.7 km/h
990 30-05-2020 10:25:00 18.2 C 7.62 g/m*3 18.2 C 9.7 km/h
991 30-05-2020 10:30:00 18.4 C 7.86 g/m*3 18.4 C 11.3 km/h
992 30-05-2020 10:35:00 18.7 C 7.68 g/m*3 18.7 C 6.4 km/h
993 30-05-2020 10:40:00 18.8 C 8.21 g/m*3 18.8 C 9.7 km/h
994 30-05-2020 10:45:00 19.1 C 7.87 g/m*3 19.1 C 8.1 km/h
995 30-05-2020 10:50:00 19.2 C 7.59 g/m*3 19.2 C 8.1 km/h
996 30-05-2020 10:55:00 19.4 C 7.67 g/m*3 19.4 C 11.3 km/h
997 30-05-2020 11:00:00 19.4 C 8.01 g/m*3 19.4 C 9.7 km/h
998 30-05-2020 11:05:00 19.4 C 7.01 g/m*3 19.4 C 22.5 km/h
999 30-05-2020 11:10:00 19.2 C 6.6 g/m*3 19.2 C 30.6 km/h
1000 30-05-2020 11:15:00 19.1 C 6.72 g/m*3 19.1 C 22.5 km/h
Sensor: Nr:Datum:Temp:Abs-Feuchte:Windchill:Wind:
Aussen-T/F 1001 30-05-2020 11:20:00 19.2 C 6.6 g/m*3 19.2 C 20.9 km/h
1002 30-05-2020 11:25:00 19.2 C 6.43 g/m*3 19.2 C 17.7 km/h
1003 30-05-2020 11:30:00 19.3 C 6.47 g/m*3 19.3 C 22.5 km/h
1004 30-05-2020 11:35:00 19.3 C 6.63 g/m*3 19.3 C 19.3 km/h
1005 30-05-2020 11:40:00 19.4 C 6.84 g/m*3 19.4 C 17.7 km/h
1006 30-05-2020 11:45:00 19.4 C 6.51 g/m*3 19.4 C 22.5 km/h
1007 30-05-2020 11:50:00 19.5 C 6.88 g/m*3 19.5 C 22.5 km/h
1008 30-05-2020 11:55:00 19.5 C 6.71 g/m*3 19.5 C 14.5 km/h
1009 30-05-2020 12:00:00 19.5 C 6.88 g/m*3 19.5 C 9.7 km/h
1010 30-05-2020 12:05:00 19.6 C 6.92 g/m*3 19.6 C 19.3 km/h
1011 30-05-2020 12:10:00 19.7 C 6.79 g/m*3 19.7 C 14.5 km/h
1012 30-05-2020 12:15:00 19.6 C 6.75 g/m*3 19.6 C 16.1 km/h
1013 30-05-2020 12:20:00 19.6 C 6.92 g/m*3 19.6 C 11.3 km/h
1014 30-05-2020 12:25:00 19.7 C 6.62 g/m*3 19.7 C 11.3 km/h
1015 30-05-2020 12:30:00 19.8 C 6.66 g/m*3 19.8 C 19.3 km/h
1016 30-05-2020 12:35:00 19.8 C 6.49 g/m*3 19.8 C 20.9 km/h
1017 30-05-2020 12:40:00 19.7 C 6.79 g/m*3 19.7 C 14.5 km/h
1018 30-05-2020 12:45:00 19.7 C 6.96 g/m*3 19.7 C 20.9 km/h
1019 30-05-2020 12:50:00 19.8 C 7 g/m*3 19.8 C 12.9 km/h
1020 30-05-2020 12:55:00 20.1 C 6.95 g/m*3 20.1 C 17.7 km/h
1021 30-05-2020 13:00:00 20.2 C 7.17 g/m*3 20.2 C 17.7 km/h
1022 30-05-2020 13:05:00 20.1 C 7.13 g/m*3 20.1 C 14.5 km/h
1023 30-05-2020 13:10:00 20 C 6.91 g/m*3 20 C 25.7 km/h
1024 30-05-2020 13:15:00 19.9 C 7.04 g/m*3 19.9 C 19.3 km/h
1025 30-05-2020 13:20:00 20.1 C 6.78 g/m*3 20.1 C 22.5 km/h
Sensor: Nr:Datum:Temp:Abs-Feuchte:Windchill:Wind:
Aussen-T/F 1026 30-05-2020 13:25:00 20.2 C 6.99 g/m*3 20.2 C 16.1 km/h
1027 30-05-2020 13:30:00 20.3 C 6.86 g/m*3 20.3 C 22.5 km/h
1028 30-05-2020 13:35:00 20.6 C 6.8 g/m*3 20.6 C 22.5 km/h
1029 30-05-2020 13:40:00 20.6 C 6.8 g/m*3 20.6 C 16.1 km/h
1030 30-05-2020 13:45:00 20.4 C 6.55 g/m*3 20.4 C 22.5 km/h
1031 30-05-2020 13:50:00 20.4 C 6.72 g/m*3 20.4 C 12.9 km/h
1032 30-05-2020 13:55:00 20.5 C 6.94 g/m*3 20.5 C 8.1 km/h
1033 30-05-2020 14:00:00 20.6 C 6.8 g/m*3 20.6 C 9.7 km/h
1034 30-05-2020 14:05:00 20.7 C 6.66 g/m*3 20.7 C 14.5 km/h
1035 30-05-2020 14:10:00 20.9 C 6.56 g/m*3 20.9 C 19.3 km/h
1036 30-05-2020 14:15:00 20.9 C 6.56 g/m*3 20.9 C 17.7 km/h
1037 30-05-2020 14:20:00 20.9 C 6.56 g/m*3 20.9 C 20.9 km/h
1038 30-05-2020 14:25:00 20.9 C 6.74 g/m*3 20.9 C 20.9 km/h
1039 30-05-2020 14:30:00 21 C 6.78 g/m*3 21 C 17.7 km/h
1040 30-05-2020 14:35:00 21.2 C 6.86 g/m*3 21.2 C 17.7 km/h
1041 30-05-2020 14:40:00 21.3 C 6.9 g/m*3 21.3 C 12.9 km/h
1042 30-05-2020 14:45:00 21.4 C 6.94 g/m*3 21.4 C 12.9 km/h
1043 30-05-2020 14:50:00 21.6 C 6.83 g/m*3 21.6 C 12.9 km/h
1044 30-05-2020 14:55:00 21.8 C 6.91 g/m*3 21.8 C 17.7 km/h
1045 30-05-2020 15:00:00 21.8 C 6.91 g/m*3 21.8 C 22.5 km/h
1046 30-05-2020 15:05:00 21.8 C 6.72 g/m*3 21.8 C 16.1 km/h
1047 30-05-2020 15:10:00 21.9 C 6.75 g/m*3 21.9 C 22.5 km/h
1048 30-05-2020 15:15:00 21.8 C 6.91 g/m*3 21.8 C 16.1 km/h
1049 30-05-2020 15:20:00 21.9 C 6.95 g/m*3 21.9 C 11.3 km/h
1050 30-05-2020 15:25:00 22.3 C 7.31 g/m*3 22.3 C 16.1 km/h
Sensor: Nr:Datum:Temp:Abs-Feuchte:Windchill:Wind:
Aussen-T/F 1051 30-05-2020 15:30:00 22.6 C 7.03 g/m*3 22.6 C 19.3 km/h
1052 30-05-2020 15:35:00 22.2 C 6.87 g/m*3 22.2 C 17.7 km/h
1053 30-05-2020 15:40:00 22.1 C 7.03 g/m*3 22.1 C 11.3 km/h
1054 30-05-2020 15:45:00 22.1 C 7.03 g/m*3 22.1 C 9.7 km/h
1055 30-05-2020 15:50:00 21.9 C 7.14 g/m*3 21.9 C 6.4 km/h
1056 30-05-2020 15:55:00 22.2 C 7.07 g/m*3 22.2 C 12.9 km/h
1057 30-05-2020 16:00:00 22.2 C 7.07 g/m*3 22.2 C 22.5 km/h
1058 30-05-2020 16:05:00 22.3 C 7.31 g/m*3 22.3 C 17.7 km/h
1059 30-05-2020 16:10:00 22.6 C 7.03 g/m*3 22.6 C 20.9 km/h
1060 30-05-2020 16:15:00 22.6 C 7.03 g/m*3 22.6 C 25.7 km/h
1061 30-05-2020 16:20:00 22.4 C 6.95 g/m*3 22.4 C 22.5 km/h
1062 30-05-2020 16:25:00 22.2 C 7.07 g/m*3 22.2 C 20.9 km/h
1063 30-05-2020 16:30:00 22.4 C 6.95 g/m*3 22.4 C 17.7 km/h
1064 30-05-2020 16:35:00 22.4 C 6.95 g/m*3 22.4 C 19.3 km/h
1065 30-05-2020 16:40:00 22.3 C 7.31 g/m*3 22.3 C 17.7 km/h
1066 30-05-2020 16:45:00 22.5 C 6.99 g/m*3 22.5 C 20.9 km/h
1067 30-05-2020 16:50:00 22.6 C 7.03 g/m*3 22.6 C 16.1 km/h
1068 30-05-2020 16:55:00 22.8 C 6.91 g/m*3 22.8 C 14.5 km/h
1069 30-05-2020 17:00:00 22.7 C 6.67 g/m*3 22.7 C 25.7 km/h
1070 30-05-2020 17:05:00 22.1 C 6.83 g/m*3 22.1 C 20.9 km/h
1071 30-05-2020 17:10:00 22 C 6.99 g/m*3 22 C 8.1 km/h
1072 30-05-2020 17:15:00 22.4 C 6.75 g/m*3 22.4 C 19.3 km/h
1073 30-05-2020 17:20:00 22.4 C 6.95 g/m*3 22.4 C 14.5 km/h
1074 30-05-2020 17:25:00 22.5 C 6.79 g/m*3 22.5 C 17.7 km/h
1075 30-05-2020 17:30:00 22.9 C 6.95 g/m*3 22.9 C 16.1 km/h
Sensor: Nr:Datum:Temp:Abs-Feuchte:Windchill:Wind:
Aussen-T/F 1076 30-05-2020 17:35:00 22.8 C 6.71 g/m*3 22.8 C 16.1 km/h
1077 30-05-2020 17:40:00 22.4 C 6.75 g/m*3 22.4 C 17.7 km/h
1078 30-05-2020 17:45:00 22.5 C 6.79 g/m*3 22.5 C 20.9 km/h
1079 30-05-2020 17:50:00 22.1 C 6.83 g/m*3 22.1 C 22.5 km/h
1080 30-05-2020 17:55:00 21.6 C 6.64 g/m*3 21.6 C 19.3 km/h
1081 30-05-2020 18:00:00 21.4 C 6.94 g/m*3 21.4 C 9.7 km/h
1082 30-05-2020 18:05:00 22.2 C 7.07 g/m*3 22.2 C 19.3 km/h
1083 30-05-2020 18:10:00 22.1 C 6.83 g/m*3 22.1 C 22.5 km/h
1084 30-05-2020 18:15:00 21.7 C 7.06 g/m*3 21.7 C 11.3 km/h
1085 30-05-2020 18:20:00 21.6 C 7.02 g/m*3 21.6 C 6.4 km/h
1086 30-05-2020 18:25:00 21.4 C 6.94 g/m*3 21.4 C 11.3 km/h
1087 30-05-2020 18:30:00 21.4 C 7.31 g/m*3 21.4 C 8.1 km/h
1088 30-05-2020 18:35:00 21.4 C 7.31 g/m*3 21.4 C 9.7 km/h
1089 30-05-2020 18:40:00 21.3 C 7.08 g/m*3 21.3 C 6.4 km/h
1090 30-05-2020 18:45:00 21.3 C 6.9 g/m*3 21.3 C 14.5 km/h
1091 30-05-2020 18:50:00 21.3 C 7.27 g/m*3 21.3 C 4.8 km/h
1092 30-05-2020 18:55:00 21.4 C 7.12 g/m*3 21.4 C 9.7 km/h
1093 30-05-2020 19:00:00 21.6 C 7.4 g/m*3 21.6 C 11.3 km/h
1094 30-05-2020 19:05:00 21.3 C 8.02 g/m*3 21.3 C 9.7 km/h
1095 30-05-2020 19:10:00 21 C 7.88 g/m*3 21 C 12.9 km/h
1096 30-05-2020 19:15:00 20.6 C 7.16 g/m*3 20.6 C 14.5 km/h
1097 30-05-2020 19:20:00 20.3 C 7.03 g/m*3 20.3 C 14.5 km/h
1098 30-05-2020 19:25:00 20.2 C 7.34 g/m*3 20.2 C 3.2 km/h
1099 30-05-2020 19:30:00 20.1 C 7.13 g/m*3 20.1 C 6.4 km/h
1100 30-05-2020 19:35:00 20 C 7.09 g/m*3 20 C 9.7 km/h
Sensor: Nr:Datum:Temp:Abs-Feuchte:Windchill:Wind:
Aussen-T/F 1101 30-05-2020 19:40:00 19.9 C 7.39 g/m*3 19.9 C 8.1 km/h
1102 30-05-2020 19:45:00 19.8 C 7.17 g/m*3 19.8 C 0 km/h
1103 30-05-2020 19:50:00 19.8 C 7.52 g/m*3 19.8 C 0 km/h
1104 30-05-2020 19:55:00 19.6 C 7.09 g/m*3 19.6 C 8.1 km/h
1105 30-05-2020 20:00:00 19.6 C 7.26 g/m*3 19.6 C 4.8 km/h
1106 30-05-2020 20:05:00 19.7 C 7.13 g/m*3 19.7 C 9.7 km/h
1107 30-05-2020 20:10:00 19.8 C 6.83 g/m*3 19.8 C 8.1 km/h
1108 30-05-2020 20:15:00 19.9 C 7.22 g/m*3 19.9 C 1.6 km/h
1109 30-05-2020 20:20:00 19.9 C 7.22 g/m*3 19.9 C 1.6 km/h
1110 30-05-2020 20:25:00 19.9 C 7.04 g/m*3 19.9 C 1.6 km/h
1111 30-05-2020 20:30:00 19.7 C 6.96 g/m*3 19.7 C 9.7 km/h
1112 30-05-2020 20:35:00 19.5 C 7.55 g/m*3 19.5 C 1.6 km/h
1113 30-05-2020 20:40:00 19.3 C 6.97 g/m*3 19.3 C 0 km/h
1114 30-05-2020 20:45:00 19.2 C 7.26 g/m*3 19.2 C 1.6 km/h
1115 30-05-2020 20:50:00 18.9 C 6.8 g/m*3 18.9 C 1.6 km/h
1116 30-05-2020 20:55:00 18.8 C 7.41 g/m*3 18.8 C 4.8 km/h
1117 30-05-2020 21:00:00 18.4 C 7.24 g/m*3 18.4 C 3.2 km/h
1118 30-05-2020 21:05:00 18.1 C 7.11 g/m*3 18.1 C 4.8 km/h
1119 30-05-2020 21:10:00 17.8 C 7.13 g/m*3 17.8 C 1.6 km/h
1120 30-05-2020 21:15:00 17.4 C 6.97 g/m*3 17.4 C 0 km/h
1121 30-05-2020 21:20:00 17.1 C 6.84 g/m*3 17.1 C 1.6 km/h
1122 30-05-2020 21:25:00 16.7 C 6.96 g/m*3 16.7 C 1.6 km/h
1123 30-05-2020 21:30:00 16.3 C 6.94 g/m*3 16.3 C 0 km/h
1124 30-05-2020 21:35:00 16 C 6.95 g/m*3 16 C 0 km/h
1125 30-05-2020 21:40:00 15.7 C 6.82 g/m*3 15.7 C 3.2 km/h
Sensor: Nr:Datum:Temp:Abs-Feuchte:Windchill:Wind:
Aussen-T/F 1126 30-05-2020 21:45:00 15.4 C 6.96 g/m*3 15.4 C 0 km/h
1127 30-05-2020 21:50:00 15.2 C 6.88 g/m*3 15.2 C 1.6 km/h
1128 30-05-2020 21:55:00 15 C 6.92 g/m*3 15 C 1.6 km/h
1129 30-05-2020 22:00:00 14.8 C 6.84 g/m*3 14.8 C 0 km/h
1130 30-05-2020 22:05:00 14.7 C 6.92 g/m*3 14.7 C 1.6 km/h
1131 30-05-2020 22:10:00 14.6 C 7.01 g/m*3 14.6 C 1.6 km/h
1132 30-05-2020 22:15:00 14.4 C 6.8 g/m*3 14.4 C 3.2 km/h
1133 30-05-2020 22:20:00 14.2 C 6.84 g/m*3 14.2 C 4.8 km/h
1134 30-05-2020 22:25:00 14.1 C 6.8 g/m*3 14.1 C 4.8 km/h
1135 30-05-2020 22:30:00 13.9 C 6.83 g/m*3 13.9 C 4.8 km/h
1136 30-05-2020 22:35:00 13.8 C 6.79 g/m*3 13.8 C 3.2 km/h
1137 30-05-2020 22:40:00 13.7 C 6.87 g/m*3 13.7 C 1.6 km/h
1138 30-05-2020 22:45:00 13.6 C 6.83 g/m*3 13.6 C 3.2 km/h
1139 30-05-2020 22:50:00 13.6 C 6.71 g/m*3 13.6 C 4.8 km/h
1140 30-05-2020 22:55:00 13.6 C 6.71 g/m*3 13.6 C 4.8 km/h
1141 30-05-2020 23:00:00 13.6 C 6.71 g/m*3 13.6 C 6.4 km/h
1142 30-05-2020 23:05:00 13.6 C 6.71 g/m*3 13.6 C 4.8 km/h
1143 30-05-2020 23:10:00 13.6 C 6.71 g/m*3 13.6 C 6.4 km/h
1144 30-05-2020 23:15:00 13.6 C 6.71 g/m*3 13.6 C 6.4 km/h
1145 30-05-2020 23:20:00 13.5 C 6.78 g/m*3 13.5 C 6.4 km/h
1146 30-05-2020 23:25:00 13.4 C 6.74 g/m*3 13.4 C 4.8 km/h
1147 30-05-2020 23:30:00 13.3 C 6.7 g/m*3 13.3 C 3.2 km/h
1148 30-05-2020 23:35:00 13.2 C 6.77 g/m*3 13.2 C 3.2 km/h
1149 30-05-2020 23:40:00 13.2 C 6.77 g/m*3 13.2 C 4.8 km/h
1150 30-05-2020 23:45:00 13.1 C 6.73 g/m*3 13.1 C 3.2 km/h
Sensor: Nr:Datum:Temp:Abs-Feuchte:Windchill:Wind:
Aussen-T/F 1151 30-05-2020 23:50:00 13 C 6.8 g/m*3 13 C 3.2 km/h
1152 30-05-2020 23:55:00 12.8 C 6.72 g/m*3 12.8 C 1.6 km/h
1153 31-05-2020 00:00:00 12.8 C 6.72 g/m*3 12.8 C 3.2 km/h
1154 31-05-2020 00:05:00 12.7 C 6.79 g/m*3 12.7 C 4.8 km/h
1155 31-05-2020 00:10:00 12.6 C 6.75 g/m*3 12.6 C 4.8 km/h
1156 31-05-2020 00:15:00 12.6 C 6.75 g/m*3 12.6 C 3.2 km/h
1157 31-05-2020 00:20:00 12.4 C 6.77 g/m*3 12.4 C 3.2 km/h
1158 31-05-2020 00:25:00 12.3 C 6.73 g/m*3 12.3 C 6.4 km/h
1159 31-05-2020 00:30:00 12.3 C 6.84 g/m*3 12.3 C 6.4 km/h
1160 31-05-2020 00:35:00 12.1 C 6.86 g/m*3 12.1 C 3.2 km/h
1161 31-05-2020 00:40:00 11.9 C 6.99 g/m*3 11.9 C 0 km/h
1162 31-05-2020 00:45:00 11.7 C 6.9 g/m*3 11.7 C 3.2 km/h
1163 31-05-2020 00:50:00 11.5 C 6.92 g/m*3 11.5 C 0 km/h
1164 31-05-2020 00:55:00 11.3 C 6.94 g/m*3 11.3 C 0 km/h
1165 31-05-2020 01:00:00 11.2 C 6.89 g/m*3 11.2 C 1.6 km/h
1166 31-05-2020 01:05:00 11.1 C 6.85 g/m*3 11.1 C 3.2 km/h
1167 31-05-2020 01:10:00 10.9 C 6.86 g/m*3 10.9 C 3.2 km/h
1168 31-05-2020 01:15:00 10.8 C 6.92 g/m*3 10.8 C 0 km/h
1169 31-05-2020 01:20:00 10.7 C 6.97 g/m*3 10.7 C 0 km/h
1170 31-05-2020 01:25:00 10.6 C 6.93 g/m*3 10.6 C 1.6 km/h
1171 31-05-2020 01:30:00 10.4 C 6.84 g/m*3 10.4 C 0 km/h
1172 31-05-2020 01:35:00 10.3 C 6.9 g/m*3 10.3 C 0 km/h
1173 31-05-2020 01:40:00 10.3 C 6.9 g/m*3 10.3 C 0 km/h
1174 31-05-2020 01:45:00 10.2 C 6.85 g/m*3 10.2 C 0 km/h
1175 31-05-2020 01:50:00 10.2 C 6.85 g/m*3 10.2 C 0 km/h
Sensor: Nr:Datum:Temp:Abs-Feuchte:Windchill:Wind:
Aussen-T/F 1176 31-05-2020 01:55:00 10.1 C 6.9 g/m*3 10.1 C 0 km/h
1177 31-05-2020 02:00:00 10 C 6.86 g/m*3 10 C 0 km/h
1178 31-05-2020 02:05:00 9.9 C 6.91 g/m*3 9.9 C 0 km/h
1179 31-05-2020 02:10:00 9.8 C 6.87 g/m*3 9.8 C 0 km/h
1180 31-05-2020 02:15:00 9.7 C 6.82 g/m*3 9.7 C 0 km/h
1181 31-05-2020 02:20:00 9.6 C 6.87 g/m*3 9.6 C 0 km/h
1182 31-05-2020 02:25:00 9.4 C 6.87 g/m*3 9.4 C 0 km/h
1183 31-05-2020 02:30:00 9.3 C 6.83 g/m*3 9.3 C 0 km/h
1184 31-05-2020 02:35:00 9.2 C 6.79 g/m*3 9.2 C 0 km/h
1185 31-05-2020 02:40:00 9.1 C 6.83 g/m*3 9.1 C 0 km/h
1186 31-05-2020 02:45:00 9.1 C 6.83 g/m*3 9.1 C 0 km/h
1187 31-05-2020 02:50:00 9 C 6.79 g/m*3 9 C 0 km/h
1188 31-05-2020 02:55:00 8.9 C 6.83 g/m*3 8.9 C 0 km/h
1189 31-05-2020 03:00:00 8.8 C 6.79 g/m*3 8.8 C 0 km/h
1190 31-05-2020 03:05:00 8.7 C 6.75 g/m*3 8.7 C 0 km/h
1191 31-05-2020 03:10:00 8.7 C 6.83 g/m*3 8.7 C 0 km/h
1192 31-05-2020 03:15:00 8.6 C 6.79 g/m*3 8.6 C 0 km/h
1193 31-05-2020 03:20:00 8.4 C 6.7 g/m*3 8.4 C 0 km/h
1194 31-05-2020 03:25:00 8.4 C 6.79 g/m*3 8.4 C 0 km/h
1195 31-05-2020 03:30:00 8.3 C 6.74 g/m*3 8.3 C 0 km/h
1196 31-05-2020 03:35:00 8.3 C 6.74 g/m*3 8.3 C 0 km/h
1197 31-05-2020 03:40:00 8.3 C 6.83 g/m*3 8.3 C 0 km/h
1198 31-05-2020 03:45:00 8.4 C 6.96 g/m*3 8.4 C 0 km/h
1199 31-05-2020 03:50:00 8.5 C 7 g/m*3 8.5 C 0 km/h
1200 31-05-2020 03:55:00 8.6 C 7.05 g/m*3 8.6 C 0 km/h
Sensor: Nr:Datum:Temp:Abs-Feuchte:Windchill:Wind:
Aussen-T/F 1201 31-05-2020 04:00:00 8.7 C 7.09 g/m*3 8.7 C 0 km/h
1202 31-05-2020 04:05:00 8.8 C 7.14 g/m*3 8.8 C 0 km/h
1203 31-05-2020 04:10:00 8.9 C 7.18 g/m*3 8.9 C 0 km/h
1204 31-05-2020 04:15:00 9 C 7.23 g/m*3 9 C 0 km/h
1205 31-05-2020 04:20:00 9 C 7.23 g/m*3 9 C 0 km/h
1206 31-05-2020 04:25:00 9 C 7.23 g/m*3 9 C 0 km/h
1207 31-05-2020 04:30:00 9 C 7.14 g/m*3 9 C 0 km/h
1208 31-05-2020 04:35:00 8.9 C 7.1 g/m*3 8.9 C 0 km/h
1209 31-05-2020 04:40:00 8.9 C 7.1 g/m*3 8.9 C 0 km/h
1210 31-05-2020 04:45:00 8.9 C 7.1 g/m*3 8.9 C 0 km/h
1211 31-05-2020 04:50:00 8.9 C 7.18 g/m*3 8.9 C 0 km/h
1212 31-05-2020 04:55:00 8.8 C 7.14 g/m*3 8.8 C 0 km/h
1213 31-05-2020 05:00:00 8.9 C 7.18 g/m*3 8.9 C 0 km/h
1214 31-05-2020 05:05:00 8.9 C 7.18 g/m*3 8.9 C 0 km/h
1215 31-05-2020 05:10:00 9 C 7.23 g/m*3 9 C 0 km/h
1216 31-05-2020 05:15:00 9.1 C 7.36 g/m*3 9.1 C 0 km/h
1217 31-05-2020 05:20:00 9.1 C 7.28 g/m*3 9.1 C 0 km/h
1218 31-05-2020 05:25:00 9.1 C 7.28 g/m*3 9.1 C 0 km/h
1219 31-05-2020 05:30:00 9.2 C 7.32 g/m*3 9.2 C 0 km/h
1220 31-05-2020 05:35:00 9.2 C 7.41 g/m*3 9.2 C 0 km/h
1221 31-05-2020 05:40:00 9.2 C 7.41 g/m*3 9.2 C 0 km/h
1222 31-05-2020 05:45:00 9.2 C 7.32 g/m*3 9.2 C 0 km/h
1223 31-05-2020 05:50:00 9.3 C 7.46 g/m*3 9.3 C 0 km/h
1224 31-05-2020 05:55:00 9.2 C 7.32 g/m*3 9.2 C 1.6 km/h
1225 31-05-2020 06:00:00 9.2 C 7.32 g/m*3 9.2 C 1.6 km/h
Sensor: Nr:Datum:Temp:Abs-Feuchte:Windchill:Wind:
Aussen-T/F 1226 31-05-2020 06:05:00 9.2 C 7.32 g/m*3 9.2 C 0 km/h
1227 31-05-2020 06:10:00 9 C 7.23 g/m*3 9 C 0 km/h
1228 31-05-2020 06:15:00 8.8 C 7.14 g/m*3 8.8 C 0 km/h
1229 31-05-2020 06:20:00 8.7 C 7.18 g/m*3 8.7 C 0 km/h
1230 31-05-2020 06:25:00 8.6 C 7.13 g/m*3 8.6 C 0 km/h
1231 31-05-2020 06:30:00 8.5 C 7.17 g/m*3 8.5 C 0 km/h
1232 31-05-2020 06:35:00 8.4 C 7.13 g/m*3 8.4 C 0 km/h
1233 31-05-2020 06:40:00 8.4 C 7.13 g/m*3 8.4 C 1.6 km/h
1234 31-05-2020 06:45:00 8.3 C 7.16 g/m*3 8.3 C 0 km/h
1235 31-05-2020 06:50:00 8.3 C 7.16 g/m*3 8.3 C 0 km/h
1236 31-05-2020 06:55:00 8.2 C 7.2 g/m*3 8.2 C 0 km/h
1237 31-05-2020 07:00:00 8.2 C 7.2 g/m*3 8.2 C 0 km/h
1238 31-05-2020 07:05:00 8.2 C 7.29 g/m*3 8.2 C 0 km/h
1239 31-05-2020 07:10:00 8.2 C 7.29 g/m*3 8.2 C 0 km/h
1240 31-05-2020 07:15:00 8.2 C 7.29 g/m*3 8.2 C 0 km/h
1241 31-05-2020 07:20:00 8.3 C 7.33 g/m*3 8.3 C 0 km/h
1242 31-05-2020 07:25:00 8.3 C 7.33 g/m*3 8.3 C 0 km/h
1243 31-05-2020 07:30:00 8.3 C 7.42 g/m*3 8.3 C 0 km/h
1244 31-05-2020 07:35:00 8.4 C 7.47 g/m*3 8.4 C 0 km/h
1245 31-05-2020 07:40:00 8.4 C 7.47 g/m*3 8.4 C 0 km/h
1246 31-05-2020 07:45:00 8.6 C 7.65 g/m*3 8.6 C 0 km/h
1247 31-05-2020 07:50:00 8.8 C 7.75 g/m*3 8.8 C 0 km/h
1248 31-05-2020 07:55:00 8.9 C 7.8 g/m*3 8.9 C 0 km/h
1249 31-05-2020 08:00:00 9.1 C 7.9 g/m*3 9.1 C 0 km/h
1250 31-05-2020 08:05:00 9.3 C 7.91 g/m*3 9.3 C 1.6 km/h
Sensor: Nr:Datum:Temp:Abs-Feuchte:Windchill:Wind:
Aussen-T/F 1251 31-05-2020 08:10:00 9.6 C 7.97 g/m*3 9.6 C 0 km/h
1252 31-05-2020 08:15:00 9.8 C 7.98 g/m*3 9.8 C 0 km/h
1253 31-05-2020 08:20:00 10.1 C 8.23 g/m*3 10.1 C 0 km/h
1254 31-05-2020 08:25:00 10.3 C 8.24 g/m*3 10.3 C 0 km/h
1255 31-05-2020 08:30:00 10.5 C 8.24 g/m*3 10.5 C 0 km/h
1256 31-05-2020 08:35:00 10.8 C 8.4 g/m*3 10.8 C 0 km/h
1257 31-05-2020 08:40:00 11 C 8.51 g/m*3 11 C 0 km/h
1258 31-05-2020 08:45:00 11.2 C 8.51 g/m*3 11.2 C 0 km/h
1259 31-05-2020 08:50:00 11.3 C 8.47 g/m*3 11.3 C 0 km/h
1260 31-05-2020 08:55:00 11.5 C 8.57 g/m*3 11.5 C 0 km/h
1261 31-05-2020 09:00:00 11.6 C 8.52 g/m*3 11.6 C 0 km/h
1262 31-05-2020 09:05:00 11.8 C 8.63 g/m*3 11.8 C 0 km/h
1263 31-05-2020 09:10:00 12 C 8.63 g/m*3 12 C 0 km/h
1264 31-05-2020 09:15:00 12.2 C 8.63 g/m*3 12.2 C 0 km/h
1265 31-05-2020 09:20:00 12.4 C 8.74 g/m*3 12.4 C 0 km/h
1266 31-05-2020 09:25:00 12.6 C 8.85 g/m*3 12.6 C 0 km/h
1267 31-05-2020 09:30:00 12.7 C 8.91 g/m*3 12.7 C 0 km/h
1268 31-05-2020 09:35:00 12.8 C 8.4 g/m*3 12.8 C 0 km/h
1269 31-05-2020 09:40:00 13.2 C 8.27 g/m*3 13.2 C 8.1 km/h
1270 31-05-2020 09:45:00 13.6 C 8.24 g/m*3 13.6 C 8.1 km/h
1271 31-05-2020 09:50:00 14.1 C 8.25 g/m*3 14.1 C 6.4 km/h
1272 31-05-2020 09:55:00 14.6 C 8.26 g/m*3 14.6 C 6.4 km/h
1273 31-05-2020 10:00:00 14.9 C 8.16 g/m*3 14.9 C 9.7 km/h
1274 31-05-2020 10:05:00 15.3 C 7.84 g/m*3 15.3 C 16.1 km/h
1275 31-05-2020 10:10:00 15.5 C 7.93 g/m*3 15.5 C 3.2 km/h
Sensor: Nr:Datum:Temp:Abs-Feuchte:Windchill:Wind:
Aussen-T/F 1276 31-05-2020 10:15:00 15.7 C 8.03 g/m*3 15.7 C 4.8 km/h
1277 31-05-2020 10:20:00 16 C 7.63 g/m*3 16 C 11.3 km/h
1278 31-05-2020 10:25:00 16.1 C 7.54 g/m*3 16.1 C 14.5 km/h
1279 31-05-2020 10:30:00 16.3 C 7.35 g/m*3 16.3 C 14.5 km/h
1280 31-05-2020 10:35:00 16.4 C 7.4 g/m*3 16.4 C 12.9 km/h
1281 31-05-2020 10:40:00 16.6 C 7.63 g/m*3 16.6 C 14.5 km/h
1282 31-05-2020 10:45:00 16.7 C 7.67 g/m*3 16.7 C 4.8 km/h
1283 31-05-2020 10:50:00 16.8 C 7.58 g/m*3 16.8 C 11.3 km/h
1284 31-05-2020 10:55:00 16.8 C 7.29 g/m*3 16.8 C 12.9 km/h
1285 31-05-2020 11:00:00 16.9 C 7.48 g/m*3 16.9 C 11.3 km/h
1286 31-05-2020 11:05:00 16.8 C 7.43 g/m*3 16.8 C 8.1 km/h
1287 31-05-2020 11:10:00 16.9 C 7.62 g/m*3 16.9 C 11.3 km/h
1288 31-05-2020 11:15:00 17.3 C 7.66 g/m*3 17.3 C 11.3 km/h
1289 31-05-2020 11:20:00 17.6 C 7.5 g/m*3 17.6 C 12.9 km/h
1290 31-05-2020 11:25:00 17.7 C 7.54 g/m*3 17.7 C 12.9 km/h
1291 31-05-2020 11:30:00 17.8 C 7.44 g/m*3 17.8 C 16.1 km/h
1292 31-05-2020 11:35:00 17.9 C 7.48 g/m*3 17.9 C 16.1 km/h
1293 31-05-2020 11:40:00 17.8 C 7.44 g/m*3 17.8 C 11.3 km/h
1294 31-05-2020 11:45:00 17.7 C 7.39 g/m*3 17.7 C 20.9 km/h
1295 31-05-2020 11:50:00 17.6 C 7.35 g/m*3 17.6 C 12.9 km/h
1296 31-05-2020 11:55:00 17.4 C 7.26 g/m*3 17.4 C 12.9 km/h
1297 31-05-2020 12:00:00 17.3 C 7.37 g/m*3 17.3 C 9.7 km/h
1298 31-05-2020 12:05:00 17.4 C 7.26 g/m*3 17.4 C 12.9 km/h
1299 31-05-2020 12:10:00 17.6 C 6.9 g/m*3 17.6 C 9.7 km/h
1300 31-05-2020 12:15:00 17.7 C 7.24 g/m*3 17.7 C 14.5 km/h
Sensor: Nr:Datum:Temp:Abs-Feuchte:Windchill:Wind:
Aussen-T/F 1301 31-05-2020 12:20:00 17.8 C 7.44 g/m*3 17.8 C 8.1 km/h
1302 31-05-2020 12:25:00 17.8 C 7.29 g/m*3 17.8 C 9.7 km/h
1303 31-05-2020 12:30:00 17.9 C 7.02 g/m*3 17.9 C 9.7 km/h
1304 31-05-2020 12:35:00 17.9 C 7.02 g/m*3 17.9 C 17.7 km/h
1305 31-05-2020 12:40:00 17.9 C 7.18 g/m*3 17.9 C 11.3 km/h
1306 31-05-2020 12:45:00 18.1 C 7.11 g/m*3 18.1 C 17.7 km/h
1307 31-05-2020 12:50:00 18.2 C 6.99 g/m*3 18.2 C 16.1 km/h
1308 31-05-2020 12:55:00 18.3 C 7.04 g/m*3 18.3 C 16.1 km/h
1309 31-05-2020 13:00:00 18.4 C 7.08 g/m*3 18.4 C 12.9 km/h
1310 31-05-2020 13:05:00 18.6 C 7.32 g/m*3 18.6 C 14.5 km/h
1311 31-05-2020 13:10:00 18.7 C 7.04 g/m*3 18.7 C 16.1 km/h
1312 31-05-2020 13:15:00 18.6 C 6.84 g/m*3 18.6 C 14.5 km/h
1313 31-05-2020 13:20:00 18.4 C 6.76 g/m*3 18.4 C 12.9 km/h
1314 31-05-2020 13:25:00 18.6 C 6.84 g/m*3 18.6 C 9.7 km/h
1315 31-05-2020 13:30:00 18.8 C 6.6 g/m*3 18.8 C 6.4 km/h
1316 31-05-2020 13:35:00 18.8 C 6.76 g/m*3 18.8 C 12.9 km/h
1317 31-05-2020 13:40:00 19.1 C 6.88 g/m*3 19.1 C 9.7 km/h
1318 31-05-2020 13:45:00 19.1 C 6.72 g/m*3 19.1 C 16.1 km/h
1319 31-05-2020 13:50:00 19.1 C 6.88 g/m*3 19.1 C 12.9 km/h
1320 31-05-2020 13:55:00 19.1 C 7.05 g/m*3 19.1 C 14.5 km/h
1321 31-05-2020 14:00:00 19.2 C 6.93 g/m*3 19.2 C 14.5 km/h
1322 31-05-2020 14:05:00 19.3 C 7.13 g/m*3 19.3 C 11.3 km/h
1323 31-05-2020 14:10:00 19.5 C 7.22 g/m*3 19.5 C 12.9 km/h
1324 31-05-2020 14:15:00 19.7 C 7.13 g/m*3 19.7 C 17.7 km/h
1325 31-05-2020 14:20:00 19.7 C 7.13 g/m*3 19.7 C 19.3 km/h
Sensor: Nr:Datum:Temp:Abs-Feuchte:Windchill:Wind:
Aussen-T/F 1326 31-05-2020 14:25:00 19.8 C 7.17 g/m*3 19.8 C 22.5 km/h
1327 31-05-2020 14:30:00 19.8 C 7.17 g/m*3 19.8 C 20.9 km/h
1328 31-05-2020 14:35:00 19.8 C 7.17 g/m*3 19.8 C 12.9 km/h
1329 31-05-2020 14:40:00 19.8 C 7 g/m*3 19.8 C 20.9 km/h
1330 31-05-2020 14:45:00 19.8 C 7.17 g/m*3 19.8 C 16.1 km/h
1331 31-05-2020 14:50:00 19.9 C 7.39 g/m*3 19.9 C 14.5 km/h
1332 31-05-2020 14:55:00 20.1 C 7.3 g/m*3 20.1 C 20.9 km/h
1333 31-05-2020 15:00:00 20.3 C 7.74 g/m*3 20.3 C 9.7 km/h
1334 31-05-2020 15:05:00 20.4 C 7.25 g/m*3 20.4 C 24.1 km/h
1335 31-05-2020 15:10:00 20.4 C 7.43 g/m*3 20.4 C 14.5 km/h
1336 31-05-2020 15:15:00 20.6 C 7.7 g/m*3 20.6 C 17.7 km/h
1337 31-05-2020 15:20:00 20.6 C 7.87 g/m*3 20.6 C 14.5 km/h
1338 31-05-2020 15:25:00 20.8 C 7.79 g/m*3 20.8 C 19.3 km/h
1339 31-05-2020 15:30:00 20.9 C 7.47 g/m*3 20.9 C 12.9 km/h
1340 31-05-2020 15:35:00 21.1 C 7.55 g/m*3 21.1 C 14.5 km/h
1341 31-05-2020 15:40:00 21.2 C 7.97 g/m*3 21.2 C 12.9 km/h
1342 31-05-2020 15:45:00 21.3 C 7.83 g/m*3 21.3 C 16.1 km/h
1343 31-05-2020 15:50:00 21.4 C 8.06 g/m*3 21.4 C 12.9 km/h
1344 31-05-2020 15:55:00 21.6 C 8.16 g/m*3 21.6 C 16.1 km/h
1345 31-05-2020 16:00:00 21.4 C 8.06 g/m*3 21.4 C 17.7 km/h
1346 31-05-2020 16:05:00 21.3 C 8.02 g/m*3 21.3 C 8.1 km/h
1347 31-05-2020 16:10:00 21.4 C 8.25 g/m*3 21.4 C 16.1 km/h
1348 31-05-2020 16:15:00 21.4 C 7.69 g/m*3 21.4 C 14.5 km/h
1349 31-05-2020 16:20:00 21.3 C 7.64 g/m*3 21.3 C 17.7 km/h
1350 31-05-2020 16:25:00 21.2 C 7.78 g/m*3 21.2 C 8.1 km/h
Sensor: Nr:Datum:Temp:Abs-Feuchte:Windchill:Wind:
Aussen-T/F 1351 31-05-2020 16:30:00 21.4 C 8.25 g/m*3 21.4 C 3.2 km/h
1352 31-05-2020 16:35:00 21.6 C 7.97 g/m*3 21.6 C 16.1 km/h
1353 31-05-2020 16:40:00 21.3 C 7.83 g/m*3 21.3 C 19.3 km/h
1354 31-05-2020 16:45:00 21.4 C 7.87 g/m*3 21.4 C 16.1 km/h
1355 31-05-2020 16:50:00 21.3 C 7.83 g/m*3 21.3 C 19.3 km/h
1356 31-05-2020 16:55:00 21.2 C 7.97 g/m*3 21.2 C 17.7 km/h
1357 31-05-2020 17:00:00 21.6 C 7.97 g/m*3 21.6 C 22.5 km/h
1358 31-05-2020 17:05:00 21.4 C 8.06 g/m*3 21.4 C 20.9 km/h
1359 31-05-2020 17:10:00 21.9 C 7.91 g/m*3 21.9 C 12.9 km/h
1360 31-05-2020 17:15:00 21.7 C 7.63 g/m*3 21.7 C 19.3 km/h
1361 31-05-2020 17:20:00 21.4 C 7.87 g/m*3 21.4 C 19.3 km/h
1362 31-05-2020 17:25:00 21.5 C 7.73 g/m*3 21.5 C 17.7 km/h
1363 31-05-2020 17:30:00 21.5 C 7.54 g/m*3 21.5 C 14.5 km/h
1364 31-05-2020 17:35:00 21.7 C 7.44 g/m*3 21.7 C 19.3 km/h
1365 31-05-2020 17:40:00 21.7 C 7.63 g/m*3 21.7 C 14.5 km/h
1366 31-05-2020 17:45:00 21.7 C 7.63 g/m*3 21.7 C 6.4 km/h
1367 31-05-2020 17:50:00 21.6 C 7.4 g/m*3 21.6 C 8.1 km/h
1368 31-05-2020 17:55:00 21.6 C 7.78 g/m*3 21.6 C 9.7 km/h
1369 31-05-2020 18:00:00 21.8 C 7.67 g/m*3 21.8 C 12.9 km/h
1370 31-05-2020 18:05:00 22.2 C 7.66 g/m*3 22.2 C 12.9 km/h
1371 31-05-2020 18:10:00 22.2 C 7.66 g/m*3 22.2 C 9.7 km/h
1372 31-05-2020 18:15:00 22.2 C 7.85 g/m*3 22.2 C 9.7 km/h
1373 31-05-2020 18:20:00 22.3 C 7.7 g/m*3 22.3 C 14.5 km/h
1374 31-05-2020 18:25:00 22.2 C 7.85 g/m*3 22.2 C 19.3 km/h
1375 31-05-2020 18:30:00 22.2 C 7.85 g/m*3 22.2 C 8.1 km/h
Sensor: Nr:Datum:Temp:Abs-Feuchte:Windchill:Wind:
Aussen-T/F 1376 31-05-2020 18:35:00 21.7 C 7.44 g/m*3 21.7 C 19.3 km/h
1377 31-05-2020 18:40:00 21.5 C 7.54 g/m*3 21.5 C 14.5 km/h
1378 31-05-2020 18:45:00 21.4 C 7.5 g/m*3 21.4 C 20.9 km/h
1379 31-05-2020 18:50:00 21.4 C 7.5 g/m*3 21.4 C 14.5 km/h
1380 31-05-2020 18:55:00 21.3 C 7.64 g/m*3 21.3 C 16.1 km/h
1381 31-05-2020 19:00:00 21.3 C 7.64 g/m*3 21.3 C 14.5 km/h
1382 31-05-2020 19:05:00 21.5 C 7.73 g/m*3 21.5 C 9.7 km/h
1383 31-05-2020 19:10:00 21.7 C 7.63 g/m*3 21.7 C 12.9 km/h
1384 31-05-2020 19:15:00 21.7 C 7.82 g/m*3 21.7 C 12.9 km/h
1385 31-05-2020 19:20:00 21.5 C 7.54 g/m*3 21.5 C 11.3 km/h
1386 31-05-2020 19:25:00 21.3 C 7.46 g/m*3 21.3 C 14.5 km/h
1387 31-05-2020 19:30:00 21.1 C 7.37 g/m*3 21.1 C 12.9 km/h
1388 31-05-2020 19:35:00 21 C 7.51 g/m*3 21 C 12.9 km/h
1389 31-05-2020 19:40:00 20.9 C 7.47 g/m*3 20.9 C 9.7 km/h
1390 31-05-2020 19:45:00 20.8 C 7.79 g/m*3 20.8 C 8.1 km/h
1391 31-05-2020 19:50:00 20.8 C 7.79 g/m*3 20.8 C 8.1 km/h
1392 31-05-2020 19:55:00 20.8 C 7.79 g/m*3 20.8 C 9.7 km/h
1393 31-05-2020 20:00:00 20.7 C 7.74 g/m*3 20.7 C 11.3 km/h
1394 31-05-2020 20:05:00 20.6 C 7.7 g/m*3 20.6 C 12.9 km/h
1395 31-05-2020 20:10:00 20.4 C 7.61 g/m*3 20.4 C 14.5 km/h
1396 31-05-2020 20:15:00 20.4 C 7.96 g/m*3 20.4 C 8.1 km/h
1397 31-05-2020 20:20:00 20.4 C 7.78 g/m*3 20.4 C 4.8 km/h
1398 31-05-2020 20:25:00 20.4 C 7.78 g/m*3 20.4 C 6.4 km/h
1399 31-05-2020 20:30:00 20.3 C 7.91 g/m*3 20.3 C 4.8 km/h
1400 31-05-2020 20:35:00 20.3 C 8.09 g/m*3 20.3 C 1.6 km/h
Sensor: Nr:Datum:Temp:Abs-Feuchte:Windchill:Wind:
Aussen-T/F 1401 31-05-2020 20:40:00 20.3 C 7.91 g/m*3 20.3 C 6.4 km/h
1402 31-05-2020 20:45:00 20.1 C 8.17 g/m*3 20.1 C 8.1 km/h
1403 31-05-2020 20:50:00 19.9 C 7.9 g/m*3 19.9 C 3.2 km/h
1404 31-05-2020 20:55:00 19.8 C 8.03 g/m*3 19.8 C 4.8 km/h
1405 31-05-2020 21:00:00 19.6 C 8.61 g/m*3 19.6 C 0 km/h
1406 31-05-2020 21:05:00 19.3 C 7.96 g/m*3 19.3 C 3.2 km/h
1407 31-05-2020 21:10:00 19.1 C 8.52 g/m*3 19.1 C 0 km/h
1408 31-05-2020 21:15:00 18.7 C 8.33 g/m*3 18.7 C 3.2 km/h
1409 31-05-2020 21:20:00 18.3 C 8.29 g/m*3 18.3 C 4.8 km/h
1410 31-05-2020 21:25:00 17.9 C 8.24 g/m*3 17.9 C 0 km/h
1411 31-05-2020 21:30:00 17.6 C 8.1 g/m*3 17.6 C 1.6 km/h
1412 31-05-2020 21:35:00 17.2 C 8.05 g/m*3 17.2 C 6.4 km/h
1413 31-05-2020 21:40:00 16.9 C 8.05 g/m*3 16.9 C 3.2 km/h
1414 31-05-2020 21:45:00 16.7 C 7.96 g/m*3 16.7 C 3.2 km/h
1415 31-05-2020 21:50:00 16.5 C 8 g/m*3 16.5 C 1.6 km/h
1416 31-05-2020 21:55:00 16.3 C 7.91 g/m*3 16.3 C 1.6 km/h
1417 31-05-2020 22:00:00 16.1 C 8.09 g/m*3 16.1 C 4.8 km/h
1418 31-05-2020 22:05:00 15.9 C 7.99 g/m*3 15.9 C 0 km/h
1419 31-05-2020 22:10:00 15.7 C 8.03 g/m*3 15.7 C 1.6 km/h
1420 31-05-2020 22:15:00 15.5 C 8.06 g/m*3 15.5 C 1.6 km/h
1421 31-05-2020 22:20:00 15.3 C 8.1 g/m*3 15.3 C 0 km/h
1422 31-05-2020 22:25:00 15.1 C 8 g/m*3 15.1 C 4.8 km/h
1423 31-05-2020 22:30:00 15 C 8.08 g/m*3 15 C 3.2 km/h
1424 31-05-2020 22:35:00 14.8 C 7.98 g/m*3 14.8 C 1.6 km/h
1425 31-05-2020 22:40:00 14.7 C 7.93 g/m*3 14.7 C 1.6 km/h
Sensor: Nr:Datum:Temp:Abs-Feuchte:Windchill:Wind:
Aussen-T/F 1426 31-05-2020 22:45:00 14.6 C 8.01 g/m*3 14.6 C 3.2 km/h
1427 31-05-2020 22:50:00 14.4 C 7.91 g/m*3 14.4 C 0 km/h
1428 31-05-2020 22:55:00 14.3 C 7.86 g/m*3 14.3 C 1.6 km/h
1429 31-05-2020 23:00:00 14.2 C 7.94 g/m*3 14.2 C 3.2 km/h
1430 31-05-2020 23:05:00 14.2 C 7.94 g/m*3 14.2 C 0 km/h
1431 31-05-2020 23:10:00 14.1 C 7.89 g/m*3 14.1 C 1.6 km/h
1432 31-05-2020 23:15:00 14 C 7.84 g/m*3 14 C 1.6 km/h
1433 31-05-2020 23:20:00 14 C 7.96 g/m*3 14 C 3.2 km/h
1434 31-05-2020 23:25:00 13.9 C 7.91 g/m*3 13.9 C 1.6 km/h
1435 31-05-2020 23:30:00 13.8 C 7.98 g/m*3 13.8 C 0 km/h
1436 31-05-2020 23:35:00 13.8 C 7.98 g/m*3 13.8 C 0 km/h
1437 31-05-2020 23:40:00 13.7 C 7.93 g/m*3 13.7 C 0 km/h
1438 31-05-2020 23:45:00 13.7 C 7.93 g/m*3 13.7 C 0 km/h
1439 31-05-2020 23:50:00 13.6 C 8 g/m*3 13.6 C 3.2 km/h
1440 31-05-2020 23:55:00 13.6 C 8 g/m*3 13.6 C 1.6 km/h
1441 01-06-2020 00:00:00 13.4 C 7.9 g/m*3 13.4 C 1.6 km/h
1442 01-06-2020 00:05:00 13.4 C 7.9 g/m*3 13.4 C 1.6 km/h
1443 01-06-2020 00:10:00 13.3 C 7.97 g/m*3 13.3 C 4.8 km/h
1444 01-06-2020 00:15:00 13.2 C 7.92 g/m*3 13.2 C 4.8 km/h
1445 01-06-2020 00:20:00 13.2 C 7.92 g/m*3 13.2 C 1.6 km/h
1446 01-06-2020 00:25:00 13.1 C 7.87 g/m*3 13.1 C 1.6 km/h
1447 01-06-2020 00:30:00 13 C 7.94 g/m*3 13 C 3.2 km/h
1448 01-06-2020 00:35:00 12.8 C 7.84 g/m*3 12.8 C 3.2 km/h
1449 01-06-2020 00:40:00 12.7 C 7.79 g/m*3 12.7 C 3.2 km/h
1450 01-06-2020 00:45:00 12.7 C 7.79 g/m*3 12.7 C 3.2 km/h
Sensor: Nr:Datum:Temp:Abs-Feuchte:Windchill:Wind:
Aussen-T/F 1451 01-06-2020 00:50:00 12.6 C 7.85 g/m*3 12.6 C 4.8 km/h
1452 01-06-2020 00:55:00 12.5 C 7.81 g/m*3 12.5 C 4.8 km/h
1453 01-06-2020 01:00:00 12.4 C 7.87 g/m*3 12.4 C 4.8 km/h
1454 01-06-2020 01:05:00 12.4 C 7.87 g/m*3 12.4 C 3.2 km/h
1455 01-06-2020 01:10:00 12.3 C 7.82 g/m*3 12.3 C 3.2 km/h
1456 01-06-2020 01:15:00 12.2 C 7.88 g/m*3 12.2 C 1.6 km/h
1457 01-06-2020 01:20:00 12.2 C 7.88 g/m*3 12.2 C 0 km/h
1458 01-06-2020 01:25:00 12.1 C 7.94 g/m*3 12.1 C 0 km/h
1459 01-06-2020 01:30:00 11.9 C 7.84 g/m*3 11.9 C 0 km/h
1460 01-06-2020 01:35:00 11.7 C 7.84 g/m*3 11.7 C 1.6 km/h
1461 01-06-2020 01:40:00 11.6 C 7.8 g/m*3 11.6 C 1.6 km/h
1462 01-06-2020 01:45:00 11.4 C 7.8 g/m*3 11.4 C 0 km/h
1463 01-06-2020 01:50:00 11.3 C 7.75 g/m*3 11.3 C 0 km/h
1464 01-06-2020 01:55:00 11.2 C 7.8 g/m*3 11.2 C 0 km/h
1465 01-06-2020 02:00:00 11.1 C 7.76 g/m*3 11.1 C 0 km/h
1466 01-06-2020 02:05:00 11 C 7.71 g/m*3 11 C 0 km/h
1467 01-06-2020 02:10:00 10.9 C 7.76 g/m*3 10.9 C 0 km/h
1468 01-06-2020 02:15:00 10.8 C 7.71 g/m*3 10.8 C 0 km/h
1469 01-06-2020 02:20:00 10.8 C 7.71 g/m*3 10.8 C 0 km/h
1470 01-06-2020 02:25:00 10.8 C 7.81 g/m*3 10.8 C 0 km/h
1471 01-06-2020 02:30:00 10.7 C 7.76 g/m*3 10.7 C 0 km/h
1472 01-06-2020 02:35:00 10.6 C 7.71 g/m*3 10.6 C 0 km/h
1473 01-06-2020 02:40:00 10.5 C 7.66 g/m*3 10.5 C 0 km/h
1474 01-06-2020 02:45:00 10.4 C 7.71 g/m*3 10.4 C 0 km/h
1475 01-06-2020 02:50:00 10.3 C 7.66 g/m*3 10.3 C 0 km/h
Sensor: Nr:Datum:Temp:Abs-Feuchte:Windchill:Wind:
Aussen-T/F 1476 01-06-2020 02:55:00 10.3 C 7.66 g/m*3 10.3 C 0 km/h
1477 01-06-2020 03:00:00 10.3 C 7.66 g/m*3 10.3 C 0 km/h
1478 01-06-2020 03:05:00 10.3 C 7.76 g/m*3 10.3 C 0 km/h
1479 01-06-2020 03:10:00 10.2 C 7.71 g/m*3 10.2 C 0 km/h
1480 01-06-2020 03:15:00 10.2 C 7.71 g/m*3 10.2 C 0 km/h
1481 01-06-2020 03:20:00 10.1 C 7.66 g/m*3 10.1 C 0 km/h
1482 01-06-2020 03:25:00 9.9 C 7.56 g/m*3 9.9 C 0 km/h
1483 01-06-2020 03:30:00 9.9 C 7.66 g/m*3 9.9 C 0 km/h
1484 01-06-2020 03:35:00 9.8 C 7.61 g/m*3 9.8 C 0 km/h
1485 01-06-2020 03:40:00 9.8 C 7.61 g/m*3 9.8 C 0 km/h
1486 01-06-2020 03:45:00 9.7 C 7.56 g/m*3 9.7 C 0 km/h
1487 01-06-2020 03:50:00 9.6 C 7.6 g/m*3 9.6 C 0 km/h
1488 01-06-2020 03:55:00 9.6 C 7.6 g/m*3 9.6 C 0 km/h
1489 01-06-2020 04:00:00 9.6 C 7.6 g/m*3 9.6 C 0 km/h
1490 01-06-2020 04:05:00 9.6 C 7.6 g/m*3 9.6 C 0 km/h
1491 01-06-2020 04:10:00 9.4 C 7.51 g/m*3 9.4 C 0 km/h
1492 01-06-2020 04:15:00 9.4 C 7.51 g/m*3 9.4 C 0 km/h
1493 01-06-2020 04:20:00 9.3 C 7.55 g/m*3 9.3 C 0 km/h
1494 01-06-2020 04:25:00 9.2 C 7.5 g/m*3 9.2 C 0 km/h
1495 01-06-2020 04:30:00 9.2 C 7.5 g/m*3 9.2 C 0 km/h
1496 01-06-2020 04:35:00 9.1 C 7.54 g/m*3 9.1 C 0 km/h
1497 01-06-2020 04:40:00 9 C 7.49 g/m*3 9 C 0 km/h
1498 01-06-2020 04:45:00 8.9 C 7.45 g/m*3 8.9 C 0 km/h
1499 01-06-2020 04:50:00 8.8 C 7.49 g/m*3 8.8 C 0 km/h
1500 01-06-2020 04:55:00 8.8 C 7.49 g/m*3 8.8 C 0 km/h
Sensor: Nr:Datum:Temp:Abs-Feuchte:Windchill:Wind:
Aussen-T/F 1501 01-06-2020 05:00:00 8.7 C 7.44 g/m*3 8.7 C 0 km/h
1502 01-06-2020 05:05:00 8.7 C 7.44 g/m*3 8.7 C 0 km/h
1503 01-06-2020 05:10:00 8.7 C 7.52 g/m*3 8.7 C 0 km/h
1504 01-06-2020 05:15:00 8.7 C 7.52 g/m*3 8.7 C 0 km/h
1505 01-06-2020 05:20:00 8.6 C 7.48 g/m*3 8.6 C 0 km/h
1506 01-06-2020 05:25:00 8.6 C 7.48 g/m*3 8.6 C 0 km/h
1507 01-06-2020 05:30:00 8.5 C 7.43 g/m*3 8.5 C 0 km/h
1508 01-06-2020 05:35:00 8.4 C 7.38 g/m*3 8.4 C 0 km/h
1509 01-06-2020 05:40:00 8.4 C 7.38 g/m*3 8.4 C 0 km/h
1510 01-06-2020 05:45:00 8.4 C 7.38 g/m*3 8.4 C 0 km/h
1511 01-06-2020 05:50:00 8.4 C 7.47 g/m*3 8.4 C 0 km/h
1512 01-06-2020 05:55:00 8.3 C 7.42 g/m*3 8.3 C 0 km/h
1513 01-06-2020 06:00:00 8.3 C 7.42 g/m*3 8.3 C 0 km/h
1514 01-06-2020 06:05:00 8.3 C 7.5 g/m*3 8.3 C 0 km/h
1515 01-06-2020 06:10:00 8.4 C 7.55 g/m*3 8.4 C 0 km/h
1516 01-06-2020 06:15:00 8.4 C 7.55 g/m*3 8.4 C 0 km/h
1517 01-06-2020 06:20:00 8.4 C 7.55 g/m*3 8.4 C 0 km/h
1518 01-06-2020 06:25:00 8.4 C 7.55 g/m*3 8.4 C 0 km/h
1519 01-06-2020 06:30:00 8.4 C 7.55 g/m*3 8.4 C 0 km/h
1520 01-06-2020 06:35:00 8.5 C 7.68 g/m*3 8.5 C 0 km/h
1521 01-06-2020 06:40:00 8.5 C 7.68 g/m*3 8.5 C 0 km/h
1522 01-06-2020 06:45:00 8.6 C 7.73 g/m*3 8.6 C 0 km/h
1523 01-06-2020 06:50:00 8.6 C 7.73 g/m*3 8.6 C 0 km/h
1524 01-06-2020 06:55:00 8.6 C 7.73 g/m*3 8.6 C 0 km/h
1525 01-06-2020 07:00:00 8.7 C 7.87 g/m*3 8.7 C 0 km/h
Sensor: Nr:Datum:Temp:Abs-Feuchte:Windchill:Wind:
Aussen-T/F 1526 01-06-2020 07:05:00 8.8 C 7.83 g/m*3 8.8 C 0 km/h
1527 01-06-2020 07:10:00 8.8 C 7.92 g/m*3 8.8 C 0 km/h
1528 01-06-2020 07:15:00 8.9 C 7.97 g/m*3 8.9 C 0 km/h
1529 01-06-2020 07:20:00 8.9 C 7.97 g/m*3 8.9 C 0 km/h
1530 01-06-2020 07:25:00 9.1 C 8.07 g/m*3 9.1 C 0 km/h
1531 01-06-2020 07:30:00 9.1 C 8.07 g/m*3 9.1 C 0 km/h
1532 01-06-2020 07:35:00 9.2 C 8.13 g/m*3 9.2 C 0 km/h
1533 01-06-2020 07:40:00 9.3 C 8.18 g/m*3 9.3 C 0 km/h
1534 01-06-2020 07:45:00 9.4 C 8.32 g/m*3 9.4 C 0 km/h
1535 01-06-2020 07:50:00 9.6 C 8.43 g/m*3 9.6 C 0 km/h
1536 01-06-2020 07:55:00 9.7 C 8.48 g/m*3 9.7 C 0 km/h
1537 01-06-2020 08:00:00 9.8 C 8.54 g/m*3 9.8 C 0 km/h
1538 01-06-2020 08:05:00 9.9 C 8.5 g/m*3 9.9 C 0 km/h
1539 01-06-2020 08:10:00 10.1 C 8.7 g/m*3 10.1 C 0 km/h
1540 01-06-2020 08:15:00 10.2 C 8.66 g/m*3 10.2 C 0 km/h
1541 01-06-2020 08:20:00 10.4 C 8.77 g/m*3 10.4 C 1.6 km/h
1542 01-06-2020 08:25:00 10.6 C 8.88 g/m*3 10.6 C 0 km/h
1543 01-06-2020 08:30:00 10.7 C 8.94 g/m*3 10.7 C 0 km/h
1544 01-06-2020 08:35:00 10.9 C 9.05 g/m*3 10.9 C 0 km/h
1545 01-06-2020 08:40:00 11.1 C 9.07 g/m*3 11.1 C 0 km/h
1546 01-06-2020 08:45:00 11.3 C 9.18 g/m*3 11.3 C 0 km/h
1547 01-06-2020 08:50:00 11.4 C 9.24 g/m*3 11.4 C 0 km/h
1548 01-06-2020 08:55:00 11.7 C 9.31 g/m*3 11.7 C 3.2 km/h
1549 01-06-2020 09:00:00 12 C 9.38 g/m*3 12 C 3.2 km/h
1550 01-06-2020 09:05:00 12.4 C 9.4 g/m*3 12.4 C 1.6 km/h
Sensor: Nr:Datum:Temp:Abs-Feuchte:Windchill:Wind:
Aussen-T/F 1551 01-06-2020 09:10:00 12.7 C 9.46 g/m*3 12.7 C 0 km/h
1552 01-06-2020 09:15:00 13.3 C 9.36 g/m*3 13.3 C 6.4 km/h
1553 01-06-2020 09:20:00 13.8 C 9.65 g/m*3 13.8 C 6.4 km/h
1554 01-06-2020 09:25:00 14.1 C 9.59 g/m*3 14.1 C 1.6 km/h
1555 01-06-2020 09:30:00 14.4 C 9.52 g/m*3 14.4 C 3.2 km/h
1556 01-06-2020 09:35:00 14.8 C 9.63 g/m*3 14.8 C 1.6 km/h
1557 01-06-2020 09:40:00 15.2 C 9.61 g/m*3 15.2 C 1.6 km/h
1558 01-06-2020 09:45:00 15.5 C 9.52 g/m*3 15.5 C 1.6 km/h
1559 01-06-2020 09:50:00 15.8 C 9.56 g/m*3 15.8 C 9.7 km/h
1560 01-06-2020 09:55:00 16.1 C 10.14 g/m*3 16.1 C 1.6 km/h
1561 01-06-2020 10:00:00 16.2 C 9.65 g/m*3 16.2 C 8.1 km/h
1562 01-06-2020 10:05:00 16.7 C 9.66 g/m*3 16.7 C 8.1 km/h
1563 01-06-2020 10:10:00 17.1 C 9.75 g/m*3 17.1 C 4.8 km/h
1564 01-06-2020 10:15:00 17.5 C 9.99 g/m*3 17.5 C 4.8 km/h
1565 01-06-2020 10:20:00 17.9 C 9.92 g/m*3 17.9 C 3.2 km/h
1566 01-06-2020 10:25:00 18.3 C 9.85 g/m*3 18.3 C 6.4 km/h
1567 01-06-2020 10:30:00 18.8 C 9.66 g/m*3 18.8 C 9.7 km/h
1568 01-06-2020 10:35:00 19.2 C 9.89 g/m*3 19.2 C 4.8 km/h
1569 01-06-2020 10:40:00 19.5 C 9.9 g/m*3 19.5 C 11.3 km/h
1570 01-06-2020 10:45:00 19.8 C 9.57 g/m*3 19.8 C 6.4 km/h
1571 01-06-2020 10:50:00 20 C 9.33 g/m*3 20 C 9.7 km/h
1572 01-06-2020 10:55:00 20.2 C 9.62 g/m*3 20.2 C 6.4 km/h
1573 01-06-2020 11:00:00 20.3 C 9.5 g/m*3 20.3 C 3.2 km/h
1574 01-06-2020 11:05:00 20.6 C 9.66 g/m*3 20.6 C 6.4 km/h
1575 01-06-2020 11:10:00 20.8 C 9.42 g/m*3 20.8 C 9.7 km/h
Sensor: Nr:Datum:Temp:Abs-Feuchte:Windchill:Wind:
Aussen-T/F 1576 01-06-2020 11:15:00 20.9 C 9.29 g/m*3 20.9 C 4.8 km/h
1577 01-06-2020 11:20:00 21.1 C 9.21 g/m*3 21.1 C 3.2 km/h
1578 01-06-2020 11:25:00 21.1 C 9.4 g/m*3 21.1 C 6.4 km/h
1579 01-06-2020 11:30:00 21.2 C 9.27 g/m*3 21.2 C 11.3 km/h
1580 01-06-2020 11:35:00 21.3 C 9.13 g/m*3 21.3 C 11.3 km/h
1581 01-06-2020 11:40:00 21.4 C 9.19 g/m*3 21.4 C 9.7 km/h
1582 01-06-2020 11:45:00 21.7 C 9.16 g/m*3 21.7 C 9.7 km/h
1583 01-06-2020 11:50:00 21.8 C 9.21 g/m*3 21.8 C 6.4 km/h
1584 01-06-2020 11:55:00 21.9 C 9.26 g/m*3 21.9 C 9.7 km/h
1585 01-06-2020 12:00:00 22 C 9.12 g/m*3 22 C 9.7 km/h
1586 01-06-2020 12:05:00 22.1 C 9.17 g/m*3 22.1 C 14.5 km/h
1587 01-06-2020 12:10:00 22.2 C 9.03 g/m*3 22.2 C 8.1 km/h
1588 01-06-2020 12:15:00 22.2 C 9.23 g/m*3 22.2 C 8.1 km/h
1589 01-06-2020 12:20:00 22.3 C 9.08 g/m*3 22.3 C 14.5 km/h
1590 01-06-2020 12:25:00 22.4 C 9.33 g/m*3 22.4 C 11.3 km/h
1591 01-06-2020 12:30:00 22.4 C 9.33 g/m*3 22.4 C 9.7 km/h
1592 01-06-2020 12:35:00 22.4 C 9.14 g/m*3 22.4 C 14.5 km/h
1593 01-06-2020 12:40:00 22.6 C 9.24 g/m*3 22.6 C 8.1 km/h
1594 01-06-2020 12:45:00 22.6 C 9.44 g/m*3 22.6 C 6.4 km/h
1595 01-06-2020 12:50:00 22.6 C 9.24 g/m*3 22.6 C 8.1 km/h
1596 01-06-2020 12:55:00 22.7 C 9.29 g/m*3 22.7 C 9.7 km/h
1597 01-06-2020 13:00:00 22.7 C 9.29 g/m*3 22.7 C 16.1 km/h
1598 01-06-2020 13:05:00 22.8 C 9.35 g/m*3 22.8 C 8.1 km/h
1599 01-06-2020 13:10:00 22.8 C 9.35 g/m*3 22.8 C 14.5 km/h
1600 01-06-2020 13:15:00 22.9 C 9.2 g/m*3 22.9 C 4.8 km/h
Sensor: Nr:Datum:Temp:Abs-Feuchte:Windchill:Wind:
Aussen-T/F 1601 01-06-2020 13:20:00 22.9 C 9.4 g/m*3 22.9 C 11.3 km/h
1602 01-06-2020 13:25:00 23.1 C 9.51 g/m*3 23.1 C 6.4 km/h
1603 01-06-2020 13:30:00 23.2 C 9.15 g/m*3 23.2 C 9.7 km/h
1604 01-06-2020 13:35:00 23.4 C 9.46 g/m*3 23.4 C 14.5 km/h
1605 01-06-2020 13:40:00 23.6 C 9.36 g/m*3 23.6 C 14.5 km/h
1606 01-06-2020 13:45:00 23.7 C 9.41 g/m*3 23.7 C 8.1 km/h
1607 01-06-2020 13:50:00 23.8 C 9.46 g/m*3 23.8 C 12.9 km/h
1608 01-06-2020 13:55:00 23.9 C 9.09 g/m*3 23.9 C 9.7 km/h
1609 01-06-2020 14:00:00 23.9 C 9.09 g/m*3 23.9 C 11.3 km/h
1610 01-06-2020 14:05:00 23.9 C 9.3 g/m*3 23.9 C 8.1 km/h
1611 01-06-2020 14:10:00 23.9 C 9.3 g/m*3 23.9 C 9.7 km/h
1612 01-06-2020 14:15:00 24 C 9.36 g/m*3 24 C 8.1 km/h
1613 01-06-2020 14:20:00 24.1 C 8.97 g/m*3 24.1 C 8.1 km/h
1614 01-06-2020 14:25:00 24.3 C 9.07 g/m*3 24.3 C 14.5 km/h
1615 01-06-2020 14:30:00 24.5 C 9.18 g/m*3 24.5 C 16.1 km/h
1616 01-06-2020 14:35:00 24.4 C 8.9 g/m*3 24.4 C 20.9 km/h
1617 01-06-2020 14:40:00 24.4 C 9.12 g/m*3 24.4 C 8.1 km/h
1618 01-06-2020 14:45:00 24.4 C 9.12 g/m*3 24.4 C 14.5 km/h
1619 01-06-2020 14:50:00 24.6 C 9.23 g/m*3 24.6 C 6.4 km/h
1620 01-06-2020 14:55:00 24.8 C 9.1 g/m*3 24.8 C 9.7 km/h
1621 01-06-2020 15:00:00 25 C 8.98 g/m*3 25 C 9.7 km/h
1622 01-06-2020 15:05:00 25.2 C 9.08 g/m*3 25.2 C 9.7 km/h
1623 01-06-2020 15:10:00 25.1 C 8.8 g/m*3 25.1 C 11.3 km/h
1624 01-06-2020 15:15:00 25.2 C 9.08 g/m*3 25.2 C 8.1 km/h
1625 01-06-2020 15:20:00 25.7 C 9.34 g/m*3 25.7 C 11.3 km/h
Sensor: Nr:Datum:Temp:Abs-Feuchte:Windchill:Wind:
Aussen-T/F 1626 01-06-2020 15:25:00 25.8 C 8.91 g/m*3 25.8 C 16.1 km/h
1627 01-06-2020 15:30:00 25.7 C 9.1 g/m*3 25.7 C 12.9 km/h
1628 01-06-2020 15:35:00 25.8 C 8.91 g/m*3 25.8 C 16.1 km/h
1629 01-06-2020 15:40:00 25.9 C 8.47 g/m*3 25.9 C 17.7 km/h
1630 01-06-2020 15:45:00 26 C 8.76 g/m*3 26 C 14.5 km/h
1631 01-06-2020 15:50:00 26 C 8.76 g/m*3 26 C 12.9 km/h
1632 01-06-2020 15:55:00 26.3 C 8.66 g/m*3 26.3 C 9.7 km/h
1633 01-06-2020 16:00:00 26.3 C 8.66 g/m*3 26.3 C 12.9 km/h
1634 01-06-2020 16:05:00 26.6 C 8.81 g/m*3 26.6 C 11.3 km/h
1635 01-06-2020 16:10:00 26.8 C 8.65 g/m*3 26.8 C 12.9 km/h
1636 01-06-2020 16:15:00 26.7 C 8.61 g/m*3 26.7 C 14.5 km/h
1637 01-06-2020 16:20:00 26.8 C 8.91 g/m*3 26.8 C 6.4 km/h
1638 01-06-2020 16:25:00 26.9 C 8.7 g/m*3 26.9 C 16.1 km/h
1639 01-06-2020 16:30:00 26.9 C 8.96 g/m*3 26.9 C 11.3 km/h
1640 01-06-2020 16:35:00 27.2 C 9.11 g/m*3 27.2 C 8.1 km/h
1641 01-06-2020 16:40:00 27.5 C 9 g/m*3 27.5 C 12.9 km/h
1642 01-06-2020 16:45:00 27.2 C 8.85 g/m*3 27.2 C 17.7 km/h
1643 01-06-2020 16:50:00 26.7 C 8.86 g/m*3 26.7 C 12.9 km/h
1644 01-06-2020 16:55:00 26.8 C 8.91 g/m*3 26.8 C 11.3 km/h
1645 01-06-2020 17:00:00 26.9 C 8.7 g/m*3 26.9 C 9.7 km/h
1646 01-06-2020 17:05:00 26.9 C 8.96 g/m*3 26.9 C 19.3 km/h
1647 01-06-2020 17:10:00 26.7 C 8.86 g/m*3 26.7 C 11.3 km/h
1648 01-06-2020 17:15:00 26.9 C 8.96 g/m*3 26.9 C 12.9 km/h
1649 01-06-2020 17:20:00 27.3 C 8.9 g/m*3 27.3 C 12.9 km/h
1650 01-06-2020 17:25:00 26.9 C 8.96 g/m*3 26.9 C 14.5 km/h
Sensor: Nr:Datum:Temp:Abs-Feuchte:Windchill:Wind:
Aussen-T/F 1651 01-06-2020 17:30:00 27.1 C 9.06 g/m*3 27.1 C 9.7 km/h
1652 01-06-2020 17:35:00 27 C 8.75 g/m*3 27 C 17.7 km/h
1653 01-06-2020 17:40:00 26.8 C 8.91 g/m*3 26.8 C 16.1 km/h
1654 01-06-2020 17:45:00 27.1 C 9.06 g/m*3 27.1 C 11.3 km/h
1655 01-06-2020 17:50:00 27.1 C 8.8 g/m*3 27.1 C 14.5 km/h
1656 01-06-2020 17:55:00 27 C 9.01 g/m*3 27 C 9.7 km/h
1657 01-06-2020 18:00:00 27.3 C 8.63 g/m*3 27.3 C 11.3 km/h
1658 01-06-2020 18:05:00 27.5 C 9 g/m*3 27.5 C 11.3 km/h
1659 01-06-2020 18:10:00 27.3 C 8.63 g/m*3 27.3 C 16.1 km/h
1660 01-06-2020 18:15:00 26.9 C 8.7 g/m*3 26.9 C 9.7 km/h
1661 01-06-2020 18:20:00 26.9 C 8.7 g/m*3 26.9 C 12.9 km/h
1662 01-06-2020 18:25:00 27 C 8.75 g/m*3 27 C 14.5 km/h
1663 01-06-2020 18:30:00 26.9 C 8.96 g/m*3 26.9 C 14.5 km/h
1664 01-06-2020 18:35:00 27 C 8.75 g/m*3 27 C 12.9 km/h
1665 01-06-2020 18:40:00 27.1 C 8.8 g/m*3 27.1 C 12.9 km/h
1666 01-06-2020 18:45:00 27.1 C 8.8 g/m*3 27.1 C 11.3 km/h
1667 01-06-2020 18:50:00 26.8 C 8.91 g/m*3 26.8 C 16.1 km/h
1668 01-06-2020 18:55:00 26.7 C 8.86 g/m*3 26.7 C 11.3 km/h
1669 01-06-2020 19:00:00 26.7 C 8.86 g/m*3 26.7 C 12.9 km/h
1670 01-06-2020 19:05:00 26.7 C 8.86 g/m*3 26.7 C 12.9 km/h
1671 01-06-2020 19:10:00 26.6 C 8.81 g/m*3 26.6 C 14.5 km/h
1672 01-06-2020 19:15:00 26.4 C 8.71 g/m*3 26.4 C 14.5 km/h
1673 01-06-2020 19:20:00 26.3 C 8.66 g/m*3 26.3 C 14.5 km/h
1674 01-06-2020 19:25:00 26.2 C 8.86 g/m*3 26.2 C 9.7 km/h
1675 01-06-2020 19:30:00 26.1 C 8.57 g/m*3 26.1 C 19.3 km/h
Sensor: Nr:Datum:Temp:Abs-Feuchte:Windchill:Wind:
Aussen-T/F 1676 01-06-2020 19:35:00 25.8 C 8.67 g/m*3 25.8 C 11.3 km/h
1677 01-06-2020 19:40:00 25.7 C 8.86 g/m*3 25.7 C 9.7 km/h
1678 01-06-2020 19:45:00 25.8 C 8.91 g/m*3 25.8 C 8.1 km/h
1679 01-06-2020 19:50:00 25.7 C 8.62 g/m*3 25.7 C 12.9 km/h
1680 01-06-2020 19:55:00 25.6 C 8.81 g/m*3 25.6 C 11.3 km/h
1681 01-06-2020 20:00:00 25.4 C 8.71 g/m*3 25.4 C 16.1 km/h
1682 01-06-2020 20:05:00 25.3 C 8.9 g/m*3 25.3 C 11.3 km/h
1683 01-06-2020 20:10:00 25.3 C 9.13 g/m*3 25.3 C 4.8 km/h
1684 01-06-2020 20:15:00 25.3 C 8.9 g/m*3 25.3 C 9.7 km/h
1685 01-06-2020 20:20:00 25.2 C 9.31 g/m*3 25.2 C 6.4 km/h
1686 01-06-2020 20:25:00 25.2 C 9.08 g/m*3 25.2 C 4.8 km/h
1687 01-06-2020 20:30:00 25.2 C 9.54 g/m*3 25.2 C 4.8 km/h
1688 01-06-2020 20:35:00 25.1 C 10.19 g/m*3 25.1 C 9.7 km/h
1689 01-06-2020 20:40:00 25.1 C 10.19 g/m*3 25.1 C 3.2 km/h
1690 01-06-2020 20:45:00 24.8 C 10.24 g/m*3 24.8 C 1.6 km/h
1691 01-06-2020 20:50:00 24.5 C 10.3 g/m*3 24.5 C 3.2 km/h
1692 01-06-2020 20:55:00 24.1 C 10.06 g/m*3 24.1 C 4.8 km/h
1693 01-06-2020 21:00:00 23.5 C 9.73 g/m*3 23.5 C 3.2 km/h
1694 01-06-2020 21:05:00 22.9 C 9.4 g/m*3 22.9 C 1.6 km/h
1695 01-06-2020 21:10:00 22.4 C 9.33 g/m*3 22.4 C 0 km/h
1696 01-06-2020 21:15:00 21.9 C 9.26 g/m*3 21.9 C 1.6 km/h
1697 01-06-2020 21:20:00 21.5 C 9.05 g/m*3 21.5 C 1.6 km/h
1698 01-06-2020 21:25:00 21.1 C 8.84 g/m*3 21.1 C 3.2 km/h
1699 01-06-2020 21:30:00 20.8 C 8.87 g/m*3 20.8 C 4.8 km/h
1700 01-06-2020 21:35:00 20.4 C 8.67 g/m*3 20.4 C 6.4 km/h
Sensor: Nr:Datum:Temp:Abs-Feuchte:Windchill:Wind:
Aussen-T/F 1701 01-06-2020 21:40:00 20.2 C 8.57 g/m*3 20.2 C 8.1 km/h
1702 01-06-2020 21:45:00 19.9 C 8.42 g/m*3 19.9 C 8.1 km/h
1703 01-06-2020 21:50:00 19.7 C 8.49 g/m*3 19.7 C 6.4 km/h
1704 01-06-2020 21:55:00 19.6 C 8.44 g/m*3 19.6 C 6.4 km/h
1705 01-06-2020 22:00:00 19.3 C 8.29 g/m*3 19.3 C 6.4 km/h
1706 01-06-2020 22:05:00 19.2 C 8.24 g/m*3 19.2 C 6.4 km/h
1707 01-06-2020 22:10:00 19.1 C 8.2 g/m*3 19.1 C 6.4 km/h
1708 01-06-2020 22:15:00 18.9 C 8.1 g/m*3 18.9 C 6.4 km/h
1709 01-06-2020 22:20:00 18.8 C 8.21 g/m*3 18.8 C 6.4 km/h
1710 01-06-2020 22:25:00 18.7 C 8.33 g/m*3 18.7 C 4.8 km/h
1711 01-06-2020 22:30:00 18.6 C 8.28 g/m*3 18.6 C 3.2 km/h
1712 01-06-2020 22:35:00 18.3 C 8.29 g/m*3 18.3 C 4.8 km/h
1713 01-06-2020 22:40:00 18.2 C 8.39 g/m*3 18.2 C 4.8 km/h
1714 01-06-2020 22:45:00 17.9 C 8.4 g/m*3 17.9 C 3.2 km/h
1715 01-06-2020 22:50:00 17.7 C 8.45 g/m*3 17.7 C 0 km/h
1716 01-06-2020 22:55:00 17.3 C 8.4 g/m*3 17.3 C 0 km/h
1717 01-06-2020 23:00:00 17 C 8.39 g/m*3 17 C 1.6 km/h
1718 01-06-2020 23:05:00 16.8 C 8.44 g/m*3 16.8 C 3.2 km/h
1719 01-06-2020 23:10:00 16.7 C 8.38 g/m*3 16.7 C 3.2 km/h
1720 01-06-2020 23:15:00 16.6 C 8.48 g/m*3 16.6 C 1.6 km/h
1721 01-06-2020 23:20:00 16.4 C 8.51 g/m*3 16.4 C 1.6 km/h
1722 01-06-2020 23:25:00 16.4 C 8.51 g/m*3 16.4 C 1.6 km/h
1723 01-06-2020 23:30:00 16.3 C 8.46 g/m*3 16.3 C 1.6 km/h
1724 01-06-2020 23:35:00 16.3 C 8.46 g/m*3 16.3 C 1.6 km/h
1725 01-06-2020 23:40:00 16.2 C 8.41 g/m*3 16.2 C 1.6 km/h
Sensor: Nr:Datum:Temp:Abs-Feuchte:Windchill:Wind:
Aussen-T/F 1726 01-06-2020 23:45:00 16.2 C 8.41 g/m*3 16.2 C 4.8 km/h
1727 01-06-2020 23:50:00 16.2 C 8.55 g/m*3 16.2 C 0 km/h
1728 01-06-2020 23:55:00 16.1 C 8.36 g/m*3 16.1 C 1.6 km/h
1729 02-06-2020 00:00:00 16.1 C 8.5 g/m*3 16.1 C 1.6 km/h
1730 02-06-2020 00:05:00 16.1 C 8.5 g/m*3 16.1 C 3.2 km/h
1731 02-06-2020 00:10:00 16.1 C 8.5 g/m*3 16.1 C 3.2 km/h
1732 02-06-2020 00:15:00 16.1 C 8.5 g/m*3 16.1 C 1.6 km/h
1733 02-06-2020 00:20:00 16.1 C 8.5 g/m*3 16.1 C 1.6 km/h
1734 02-06-2020 00:25:00 16.2 C 8.55 g/m*3 16.2 C 1.6 km/h
1735 02-06-2020 00:30:00 16.2 C 8.55 g/m*3 16.2 C 1.6 km/h
1736 02-06-2020 00:35:00 16.2 C 8.55 g/m*3 16.2 C 0 km/h
1737 02-06-2020 00:40:00 16.1 C 8.64 g/m*3 16.1 C 0 km/h
1738 02-06-2020 00:45:00 16.1 C 8.64 g/m*3 16.1 C 1.6 km/h
1739 02-06-2020 00:50:00 16 C 8.45 g/m*3 16 C 1.6 km/h
1740 02-06-2020 00:55:00 15.9 C 8.53 g/m*3 15.9 C 1.6 km/h
1741 02-06-2020 01:00:00 15.8 C 8.48 g/m*3 15.8 C 3.2 km/h
1742 02-06-2020 01:05:00 15.8 C 8.48 g/m*3 15.8 C 0 km/h
1743 02-06-2020 01:10:00 15.7 C 8.43 g/m*3 15.7 C 1.6 km/h
1744 02-06-2020 01:15:00 15.7 C 8.56 g/m*3 15.7 C 1.6 km/h
1745 02-06-2020 01:20:00 15.7 C 8.56 g/m*3 15.7 C 1.6 km/h
1746 02-06-2020 01:25:00 15.6 C 8.51 g/m*3 15.6 C 4.8 km/h
1747 02-06-2020 01:30:00 15.5 C 8.46 g/m*3 15.5 C 1.6 km/h
1748 02-06-2020 01:35:00 15.4 C 8.54 g/m*3 15.4 C 3.2 km/h
1749 02-06-2020 01:40:00 15.2 C 8.44 g/m*3 15.2 C 3.2 km/h
1750 02-06-2020 01:45:00 15.1 C 8.39 g/m*3 15.1 C 4.8 km/h
Sensor: Nr:Datum:Temp:Abs-Feuchte:Windchill:Wind:
Aussen-T/F 1751 02-06-2020 01:50:00 14.9 C 8.41 g/m*3 14.9 C 4.8 km/h
1752 02-06-2020 01:55:00 14.9 C 8.54 g/m*3 14.9 C 3.2 km/h
1753 02-06-2020 02:00:00 14.8 C 8.49 g/m*3 14.8 C 1.6 km/h
1754 02-06-2020 02:05:00 14.7 C 8.56 g/m*3 14.7 C 3.2 km/h
1755 02-06-2020 02:10:00 14.6 C 8.51 g/m*3 14.6 C 3.2 km/h
1756 02-06-2020 02:15:00 14.6 C 8.51 g/m*3 14.6 C 1.6 km/h
1757 02-06-2020 02:20:00 14.4 C 8.53 g/m*3 14.4 C 1.6 km/h
1758 02-06-2020 02:25:00 14.3 C 8.48 g/m*3 14.3 C 1.6 km/h
1759 02-06-2020 02:30:00 14.2 C 8.55 g/m*3 14.2 C 1.6 km/h
1760 02-06-2020 02:35:00 14 C 8.56 g/m*3 14 C 1.6 km/h
1761 02-06-2020 02:40:00 13.9 C 8.51 g/m*3 13.9 C 0 km/h
1762 02-06-2020 02:45:00 13.8 C 8.46 g/m*3 13.8 C 0 km/h
1763 02-06-2020 02:50:00 13.7 C 8.53 g/m*3 13.7 C 0 km/h
1764 02-06-2020 02:55:00 13.6 C 8.47 g/m*3 13.6 C 0 km/h
1765 02-06-2020 03:00:00 13.5 C 8.54 g/m*3 13.5 C 0 km/h
1766 02-06-2020 03:05:00 13.4 C 8.49 g/m*3 13.4 C 0 km/h
1767 02-06-2020 03:10:00 13.2 C 8.38 g/m*3 13.2 C 0 km/h
1768 02-06-2020 03:15:00 13.1 C 8.44 g/m*3 13.1 C 0 km/h
1769 02-06-2020 03:20:00 12.8 C 8.4 g/m*3 12.8 C 0 km/h
1770 02-06-2020 03:25:00 12.7 C 8.35 g/m*3 12.7 C 0 km/h
1771 02-06-2020 03:30:00 12.6 C 8.52 g/m*3 12.6 C 0 km/h
1772 02-06-2020 03:35:00 12.4 C 8.41 g/m*3 12.4 C 0 km/h
1773 02-06-2020 03:40:00 12.3 C 8.47 g/m*3 12.3 C 0 km/h
1774 02-06-2020 03:45:00 12.1 C 8.36 g/m*3 12.1 C 0 km/h
1775 02-06-2020 03:50:00 12 C 8.42 g/m*3 12 C 0 km/h
Sensor: Nr:Datum:Temp:Abs-Feuchte:Windchill:Wind:
Aussen-T/F 1776 02-06-2020 03:55:00 11.9 C 8.47 g/m*3 11.9 C 0 km/h
1777 02-06-2020 04:00:00 11.8 C 8.42 g/m*3 11.8 C 0 km/h
1778 02-06-2020 04:05:00 11.7 C 8.37 g/m*3 11.7 C 0 km/h
1779 02-06-2020 04:10:00 11.6 C 8.32 g/m*3 11.6 C 0 km/h
1780 02-06-2020 04:15:00 11.4 C 8.31 g/m*3 11.4 C 0 km/h
1781 02-06-2020 04:20:00 11.3 C 8.26 g/m*3 11.3 C 0 km/h
1782 02-06-2020 04:25:00 11.3 C 8.26 g/m*3 11.3 C 0 km/h
1783 02-06-2020 04:30:00 11.2 C 8.31 g/m*3 11.2 C 0 km/h
1784 02-06-2020 04:35:00 11.2 C 8.31 g/m*3 11.2 C 0 km/h
1785 02-06-2020 04:40:00 11.1 C 8.26 g/m*3 11.1 C 0 km/h
1786 02-06-2020 04:45:00 11.1 C 8.36 g/m*3 11.1 C 0 km/h
1787 02-06-2020 04:50:00 11.1 C 8.46 g/m*3 11.1 C 0 km/h
1788 02-06-2020 04:55:00 11 C 8.41 g/m*3 11 C 0 km/h
1789 02-06-2020 05:00:00 10.9 C 8.36 g/m*3 10.9 C 0 km/h
1790 02-06-2020 05:05:00 10.9 C 8.36 g/m*3 10.9 C 0 km/h
1791 02-06-2020 05:10:00 10.8 C 8.3 g/m*3 10.8 C 0 km/h
1792 02-06-2020 05:15:00 10.7 C 8.25 g/m*3 10.7 C 0 km/h
1793 02-06-2020 05:20:00 10.7 C 8.35 g/m*3 10.7 C 1.6 km/h
1794 02-06-2020 05:25:00 10.6 C 8.3 g/m*3 10.6 C 1.6 km/h
1795 02-06-2020 05:30:00 10.6 C 8.3 g/m*3 10.6 C 0 km/h
1796 02-06-2020 05:35:00 10.5 C 8.24 g/m*3 10.5 C 0 km/h
1797 02-06-2020 05:40:00 10.4 C 8.29 g/m*3 10.4 C 0 km/h
1798 02-06-2020 05:45:00 10.4 C 8.29 g/m*3 10.4 C 0 km/h
1799 02-06-2020 05:50:00 10.4 C 8.29 g/m*3 10.4 C 0 km/h
1800 02-06-2020 05:55:00 10.4 C 8.29 g/m*3 10.4 C 0 km/h
Sensor: Nr:Datum:Temp:Abs-Feuchte:Windchill:Wind:
Aussen-T/F 1801 02-06-2020 06:00:00 10.4 C 8.38 g/m*3 10.4 C 0 km/h
1802 02-06-2020 06:05:00 10.5 C 8.44 g/m*3 10.5 C 0 km/h
1803 02-06-2020 06:10:00 10.5 C 8.44 g/m*3 10.5 C 1.6 km/h
1804 02-06-2020 06:15:00 10.5 C 8.44 g/m*3 10.5 C 0 km/h
1805 02-06-2020 06:20:00 10.6 C 8.59 g/m*3 10.6 C 0 km/h
1806 02-06-2020 06:25:00 10.6 C 8.59 g/m*3 10.6 C 0 km/h
1807 02-06-2020 06:30:00 10.6 C 8.59 g/m*3 10.6 C 0 km/h
1808 02-06-2020 06:35:00 10.6 C 8.59 g/m*3 10.6 C 0 km/h
1809 02-06-2020 06:40:00 10.7 C 8.64 g/m*3 10.7 C 0 km/h
1810 02-06-2020 06:45:00 10.7 C 8.64 g/m*3 10.7 C 0 km/h
1811 02-06-2020 06:50:00 10.7 C 8.64 g/m*3 10.7 C 0 km/h
1812 02-06-2020 06:55:00 10.8 C 8.7 g/m*3 10.8 C 0 km/h
1813 02-06-2020 07:00:00 10.8 C 8.7 g/m*3 10.8 C 0 km/h
1814 02-06-2020 07:05:00 10.8 C 8.7 g/m*3 10.8 C 0 km/h
1815 02-06-2020 07:10:00 10.8 C 8.7 g/m*3 10.8 C 0 km/h
1816 02-06-2020 07:15:00 10.9 C 8.75 g/m*3 10.9 C 1.6 km/h
1817 02-06-2020 07:20:00 10.9 C 8.85 g/m*3 10.9 C 0 km/h
1818 02-06-2020 07:25:00 11 C 8.91 g/m*3 11 C 0 km/h
1819 02-06-2020 07:30:00 11.1 C 8.96 g/m*3 11.1 C 0 km/h
1820 02-06-2020 07:35:00 11.2 C 9.02 g/m*3 11.2 C 0 km/h
1821 02-06-2020 07:40:00 11.2 C 9.02 g/m*3 11.2 C 0 km/h
1822 02-06-2020 07:45:00 11.3 C 9.08 g/m*3 11.3 C 0 km/h
1823 02-06-2020 07:50:00 11.4 C 9.14 g/m*3 11.4 C 1.6 km/h
1824 02-06-2020 07:55:00 11.5 C 9.19 g/m*3 11.5 C 0 km/h
1825 02-06-2020 08:00:00 11.6 C 9.15 g/m*3 11.6 C 0 km/h
Sensor: Nr:Datum:Temp:Abs-Feuchte:Windchill:Wind:
Aussen-T/F 1826 02-06-2020 08:05:00 11.7 C 9.2 g/m*3 11.7 C 0 km/h
1827 02-06-2020 08:10:00 11.9 C 9.43 g/m*3 11.9 C 0 km/h
1828 02-06-2020 08:15:00 12 C 9.38 g/m*3 12 C 0 km/h
1829 02-06-2020 08:20:00 12.2 C 9.5 g/m*3 12.2 C 0 km/h
1830 02-06-2020 08:25:00 12.3 C 9.56 g/m*3 12.3 C 0 km/h
1831 02-06-2020 08:30:00 12.4 C 9.62 g/m*3 12.4 C 0 km/h
1832 02-06-2020 08:35:00 12.6 C 9.62 g/m*3 12.6 C 0 km/h
1833 02-06-2020 08:40:00 12.8 C 9.74 g/m*3 12.8 C 0 km/h
1834 02-06-2020 08:45:00 12.9 C 9.81 g/m*3 12.9 C 0 km/h
1835 02-06-2020 08:50:00 13.1 C 9.93 g/m*3 13.1 C 0 km/h
1836 02-06-2020 08:55:00 13.2 C 9.99 g/m*3 13.2 C 0 km/h
1837 02-06-2020 09:00:00 13.4 C 10 g/m*3 13.4 C 0 km/h
1838 02-06-2020 09:05:00 13.6 C 10.12 g/m*3 13.6 C 0 km/h
1839 02-06-2020 09:10:00 13.8 C 10.13 g/m*3 13.8 C 0 km/h
1840 02-06-2020 09:15:00 14.1 C 10.32 g/m*3 14.1 C 0 km/h
1841 02-06-2020 09:20:00 14.4 C 10.38 g/m*3 14.4 C 0 km/h
1842 02-06-2020 09:25:00 14.7 C 10.45 g/m*3 14.7 C 0 km/h
1843 02-06-2020 09:30:00 14.9 C 10.45 g/m*3 14.9 C 0 km/h
1844 02-06-2020 09:35:00 15.1 C 10.45 g/m*3 15.1 C 0 km/h
1845 02-06-2020 09:40:00 15.3 C 10.45 g/m*3 15.3 C 0 km/h
1846 02-06-2020 09:45:00 15.7 C 10.44 g/m*3 15.7 C 0 km/h
1847 02-06-2020 09:50:00 15.9 C 10.56 g/m*3 15.9 C 0 km/h
1848 02-06-2020 09:55:00 16.2 C 10.62 g/m*3 16.2 C 0 km/h
1849 02-06-2020 10:00:00 16.5 C 10.67 g/m*3 16.5 C 0 km/h
1850 02-06-2020 10:05:00 16.8 C 10.58 g/m*3 16.8 C 0 km/h
Sensor: Nr:Datum:Temp:Abs-Feuchte:Windchill:Wind:
Aussen-T/F 1851 02-06-2020 10:10:00 17.2 C 10.54 g/m*3 17.2 C 1.6 km/h
1852 02-06-2020 10:15:00 17.8 C 10.47 g/m*3 17.8 C 1.6 km/h
1853 02-06-2020 10:20:00 18.3 C 10.94 g/m*3 18.3 C 1.6 km/h
1854 02-06-2020 10:25:00 18.9 C 11.18 g/m*3 18.9 C 1.6 km/h
1855 02-06-2020 10:30:00 19.4 C 10.34 g/m*3 19.4 C 1.6 km/h
1856 02-06-2020 10:35:00 20.1 C 10.78 g/m*3 20.1 C 4.8 km/h
1857 02-06-2020 10:40:00 20.8 C 9.96 g/m*3 20.8 C 6.4 km/h
1858 02-06-2020 10:45:00 21.3 C 9.69 g/m*3 21.3 C 9.7 km/h
1859 02-06-2020 10:50:00 21.7 C 10.3 g/m*3 21.7 C 9.7 km/h
1860 02-06-2020 10:55:00 21.9 C 9.65 g/m*3 21.9 C 9.7 km/h
1861 02-06-2020 11:00:00 22.2 C 10.01 g/m*3 22.2 C 9.7 km/h
1862 02-06-2020 11:05:00 22.3 C 9.68 g/m*3 22.3 C 4.8 km/h
1863 02-06-2020 11:10:00 22.4 C 9.53 g/m*3 22.4 C 8.1 km/h
1864 02-06-2020 11:15:00 22.7 C 9.5 g/m*3 22.7 C 8.1 km/h
1865 02-06-2020 11:20:00 22.9 C 9.4 g/m*3 22.9 C 8.1 km/h
1866 02-06-2020 11:25:00 22.9 C 9.4 g/m*3 22.9 C 6.4 km/h
1867 02-06-2020 11:30:00 23.1 C 9.51 g/m*3 23.1 C 6.4 km/h
1868 02-06-2020 11:35:00 23.2 C 9.56 g/m*3 23.2 C 9.7 km/h
1869 02-06-2020 11:40:00 23.3 C 9.41 g/m*3 23.3 C 9.7 km/h
1870 02-06-2020 11:45:00 23.6 C 9.36 g/m*3 23.6 C 8.1 km/h
1871 02-06-2020 11:50:00 23.7 C 9.2 g/m*3 23.7 C 11.3 km/h
1872 02-06-2020 11:55:00 23.7 C 9.41 g/m*3 23.7 C 12.9 km/h
1873 02-06-2020 12:00:00 23.8 C 9.46 g/m*3 23.8 C 8.1 km/h
1874 02-06-2020 12:05:00 23.9 C 9.3 g/m*3 23.9 C 16.1 km/h
1875 02-06-2020 12:10:00 23.8 C 9.25 g/m*3 23.8 C 9.7 km/h
Sensor: Nr:Datum:Temp:Abs-Feuchte:Windchill:Wind:
Aussen-T/F 1876 02-06-2020 12:15:00 23.8 C 9.25 g/m*3 23.8 C 14.5 km/h
1877 02-06-2020 12:20:00 23.8 C 9.25 g/m*3 23.8 C 11.3 km/h
1878 02-06-2020 12:25:00 23.8 C 9.46 g/m*3 23.8 C 8.1 km/h
1879 02-06-2020 12:30:00 23.9 C 9.3 g/m*3 23.9 C 9.7 km/h
1880 02-06-2020 12:35:00 23.9 C 9.3 g/m*3 23.9 C 4.8 km/h
1881 02-06-2020 12:40:00 24 C 9.36 g/m*3 24 C 14.5 km/h
1882 02-06-2020 12:45:00 24.2 C 9.46 g/m*3 24.2 C 17.7 km/h
1883 02-06-2020 12:50:00 24.3 C 9.29 g/m*3 24.3 C 9.7 km/h
1884 02-06-2020 12:55:00 24.3 C 9.52 g/m*3 24.3 C 8.1 km/h
1885 02-06-2020 13:00:00 24.4 C 9.35 g/m*3 24.4 C 8.1 km/h
1886 02-06-2020 13:05:00 24.6 C 9.45 g/m*3 24.6 C 8.1 km/h
1887 02-06-2020 13:10:00 24.7 C 9.28 g/m*3 24.7 C 9.7 km/h
1888 02-06-2020 13:15:00 24.8 C 9.56 g/m*3 24.8 C 9.7 km/h
1889 02-06-2020 13:20:00 24.9 C 9.39 g/m*3 24.9 C 6.4 km/h
1890 02-06-2020 13:25:00 24.9 C 9.61 g/m*3 24.9 C 6.4 km/h
1891 02-06-2020 13:30:00 25.1 C 9.72 g/m*3 25.1 C 14.5 km/h
1892 02-06-2020 13:35:00 25.3 C 9.6 g/m*3 25.3 C 9.7 km/h
1893 02-06-2020 13:40:00 25.5 C 9.47 g/m*3 25.5 C 11.3 km/h
1894 02-06-2020 13:45:00 25.6 C 9.76 g/m*3 25.6 C 14.5 km/h
1895 02-06-2020 13:50:00 25.7 C 9.58 g/m*3 25.7 C 6.4 km/h
1896 02-06-2020 13:55:00 25.8 C 9.63 g/m*3 25.8 C 6.4 km/h
1897 02-06-2020 14:00:00 25.8 C 9.39 g/m*3 25.8 C 14.5 km/h
1898 02-06-2020 14:05:00 25.9 C 9.93 g/m*3 25.9 C 6.4 km/h
1899 02-06-2020 14:10:00 25.9 C 9.2 g/m*3 25.9 C 8.1 km/h
1900 02-06-2020 14:15:00 26.1 C 9.3 g/m*3 26.1 C 11.3 km/h
Sensor: Nr:Datum:Temp:Abs-Feuchte:Windchill:Wind:
Aussen-T/F 1901 02-06-2020 14:20:00 26.2 C 9.35 g/m*3 26.2 C 11.3 km/h
1902 02-06-2020 14:25:00 26.2 C 9.35 g/m*3 26.2 C 12.9 km/h
1903 02-06-2020 14:30:00 26.4 C 9.21 g/m*3 26.4 C 17.7 km/h
1904 02-06-2020 14:35:00 26.4 C 9.46 g/m*3 26.4 C 19.3 km/h
1905 02-06-2020 14:40:00 26.5 C 9.01 g/m*3 26.5 C 9.7 km/h
1906 02-06-2020 14:45:00 26.6 C 9.31 g/m*3 26.6 C 14.5 km/h
1907 02-06-2020 14:50:00 26.7 C 8.86 g/m*3 26.7 C 9.7 km/h
1908 02-06-2020 14:55:00 26.8 C 8.91 g/m*3 26.8 C 12.9 km/h
1909 02-06-2020 15:00:00 26.9 C 9.47 g/m*3 26.9 C 4.8 km/h
1910 02-06-2020 15:05:00 27.4 C 9.21 g/m*3 27.4 C 9.7 km/h
1911 02-06-2020 15:10:00 27.8 C 9.15 g/m*3 27.8 C 4.8 km/h
1912 02-06-2020 15:15:00 27.9 C 8.92 g/m*3 27.9 C 6.4 km/h
1913 02-06-2020 15:20:00 27.8 C 8.88 g/m*3 27.8 C 6.4 km/h
1914 02-06-2020 15:25:00 27.9 C 8.92 g/m*3 27.9 C 9.7 km/h
1915 02-06-2020 15:30:00 28 C 8.97 g/m*3 28 C 11.3 km/h
1916 02-06-2020 15:35:00 28.1 C 9.02 g/m*3 28.1 C 12.9 km/h
1917 02-06-2020 15:40:00 28.3 C 9.12 g/m*3 28.3 C 12.9 km/h
1918 02-06-2020 15:45:00 28.3 C 9.12 g/m*3 28.3 C 17.7 km/h
1919 02-06-2020 15:50:00 28.6 C 8.99 g/m*3 28.6 C 8.1 km/h
1920 02-06-2020 15:55:00 28.6 C 8.99 g/m*3 28.6 C 12.9 km/h
1921 02-06-2020 16:00:00 28.7 C 9.04 g/m*3 28.7 C 8.1 km/h
1922 02-06-2020 16:05:00 29 C 8.9 g/m*3 29 C 9.7 km/h
1923 02-06-2020 16:10:00 29.2 C 9 g/m*3 29.2 C 4.8 km/h
1924 02-06-2020 16:15:00 29.2 C 8.71 g/m*3 29.2 C 11.3 km/h
1925 02-06-2020 16:20:00 29.1 C 9.24 g/m*3 29.1 C 9.7 km/h
Sensor: Nr:Datum:Temp:Abs-Feuchte:Windchill:Wind:
Aussen-T/F 1926 02-06-2020 16:25:00 29.1 C 8.66 g/m*3 29.1 C 16.1 km/h
1927 02-06-2020 16:30:00 29.2 C 8.71 g/m*3 29.2 C 9.7 km/h
1928 02-06-2020 16:35:00 29.2 C 8.71 g/m*3 29.2 C 11.3 km/h
1929 02-06-2020 16:40:00 29.3 C 9.05 g/m*3 29.3 C 8.1 km/h
1930 02-06-2020 16:45:00 29.5 C 8.26 g/m*3 29.5 C 9.7 km/h
1931 02-06-2020 16:50:00 29.8 C 9.3 g/m*3 29.8 C 4.8 km/h
1932 02-06-2020 16:55:00 29.9 C 8.45 g/m*3 29.9 C 8.1 km/h
1933 02-06-2020 17:00:00 29.9 C 8.45 g/m*3 29.9 C 9.7 km/h
1934 02-06-2020 17:05:00 30.2 C 8.58 g/m*3 30.2 C 9.7 km/h
1935 02-06-2020 17:10:00 30.3 C 8.01 g/m*3 30.3 C 6.4 km/h
1936 02-06-2020 17:15:00 30.4 C 8.68 g/m*3 30.4 C 6.4 km/h
1937 02-06-2020 17:20:00 30.7 C 9.45 g/m*3 30.7 C 3.2 km/h
1938 02-06-2020 17:25:00 31 C 8.32 g/m*3 31 C 6.4 km/h
1939 02-06-2020 17:30:00 31 C 8.64 g/m*3 31 C 4.8 km/h
1940 02-06-2020 17:35:00 30.8 C 8.23 g/m*3 30.8 C 4.8 km/h
1941 02-06-2020 17:40:00 30.3 C 8.32 g/m*3 30.3 C 6.4 km/h
1942 02-06-2020 17:45:00 29.9 C 8.45 g/m*3 29.9 C 6.4 km/h
1943 02-06-2020 17:50:00 29.8 C 9 g/m*3 29.8 C 6.4 km/h
1944 02-06-2020 17:55:00 29.7 C 8.65 g/m*3 29.7 C 9.7 km/h
1945 02-06-2020 18:00:00 29.4 C 8.51 g/m*3 29.4 C 11.3 km/h
1946 02-06-2020 18:05:00 29.1 C 8.66 g/m*3 29.1 C 6.4 km/h
1947 02-06-2020 18:10:00 28.8 C 8.52 g/m*3 28.8 C 11.3 km/h
1948 02-06-2020 18:15:00 28.8 C 8.81 g/m*3 28.8 C 4.8 km/h
1949 02-06-2020 18:20:00 28.9 C 8.57 g/m*3 28.9 C 8.1 km/h
1950 02-06-2020 18:25:00 29 C 8.62 g/m*3 29 C 8.1 km/h
Sensor: Nr:Datum:Temp:Abs-Feuchte:Windchill:Wind:
Aussen-T/F 1951 02-06-2020 18:30:00 28.9 C 8.28 g/m*3 28.9 C 8.1 km/h
1952 02-06-2020 18:35:00 28.8 C 8.52 g/m*3 28.8 C 6.4 km/h
1953 02-06-2020 18:40:00 28.8 C 8.52 g/m*3 28.8 C 4.8 km/h
1954 02-06-2020 18:45:00 28.6 C 8.43 g/m*3 28.6 C 9.7 km/h
1955 02-06-2020 18:50:00 28.4 C 8.34 g/m*3 28.4 C 4.8 km/h
1956 02-06-2020 18:55:00 28.7 C 8.76 g/m*3 28.7 C 1.6 km/h
1957 02-06-2020 19:00:00 28.8 C 8.52 g/m*3 28.8 C 4.8 km/h
1958 02-06-2020 19:05:00 28.7 C 8.48 g/m*3 28.7 C 8.1 km/h
1959 02-06-2020 19:10:00 28.7 C 8.48 g/m*3 28.7 C 8.1 km/h
1960 02-06-2020 19:15:00 28.6 C 8.43 g/m*3 28.6 C 3.2 km/h
1961 02-06-2020 19:20:00 28.7 C 8.48 g/m*3 28.7 C 3.2 km/h
1962 02-06-2020 19:25:00 28.8 C 9.09 g/m*3 28.8 C 3.2 km/h
1963 02-06-2020 19:30:00 28.8 C 10.51 g/m*3 28.8 C 1.6 km/h
1964 02-06-2020 19:35:00 28.7 C 10.74 g/m*3 28.7 C 4.8 km/h
1965 02-06-2020 19:40:00 28.5 C 10.34 g/m*3 28.5 C 1.6 km/h
1966 02-06-2020 19:45:00 28.2 C 10.72 g/m*3 28.2 C 1.6 km/h
1967 02-06-2020 19:50:00 27.6 C 10.64 g/m*3 27.6 C 3.2 km/h
1968 02-06-2020 19:55:00 26.9 C 10.49 g/m*3 26.9 C 4.8 km/h
1969 02-06-2020 20:00:00 26.3 C 10.4 g/m*3 26.3 C 4.8 km/h
1970 02-06-2020 20:05:00 25.8 C 10.35 g/m*3 25.8 C 4.8 km/h
1971 02-06-2020 20:10:00 25.4 C 10.12 g/m*3 25.4 C 6.4 km/h
1972 02-06-2020 20:15:00 25.1 C 10.19 g/m*3 25.1 C 6.4 km/h
1973 02-06-2020 20:20:00 24.8 C 10.24 g/m*3 24.8 C 6.4 km/h
1974 02-06-2020 20:25:00 24.4 C 10.24 g/m*3 24.4 C 4.8 km/h
1975 02-06-2020 20:30:00 24.2 C 10.12 g/m*3 24.2 C 4.8 km/h
Sensor: Nr:Datum:Temp:Abs-Feuchte:Windchill:Wind:
Aussen-T/F 1976 02-06-2020 20:35:00 23.9 C 9.95 g/m*3 23.9 C 4.8 km/h
1977 02-06-2020 20:40:00 23.7 C 9.84 g/m*3 23.7 C 4.8 km/h
1978 02-06-2020 20:45:00 23.3 C 9.83 g/m*3 23.3 C 6.4 km/h
1979 02-06-2020 20:50:00 23.1 C 9.72 g/m*3 23.1 C 6.4 km/h
1980 02-06-2020 20:55:00 22.8 C 9.75 g/m*3 22.8 C 6.4 km/h
1981 02-06-2020 21:00:00 22.6 C 9.64 g/m*3 22.6 C 6.4 km/h
1982 02-06-2020 21:05:00 22.3 C 9.48 g/m*3 22.3 C 8.1 km/h
1983 02-06-2020 21:10:00 22.2 C 9.42 g/m*3 22.2 C 6.4 km/h
1984 02-06-2020 21:15:00 22 C 9.32 g/m*3 22 C 6.4 km/h
1985 02-06-2020 21:20:00 21.8 C 9.21 g/m*3 21.8 C 6.4 km/h
1986 02-06-2020 21:25:00 21.6 C 9.1 g/m*3 21.6 C 6.4 km/h
1987 02-06-2020 21:30:00 21.4 C 9.19 g/m*3 21.4 C 6.4 km/h
1988 02-06-2020 21:35:00 21.3 C 9.13 g/m*3 21.3 C 6.4 km/h
1989 02-06-2020 21:40:00 21.2 C 9.08 g/m*3 21.2 C 6.4 km/h
1990 02-06-2020 21:45:00 20.9 C 9.11 g/m*3 20.9 C 1.6 km/h
1991 02-06-2020 21:50:00 20.7 C 9.36 g/m*3 20.7 C 1.6 km/h
1992 02-06-2020 21:55:00 20.4 C 9.2 g/m*3 20.4 C 6.4 km/h
1993 02-06-2020 22:00:00 20.2 C 9.09 g/m*3 20.2 C 6.4 km/h
1994 02-06-2020 22:05:00 20.1 C 9.21 g/m*3 20.1 C 1.6 km/h
1995 02-06-2020 22:10:00 19.9 C 9.28 g/m*3 19.9 C 0 km/h
1996 02-06-2020 22:15:00 19.8 C 9.22 g/m*3 19.8 C 3.2 km/h
1997 02-06-2020 22:20:00 19.7 C 9.51 g/m*3 19.7 C 1.6 km/h
1998 02-06-2020 22:25:00 19.4 C 9.51 g/m*3 19.4 C 0 km/h
1999 02-06-2020 22:30:00 19.2 C 9.56 g/m*3 19.2 C 0 km/h
2000 02-06-2020 22:35:00 19 C 9.61 g/m*3 19 C 1.6 km/h
Sensor: Nr:Datum:Temp:Abs-Feuchte:Windchill:Wind:
Aussen-T/F 2001 02-06-2020 22:40:00 18.8 C 9.66 g/m*3 18.8 C 0 km/h
2002 02-06-2020 22:45:00 18.6 C 9.55 g/m*3 18.6 C 0 km/h
2003 02-06-2020 22:50:00 18.4 C 9.44 g/m*3 18.4 C 0 km/h
2004 02-06-2020 22:55:00 18.3 C 9.54 g/m*3 18.3 C 0 km/h
2005 02-06-2020 23:00:00 18.1 C 9.58 g/m*3 18.1 C 0 km/h
2006 02-06-2020 23:05:00 17.9 C 9.47 g/m*3 17.9 C 0 km/h
2007 02-06-2020 23:10:00 17.8 C 9.41 g/m*3 17.8 C 0 km/h
2008 02-06-2020 23:15:00 17.7 C 9.51 g/m*3 17.7 C 0 km/h
2009 02-06-2020 23:20:00 17.6 C 9.45 g/m*3 17.6 C 0 km/h
2010 02-06-2020 23:25:00 17.6 C 9.6 g/m*3 17.6 C 0 km/h
2011 02-06-2020 23:30:00 17.5 C 9.54 g/m*3 17.5 C 0 km/h
2012 02-06-2020 23:35:00 17.5 C 9.54 g/m*3 17.5 C 0 km/h
2013 02-06-2020 23:40:00 17.4 C 9.63 g/m*3 17.4 C 0 km/h
2014 02-06-2020 23:45:00 17.4 C 9.63 g/m*3 17.4 C 0 km/h
2015 02-06-2020 23:50:00 17.4 C 9.63 g/m*3 17.4 C 0 km/h
2016 02-06-2020 23:55:00 17.3 C 9.58 g/m*3 17.3 C 0 km/h
2017 03-06-2020 00:00:00 17.2 C 9.67 g/m*3 17.2 C 0 km/h
2018 03-06-2020 00:05:00 17.1 C 9.61 g/m*3 17.1 C 0 km/h
2019 03-06-2020 00:10:00 16.9 C 9.35 g/m*3 16.9 C 0 km/h
2020 03-06-2020 00:15:00 16.8 C 9.44 g/m*3 16.8 C 0 km/h
2021 03-06-2020 00:20:00 16.6 C 9.32 g/m*3 16.6 C 0 km/h
2022 03-06-2020 00:25:00 16.4 C 9.21 g/m*3 16.4 C 0 km/h
2023 03-06-2020 00:30:00 16.3 C 9.3 g/m*3 16.3 C 0 km/h
2024 03-06-2020 00:35:00 16.2 C 9.38 g/m*3 16.2 C 0 km/h
2025 03-06-2020 00:40:00 16.1 C 9.32 g/m*3 16.1 C 0 km/h
Sensor: Nr:Datum:Temp:Abs-Feuchte:Windchill:Wind:
Aussen-T/F 2026 03-06-2020 00:45:00 15.9 C 9.07 g/m*3 15.9 C 0 km/h
2027 03-06-2020 00:50:00 15.8 C 9.29 g/m*3 15.8 C 0 km/h
2028 03-06-2020 00:55:00 15.7 C 9.23 g/m*3 15.7 C 0 km/h
2029 03-06-2020 01:00:00 15.6 C 9.31 g/m*3 15.6 C 0 km/h
2030 03-06-2020 01:05:00 15.4 C 9.2 g/m*3 15.4 C 1.6 km/h
2031 03-06-2020 01:10:00 15.3 C 9.14 g/m*3 15.3 C 1.6 km/h
2032 03-06-2020 01:15:00 15.3 C 9.14 g/m*3 15.3 C 11.3 km/h
2033 03-06-2020 01:20:00 15.5 C 9.52 g/m*3 15.5 C 3.2 km/h
2034 03-06-2020 01:25:00 15.6 C 9.58 g/m*3 15.6 C 0 km/h
2035 03-06-2020 01:30:00 15.7 C 9.63 g/m*3 15.7 C 0 km/h
2036 03-06-2020 01:35:00 15.7 C 9.63 g/m*3 15.7 C 0 km/h
2037 03-06-2020 01:40:00 15.7 C 9.77 g/m*3 15.7 C 3.2 km/h
2038 03-06-2020 01:45:00 15.8 C 9.83 g/m*3 15.8 C 4.8 km/h
2039 03-06-2020 01:50:00 15.9 C 9.89 g/m*3 15.9 C 3.2 km/h
2040 03-06-2020 01:55:00 15.9 C 9.89 g/m*3 15.9 C 3.2 km/h
2041 03-06-2020 02:00:00 15.9 C 9.89 g/m*3 15.9 C 0 km/h
2042 03-06-2020 02:05:00 15.9 C 9.89 g/m*3 15.9 C 0 km/h
2043 03-06-2020 02:10:00 15.9 C 9.89 g/m*3 15.9 C 4.8 km/h
2044 03-06-2020 02:15:00 15.8 C 9.83 g/m*3 15.8 C 4.8 km/h
2045 03-06-2020 02:20:00 15.8 C 9.83 g/m*3 15.8 C 1.6 km/h
2046 03-06-2020 02:25:00 15.8 C 9.83 g/m*3 15.8 C 0 km/h
2047 03-06-2020 02:30:00 15.7 C 9.9 g/m*3 15.7 C 0 km/h
2048 03-06-2020 02:35:00 15.6 C 9.84 g/m*3 15.6 C 0 km/h
2049 03-06-2020 02:40:00 15.4 C 9.72 g/m*3 15.4 C 0 km/h
2050 03-06-2020 02:45:00 15.2 C 9.73 g/m*3 15.2 C 0 km/h
Sensor: Nr:Datum:Temp:Abs-Feuchte:Windchill:Wind:
Aussen-T/F 2051 03-06-2020 02:50:00 15.1 C 9.8 g/m*3 15.1 C 0 km/h
2052 03-06-2020 02:55:00 14.9 C 9.69 g/m*3 14.9 C 0 km/h
2053 03-06-2020 03:00:00 14.8 C 9.75 g/m*3 14.8 C 0 km/h
2054 03-06-2020 03:05:00 14.7 C 9.82 g/m*3 14.7 C 3.2 km/h
2055 03-06-2020 03:10:00 14.7 C 9.82 g/m*3 14.7 C 0 km/h
2056 03-06-2020 03:15:00 14.7 C 9.82 g/m*3 14.7 C 0 km/h
2057 03-06-2020 03:20:00 14.7 C 9.82 g/m*3 14.7 C 0 km/h
2058 03-06-2020 03:25:00 14.7 C 9.82 g/m*3 14.7 C 0 km/h
2059 03-06-2020 03:30:00 14.6 C 9.76 g/m*3 14.6 C 0 km/h
2060 03-06-2020 03:35:00 14.6 C 9.89 g/m*3 14.6 C 0 km/h
2061 03-06-2020 03:40:00 14.6 C 9.89 g/m*3 14.6 C 0 km/h
2062 03-06-2020 03:45:00 14.5 C 9.83 g/m*3 14.5 C 0 km/h
2063 03-06-2020 03:50:00 14.4 C 9.77 g/m*3 14.4 C 0 km/h
2064 03-06-2020 03:55:00 14.3 C 9.71 g/m*3 14.3 C 0 km/h
2065 03-06-2020 04:00:00 14.2 C 9.77 g/m*3 14.2 C 0 km/h
2066 03-06-2020 04:05:00 14.2 C 9.77 g/m*3 14.2 C 0 km/h
2067 03-06-2020 04:10:00 14.1 C 9.71 g/m*3 14.1 C 0 km/h
2068 03-06-2020 04:15:00 14.1 C 9.83 g/m*3 14.1 C 0 km/h
2069 03-06-2020 04:20:00 14 C 9.77 g/m*3 14 C 0 km/h
2070 03-06-2020 04:25:00 14 C 9.77 g/m*3 14 C 0 km/h
2071 03-06-2020 04:30:00 14 C 9.77 g/m*3 14 C 0 km/h
2072 03-06-2020 04:35:00 14 C 9.77 g/m*3 14 C 0 km/h
2073 03-06-2020 04:40:00 14 C 9.77 g/m*3 14 C 0 km/h
2074 03-06-2020 04:45:00 14.1 C 9.95 g/m*3 14.1 C 0 km/h
2075 03-06-2020 04:50:00 14.1 C 9.95 g/m*3 14.1 C 0 km/h
Sensor: Nr:Datum:Temp:Abs-Feuchte:Windchill:Wind:
Aussen-T/F 2076 03-06-2020 04:55:00 14.1 C 9.95 g/m*3 14.1 C 0 km/h
2077 03-06-2020 05:00:00 14.2 C 10.01 g/m*3 14.2 C 0 km/h
2078 03-06-2020 05:05:00 14.2 C 10.01 g/m*3 14.2 C 0 km/h
2079 03-06-2020 05:10:00 14.2 C 10.01 g/m*3 14.2 C 0 km/h
2080 03-06-2020 05:15:00 14.1 C 9.95 g/m*3 14.1 C 0 km/h
2081 03-06-2020 05:20:00 14.1 C 9.83 g/m*3 14.1 C 0 km/h
2082 03-06-2020 05:25:00 14.1 C 9.83 g/m*3 14.1 C 0 km/h
2083 03-06-2020 05:30:00 14 C 9.77 g/m*3 14 C 1.6 km/h
2084 03-06-2020 05:35:00 13.9 C 9.83 g/m*3 13.9 C 0 km/h
2085 03-06-2020 05:40:00 13.9 C 9.83 g/m*3 13.9 C 0 km/h
2086 03-06-2020 05:45:00 13.8 C 9.65 g/m*3 13.8 C 0 km/h
2087 03-06-2020 05:50:00 13.8 C 9.77 g/m*3 13.8 C 0 km/h
2088 03-06-2020 05:55:00 13.7 C 9.71 g/m*3 13.7 C 0 km/h
2089 03-06-2020 06:00:00 13.7 C 9.71 g/m*3 13.7 C 0 km/h
2090 03-06-2020 06:05:00 13.7 C 9.83 g/m*3 13.7 C 0 km/h
2091 03-06-2020 06:10:00 13.6 C 9.77 g/m*3 13.6 C 0 km/h
2092 03-06-2020 06:15:00 13.6 C 9.77 g/m*3 13.6 C 0 km/h
2093 03-06-2020 06:20:00 13.6 C 9.89 g/m*3 13.6 C 0 km/h
2094 03-06-2020 06:25:00 13.6 C 9.89 g/m*3 13.6 C 0 km/h
2095 03-06-2020 06:30:00 13.6 C 9.89 g/m*3 13.6 C 0 km/h
2096 03-06-2020 06:35:00 13.6 C 9.89 g/m*3 13.6 C 0 km/h
2097 03-06-2020 06:40:00 13.7 C 9.95 g/m*3 13.7 C 0 km/h
2098 03-06-2020 06:45:00 13.7 C 9.95 g/m*3 13.7 C 0 km/h
2099 03-06-2020 06:50:00 13.7 C 10.07 g/m*3 13.7 C 0 km/h
2100 03-06-2020 06:55:00 13.7 C 10.07 g/m*3 13.7 C 0 km/h
Sensor: Nr:Datum:Temp:Abs-Feuchte:Windchill:Wind:
Aussen-T/F 2101 03-06-2020 07:00:00 13.8 C 10.25 g/m*3 13.8 C 0 km/h
2102 03-06-2020 07:05:00 13.8 C 10.13 g/m*3 13.8 C 0 km/h
2103 03-06-2020 07:10:00 13.9 C 10.31 g/m*3 13.9 C 0 km/h
2104 03-06-2020 07:15:00 14 C 10.37 g/m*3 14 C 0 km/h
2105 03-06-2020 07:20:00 14.1 C 10.44 g/m*3 14.1 C 0 km/h
2106 03-06-2020 07:25:00 14.1 C 10.44 g/m*3 14.1 C 0 km/h
2107 03-06-2020 07:30:00 14.2 C 10.5 g/m*3 14.2 C 0 km/h
2108 03-06-2020 07:35:00 14.2 C 10.5 g/m*3 14.2 C 0 km/h
2109 03-06-2020 07:40:00 14.3 C 10.57 g/m*3 14.3 C 0 km/h
2110 03-06-2020 07:45:00 14.5 C 10.7 g/m*3 14.5 C 0 km/h
2111 03-06-2020 07:50:00 14.7 C 10.95 g/m*3 14.7 C 0 km/h
2112 03-06-2020 07:55:00 14.9 C 11.09 g/m*3 14.9 C 0 km/h
2113 03-06-2020 08:00:00 15.1 C 11.09 g/m*3 15.1 C 0 km/h
2114 03-06-2020 08:05:00 15.2 C 11.03 g/m*3 15.2 C 0 km/h
2115 03-06-2020 08:10:00 15.3 C 11.1 g/m*3 15.3 C 0 km/h
2116 03-06-2020 08:15:00 15.4 C 11.17 g/m*3 15.4 C 0 km/h
2117 03-06-2020 08:20:00 15.5 C 11.24 g/m*3 15.5 C 0 km/h
2118 03-06-2020 08:25:00 15.6 C 11.3 g/m*3 15.6 C 0 km/h
2119 03-06-2020 08:30:00 15.7 C 11.11 g/m*3 15.7 C 1.6 km/h
2120 03-06-2020 08:35:00 15.9 C 11.38 g/m*3 15.9 C 0 km/h
2121 03-06-2020 08:40:00 16.1 C 11.38 g/m*3 16.1 C 0 km/h
2122 03-06-2020 08:45:00 16.3 C 11.24 g/m*3 16.3 C 0 km/h
2123 03-06-2020 08:50:00 16.6 C 11.44 g/m*3 16.6 C 1.6 km/h
2124 03-06-2020 08:55:00 16.8 C 11.58 g/m*3 16.8 C 0 km/h
2125 03-06-2020 09:00:00 16.9 C 11.08 g/m*3 16.9 C 0 km/h
Sensor: Nr:Datum:Temp:Abs-Feuchte:Windchill:Wind:
Aussen-T/F 2126 03-06-2020 09:05:00 17.2 C 10.69 g/m*3 17.2 C 3.2 km/h
2127 03-06-2020 09:10:00 17.4 C 10.82 g/m*3 17.4 C 1.6 km/h
2128 03-06-2020 09:15:00 17.8 C 11.54 g/m*3 17.8 C 1.6 km/h
2129 03-06-2020 09:20:00 18 C 11.67 g/m*3 18 C 0 km/h
2130 03-06-2020 09:25:00 18.2 C 11.35 g/m*3 18.2 C 0 km/h
2131 03-06-2020 09:30:00 18.3 C 11.1 g/m*3 18.3 C 0 km/h
2132 03-06-2020 09:35:00 18.5 C 10.6 g/m*3 18.5 C 1.6 km/h
2133 03-06-2020 09:40:00 18.7 C 11.05 g/m*3 18.7 C 0 km/h
2134 03-06-2020 09:45:00 18.9 C 11.18 g/m*3 18.9 C 1.6 km/h
2135 03-06-2020 09:50:00 19.1 C 11.31 g/m*3 19.1 C 1.6 km/h
2136 03-06-2020 09:55:00 19.2 C 11.38 g/m*3 19.2 C 0 km/h
2137 03-06-2020 10:00:00 19.2 C 11.38 g/m*3 19.2 C 0 km/h
2138 03-06-2020 10:05:00 19.3 C 10.95 g/m*3 19.3 C 0 km/h
2139 03-06-2020 10:10:00 19.4 C 10.68 g/m*3 19.4 C 1.6 km/h
2140 03-06-2020 10:15:00 19.7 C 11.21 g/m*3 19.7 C 1.6 km/h
2141 03-06-2020 10:20:00 20 C 10.71 g/m*3 20 C 1.6 km/h
2142 03-06-2020 10:25:00 20.5 C 10.68 g/m*3 20.5 C 1.6 km/h
2143 03-06-2020 10:30:00 20.9 C 10.75 g/m*3 20.9 C 4.8 km/h
2144 03-06-2020 10:35:00 21.3 C 10.62 g/m*3 21.3 C 4.8 km/h
2145 03-06-2020 10:40:00 21.7 C 10.68 g/m*3 21.7 C 3.2 km/h
2146 03-06-2020 10:45:00 22 C 10.29 g/m*3 22 C 1.6 km/h
2147 03-06-2020 10:50:00 22.3 C 10.27 g/m*3 22.3 C 4.8 km/h
2148 03-06-2020 10:55:00 22.4 C 10.13 g/m*3 22.4 C 6.4 km/h
2149 03-06-2020 11:00:00 22.6 C 9.84 g/m*3 22.6 C 1.6 km/h
2150 03-06-2020 11:05:00 22.7 C 9.9 g/m*3 22.7 C 3.2 km/h
Sensor: Nr:Datum:Temp:Abs-Feuchte:Windchill:Wind:
Aussen-T/F 2151 03-06-2020 11:10:00 22.8 C 9.55 g/m*3 22.8 C 3.2 km/h
2152 03-06-2020 11:15:00 22.8 C 9.75 g/m*3 22.8 C 6.4 km/h
2153 03-06-2020 11:20:00 22.9 C 9.81 g/m*3 22.9 C 3.2 km/h
2154 03-06-2020 11:25:00 23.1 C 9.51 g/m*3 23.1 C 8.1 km/h
2155 03-06-2020 11:30:00 23.2 C 9.56 g/m*3 23.2 C 6.4 km/h
2156 03-06-2020 11:35:00 23.3 C 9.83 g/m*3 23.3 C 8.1 km/h
2157 03-06-2020 11:40:00 23.4 C 10.09 g/m*3 23.4 C 3.2 km/h
2158 03-06-2020 11:45:00 23.6 C 9.36 g/m*3 23.6 C 6.4 km/h
2159 03-06-2020 11:50:00 23.7 C 9.63 g/m*3 23.7 C 9.7 km/h
2160 03-06-2020 11:55:00 23.8 C 9.68 g/m*3 23.8 C 6.4 km/h
2161 03-06-2020 12:00:00 23.8 C 9.46 g/m*3 23.8 C 6.4 km/h
2162 03-06-2020 12:05:00 23.9 C 9.3 g/m*3 23.9 C 9.7 km/h
2163 03-06-2020 12:10:00 23.9 C 9.3 g/m*3 23.9 C 3.2 km/h
2164 03-06-2020 12:15:00 24 C 9.36 g/m*3 24 C 3.2 km/h
2165 03-06-2020 12:20:00 24.1 C 9.63 g/m*3 24.1 C 4.8 km/h
2166 03-06-2020 12:25:00 24.1 C 9.63 g/m*3 24.1 C 9.7 km/h
2167 03-06-2020 12:30:00 24.2 C 9.68 g/m*3 24.2 C 6.4 km/h
2168 03-06-2020 12:35:00 24.2 C 9.46 g/m*3 24.2 C 6.4 km/h
2169 03-06-2020 12:40:00 24.4 C 9.57 g/m*3 24.4 C 9.7 km/h
2170 03-06-2020 12:45:00 24.6 C 9.68 g/m*3 24.6 C 11.3 km/h
2171 03-06-2020 12:50:00 24.6 C 9.68 g/m*3 24.6 C 6.4 km/h
2172 03-06-2020 12:55:00 24.8 C 9.33 g/m*3 24.8 C 8.1 km/h
2173 03-06-2020 13:00:00 24.9 C 9.39 g/m*3 24.9 C 8.1 km/h
2174 03-06-2020 13:05:00 25 C 9.44 g/m*3 25 C 9.7 km/h
2175 03-06-2020 13:10:00 25.2 C 9.54 g/m*3 25.2 C 12.9 km/h
Sensor: Nr:Datum:Temp:Abs-Feuchte:Windchill:Wind:
Aussen-T/F 2176 03-06-2020 13:15:00 25.3 C 9.36 g/m*3 25.3 C 8.1 km/h
2177 03-06-2020 13:20:00 25.4 C 9.42 g/m*3 25.4 C 8.1 km/h
2178 03-06-2020 13:25:00 25.7 C 9.58 g/m*3 25.7 C 9.7 km/h
2179 03-06-2020 13:30:00 25.8 C 9.63 g/m*3 25.8 C 8.1 km/h
2180 03-06-2020 13:35:00 25.7 C 9.34 g/m*3 25.7 C 11.3 km/h
2181 03-06-2020 13:40:00 25.6 C 9.05 g/m*3 25.6 C 8.1 km/h
2182 03-06-2020 13:45:00 25.4 C 9.18 g/m*3 25.4 C 9.7 km/h
2183 03-06-2020 13:50:00 25.3 C 9.6 g/m*3 25.3 C 8.1 km/h
2184 03-06-2020 13:55:00 25.3 C 9.36 g/m*3 25.3 C 8.1 km/h
2185 03-06-2020 14:00:00 25.2 C 9.31 g/m*3 25.2 C 8.1 km/h
2186 03-06-2020 14:05:00 25 C 9.44 g/m*3 25 C 9.7 km/h
2187 03-06-2020 14:10:00 24.8 C 9.56 g/m*3 24.8 C 25.7 km/h
2188 03-06-2020 14:15:00 24.4 C 9.79 g/m*3 24.4 C 19.3 km/h
2189 03-06-2020 14:20:00 23.8 C 9.03 g/m*3 23.8 C 22.5 km/h
2190 03-06-2020 14:25:00 23.3 C 9.2 g/m*3 23.3 C 14.5 km/h
2191 03-06-2020 14:30:00 23 C 8.84 g/m*3 23 C 8.1 km/h
2192 03-06-2020 14:35:00 22.9 C 8.79 g/m*3 22.9 C 12.9 km/h
2193 03-06-2020 14:40:00 22.8 C 9.14 g/m*3 22.8 C 12.9 km/h
2194 03-06-2020 14:45:00 22.5 C 9.59 g/m*3 22.5 C 8.1 km/h
2195 03-06-2020 14:50:00 22.4 C 9.93 g/m*3 22.4 C 3.2 km/h
2196 03-06-2020 14:55:00 22.4 C 10.33 g/m*3 22.4 C 3.2 km/h
2197 03-06-2020 15:00:00 22.6 C 10.04 g/m*3 22.6 C 9.7 km/h
2198 03-06-2020 15:05:00 22.9 C 10.83 g/m*3 22.9 C 3.2 km/h
2199 03-06-2020 15:10:00 23.9 C 9.95 g/m*3 23.9 C 6.4 km/h
2200 03-06-2020 15:15:00 24.3 C 9.96 g/m*3 24.3 C 4.8 km/h
Sensor: Nr:Datum:Temp:Abs-Feuchte:Windchill:Wind:
Aussen-T/F 2201 03-06-2020 15:20:00 24.5 C 9.4 g/m*3 24.5 C 12.9 km/h
2202 03-06-2020 15:25:00 24.6 C 9.23 g/m*3 24.6 C 8.1 km/h
2203 03-06-2020 15:30:00 24.4 C 9.57 g/m*3 24.4 C 6.4 km/h
2204 03-06-2020 15:35:00 24.4 C 9.57 g/m*3 24.4 C 3.2 km/h
2205 03-06-2020 15:40:00 24.2 C 9.24 g/m*3 24.2 C 9.7 km/h
2206 03-06-2020 15:45:00 24.2 C 9.24 g/m*3 24.2 C 8.1 km/h
2207 03-06-2020 15:50:00 24.4 C 9.57 g/m*3 24.4 C 6.4 km/h
2208 03-06-2020 15:55:00 25.1 C 9.49 g/m*3 25.1 C 8.1 km/h
2209 03-06-2020 16:00:00 25.7 C 9.34 g/m*3 25.7 C 9.7 km/h
2210 03-06-2020 16:05:00 25.9 C 9.2 g/m*3 25.9 C 8.1 km/h
2211 03-06-2020 16:10:00 26.2 C 9.35 g/m*3 26.2 C 6.4 km/h
2212 03-06-2020 16:15:00 26.4 C 9.21 g/m*3 26.4 C 6.4 km/h
2213 03-06-2020 16:20:00 26.6 C 8.81 g/m*3 26.6 C 4.8 km/h
2214 03-06-2020 16:25:00 26.8 C 9.16 g/m*3 26.8 C 6.4 km/h
2215 03-06-2020 16:30:00 27 C 9.26 g/m*3 27 C 8.1 km/h
2216 03-06-2020 16:35:00 27 C 9.52 g/m*3 27 C 6.4 km/h
2217 03-06-2020 16:40:00 27.1 C 9.32 g/m*3 27.1 C 6.4 km/h
2218 03-06-2020 16:45:00 27.3 C 9.16 g/m*3 27.3 C 6.4 km/h
2219 03-06-2020 16:50:00 27.1 C 9.06 g/m*3 27.1 C 11.3 km/h
2220 03-06-2020 16:55:00 26.9 C 9.21 g/m*3 26.9 C 4.8 km/h
2221 03-06-2020 17:00:00 26.9 C 9.47 g/m*3 26.9 C 8.1 km/h
2222 03-06-2020 17:05:00 26.9 C 9.47 g/m*3 26.9 C 3.2 km/h
2223 03-06-2020 17:10:00 27.1 C 9.58 g/m*3 27.1 C 8.1 km/h
2224 03-06-2020 17:15:00 26.9 C 9.47 g/m*3 26.9 C 9.7 km/h
2225 03-06-2020 17:20:00 27.1 C 9.32 g/m*3 27.1 C 8.1 km/h
Sensor: Nr:Datum:Temp:Abs-Feuchte:Windchill:Wind:
Aussen-T/F 2226 03-06-2020 17:25:00 27.1 C 9.32 g/m*3 27.1 C 8.1 km/h
2227 03-06-2020 17:30:00 27.1 C 9.58 g/m*3 27.1 C 6.4 km/h
2228 03-06-2020 17:35:00 27.3 C 9.68 g/m*3 27.3 C 4.8 km/h
2229 03-06-2020 17:40:00 26.9 C 9.47 g/m*3 26.9 C 9.7 km/h
2230 03-06-2020 17:45:00 26.5 C 9.76 g/m*3 26.5 C 3.2 km/h
2231 03-06-2020 17:50:00 26.3 C 9.65 g/m*3 26.3 C 3.2 km/h
2232 03-06-2020 17:55:00 26.1 C 9.55 g/m*3 26.1 C 6.4 km/h
2233 03-06-2020 18:00:00 25.8 C 9.87 g/m*3 25.8 C 4.8 km/h
2234 03-06-2020 18:05:00 25.7 C 9.58 g/m*3 25.7 C 3.2 km/h
2235 03-06-2020 18:10:00 25.7 C 9.58 g/m*3 25.7 C 6.4 km/h
2236 03-06-2020 18:15:00 25.6 C 9.76 g/m*3 25.6 C 3.2 km/h
2237 03-06-2020 18:20:00 25.4 C 9.65 g/m*3 25.4 C 4.8 km/h
2238 03-06-2020 18:25:00 25.3 C 9.83 g/m*3 25.3 C 0 km/h
2239 03-06-2020 18:30:00 25.3 C 9.6 g/m*3 25.3 C 4.8 km/h
2240 03-06-2020 18:35:00 25.2 C 9.54 g/m*3 25.2 C 6.4 km/h
2241 03-06-2020 18:40:00 25 C 9.21 g/m*3 25 C 8.1 km/h
2242 03-06-2020 18:45:00 24.9 C 9.39 g/m*3 24.9 C 6.4 km/h
2243 03-06-2020 18:50:00 24.9 C 9.39 g/m*3 24.9 C 4.8 km/h
2244 03-06-2020 18:55:00 25.1 C 9.49 g/m*3 25.1 C 4.8 km/h
2245 03-06-2020 19:00:00 25.3 C 9.6 g/m*3 25.3 C 3.2 km/h
2246 03-06-2020 19:05:00 25.3 C 10.07 g/m*3 25.3 C 3.2 km/h
2247 03-06-2020 19:10:00 25.4 C 9.89 g/m*3 25.4 C 8.1 km/h
2248 03-06-2020 19:15:00 25.5 C 9.71 g/m*3 25.5 C 4.8 km/h
2249 03-06-2020 19:20:00 25.8 C 9.87 g/m*3 25.8 C 3.2 km/h
2250 03-06-2020 19:25:00 25.8 C 9.63 g/m*3 25.8 C 6.4 km/h
Sensor: Nr:Datum:Temp:Abs-Feuchte:Windchill:Wind:
Aussen-T/F 2251 03-06-2020 19:30:00 25.8 C 9.87 g/m*3 25.8 C 4.8 km/h
2252 03-06-2020 19:35:00 25.8 C 10.35 g/m*3 25.8 C 1.6 km/h
2253 03-06-2020 19:40:00 25.8 C 11.32 g/m*3 25.8 C 0 km/h
2254 03-06-2020 19:45:00 25.7 C 11.25 g/m*3 25.7 C 1.6 km/h
2255 03-06-2020 19:50:00 25.3 C 9.6 g/m*3 25.3 C 1.6 km/h
2256 03-06-2020 19:55:00 25.1 C 9.72 g/m*3 25.1 C 6.4 km/h
2257 03-06-2020 20:00:00 25.1 C 9.72 g/m*3 25.1 C 4.8 km/h
2258 03-06-2020 20:05:00 24.9 C 9.61 g/m*3 24.9 C 3.2 km/h
2259 03-06-2020 20:10:00 24.8 C 9.79 g/m*3 24.8 C 3.2 km/h
2260 03-06-2020 20:15:00 24.7 C 9.73 g/m*3 24.7 C 4.8 km/h
2261 03-06-2020 20:20:00 24.6 C 9.45 g/m*3 24.6 C 4.8 km/h
2262 03-06-2020 20:25:00 24.3 C 9.52 g/m*3 24.3 C 6.4 km/h
2263 03-06-2020 20:30:00 24.2 C 9.46 g/m*3 24.2 C 3.2 km/h
2264 03-06-2020 20:35:00 24.1 C 9.63 g/m*3 24.1 C 1.6 km/h
2265 03-06-2020 20:40:00 24.1 C 10.06 g/m*3 24.1 C 3.2 km/h
2266 03-06-2020 20:45:00 24 C 10.66 g/m*3 24 C 1.6 km/h
2267 03-06-2020 20:50:00 23.8 C 10.76 g/m*3 23.8 C 1.6 km/h
2268 03-06-2020 20:55:00 23.6 C 10 g/m*3 23.6 C 3.2 km/h
2269 03-06-2020 21:00:00 23.4 C 10.51 g/m*3 23.4 C 1.6 km/h
2270 03-06-2020 21:05:00 23.1 C 10.54 g/m*3 23.1 C 3.2 km/h
2271 03-06-2020 21:10:00 22.5 C 10.59 g/m*3 22.5 C 3.2 km/h
2272 03-06-2020 21:15:00 22 C 10.48 g/m*3 22 C 4.8 km/h
2273 03-06-2020 21:20:00 21.6 C 10.43 g/m*3 21.6 C 4.8 km/h
2274 03-06-2020 21:25:00 21.1 C 10.32 g/m*3 21.1 C 1.6 km/h
2275 03-06-2020 21:30:00 20.7 C 10.26 g/m*3 20.7 C 4.8 km/h
Sensor: Nr:Datum:Temp:Abs-Feuchte:Windchill:Wind:
Aussen-T/F 2276 03-06-2020 21:35:00 20.4 C 10.26 g/m*3 20.4 C 4.8 km/h
2277 03-06-2020 21:40:00 20.1 C 10.08 g/m*3 20.1 C 4.8 km/h
2278 03-06-2020 21:45:00 19.8 C 10.08 g/m*3 19.8 C 6.4 km/h
2279 03-06-2020 21:50:00 19.6 C 10.13 g/m*3 19.6 C 6.4 km/h
2280 03-06-2020 21:55:00 19.4 C 10.01 g/m*3 19.4 C 6.4 km/h
2281 03-06-2020 22:00:00 19.4 C 10.01 g/m*3 19.4 C 6.4 km/h
2282 03-06-2020 22:05:00 19.3 C 10.12 g/m*3 19.3 C 8.1 km/h
2283 03-06-2020 22:10:00 19.2 C 10.06 g/m*3 19.2 C 6.4 km/h
2284 03-06-2020 22:15:00 19.2 C 10.06 g/m*3 19.2 C 6.4 km/h
2285 03-06-2020 22:20:00 19.1 C 10.16 g/m*3 19.1 C 6.4 km/h
2286 03-06-2020 22:25:00 19.1 C 10.16 g/m*3 19.1 C 4.8 km/h
2287 03-06-2020 22:30:00 18.9 C 10.21 g/m*3 18.9 C 4.8 km/h
2288 03-06-2020 22:35:00 18.8 C 10.31 g/m*3 18.8 C 1.6 km/h
2289 03-06-2020 22:40:00 18.7 C 10.41 g/m*3 18.7 C 3.2 km/h
2290 03-06-2020 22:45:00 18.4 C 10.22 g/m*3 18.4 C 1.6 km/h
2291 03-06-2020 22:50:00 18.3 C 10.16 g/m*3 18.3 C 1.6 km/h
2292 03-06-2020 22:55:00 18.1 C 10.35 g/m*3 18.1 C 0 km/h
2293 03-06-2020 23:00:00 17.8 C 10.17 g/m*3 17.8 C 0 km/h
2294 03-06-2020 23:05:00 17.6 C 10.2 g/m*3 17.6 C 3.2 km/h
2295 03-06-2020 23:10:00 17.4 C 10.23 g/m*3 17.4 C 3.2 km/h
2296 03-06-2020 23:15:00 17.3 C 10.16 g/m*3 17.3 C 3.2 km/h
2297 03-06-2020 23:20:00 17.1 C 10.04 g/m*3 17.1 C 0 km/h
2298 03-06-2020 23:25:00 17 C 10.13 g/m*3 17 C 3.2 km/h
2299 03-06-2020 23:30:00 16.9 C 10.07 g/m*3 16.9 C 3.2 km/h
2300 03-06-2020 23:35:00 16.9 C 10.36 g/m*3 16.9 C 1.6 km/h
Sensor: Nr:Datum:Temp:Abs-Feuchte:Windchill:Wind:
Aussen-T/F 2301 03-06-2020 23:40:00 16.9 C 10.36 g/m*3 16.9 C 3.2 km/h
2302 03-06-2020 23:45:00 16.9 C 10.21 g/m*3 16.9 C 4.8 km/h
2303 03-06-2020 23:50:00 17 C 10.42 g/m*3 17 C 1.6 km/h
2304 03-06-2020 23:55:00 17.1 C 10.92 g/m*3 17.1 C 1.6 km/h
2305 04-06-2020 00:00:00 17.4 C 11.26 g/m*3 17.4 C 11.3 km/h
2306 04-06-2020 00:05:00 17.8 C 11.08 g/m*3 17.8 C 6.4 km/h
2307 04-06-2020 00:10:00 18 C 11.06 g/m*3 18 C 4.8 km/h
2308 04-06-2020 00:15:00 18.1 C 11.12 g/m*3 18.1 C 9.7 km/h
2309 04-06-2020 00:20:00 18.3 C 11.26 g/m*3 18.3 C 9.7 km/h
2310 04-06-2020 00:25:00 18.4 C 11.17 g/m*3 18.4 C 6.4 km/h
2311 04-06-2020 00:30:00 18.4 C 11.17 g/m*3 18.4 C 11.3 km/h
2312 04-06-2020 00:35:00 18.4 C 11.17 g/m*3 18.4 C 9.7 km/h
2313 04-06-2020 00:40:00 18.4 C 11.32 g/m*3 18.4 C 6.4 km/h
2314 04-06-2020 00:45:00 18.4 C 11.32 g/m*3 18.4 C 11.3 km/h
2315 04-06-2020 00:50:00 18.4 C 11.32 g/m*3 18.4 C 8.1 km/h
2316 04-06-2020 00:55:00 18.4 C 11.32 g/m*3 18.4 C 8.1 km/h
2317 04-06-2020 01:00:00 18.4 C 11.32 g/m*3 18.4 C 11.3 km/h
2318 04-06-2020 01:05:00 18.4 C 11.48 g/m*3 18.4 C 8.1 km/h
2319 04-06-2020 01:10:00 18.4 C 11.48 g/m*3 18.4 C 8.1 km/h
2320 04-06-2020 01:15:00 18.3 C 11.88 g/m*3 18.3 C 16.1 km/h
2321 04-06-2020 01:20:00 18.1 C 12.05 g/m*3 18.1 C 11.3 km/h
2322 04-06-2020 01:25:00 17.6 C 12.15 g/m*3 17.6 C 9.7 km/h
2323 04-06-2020 01:30:00 17.3 C 12.23 g/m*3 17.3 C 9.7 km/h
2324 04-06-2020 01:35:00 17.1 C 12.23 g/m*3 17.1 C 6.4 km/h
2325 04-06-2020 01:40:00 16.9 C 12.23 g/m*3 16.9 C 12.9 km/h
Sensor: Nr:Datum:Temp:Abs-Feuchte:Windchill:Wind:
Aussen-T/F 2326 04-06-2020 01:45:00 16.7 C 12.22 g/m*3 16.7 C 9.7 km/h
2327 04-06-2020 01:50:00 16.6 C 12.15 g/m*3 16.6 C 8.1 km/h
2328 04-06-2020 01:55:00 16.4 C 12.14 g/m*3 16.4 C 8.1 km/h
2329 04-06-2020 02:00:00 16.3 C 12.21 g/m*3 16.3 C 8.1 km/h
2330 04-06-2020 02:05:00 16.2 C 12.14 g/m*3 16.2 C 6.4 km/h
2331 04-06-2020 02:10:00 16.1 C 12.2 g/m*3 16.1 C 6.4 km/h
2332 04-06-2020 02:15:00 16 C 12.13 g/m*3 16 C 6.4 km/h
2333 04-06-2020 02:20:00 15.9 C 12.05 g/m*3 15.9 C 4.8 km/h
2334 04-06-2020 02:25:00 15.7 C 11.91 g/m*3 15.7 C 8.1 km/h
2335 04-06-2020 02:30:00 15.6 C 11.84 g/m*3 15.6 C 8.1 km/h
2336 04-06-2020 02:35:00 15.4 C 11.82 g/m*3 15.4 C 6.4 km/h
2337 04-06-2020 02:40:00 15.3 C 11.75 g/m*3 15.3 C 8.1 km/h
2338 04-06-2020 02:45:00 15.2 C 11.68 g/m*3 15.2 C 8.1 km/h
2339 04-06-2020 02:50:00 15.1 C 11.74 g/m*3 15.1 C 6.4 km/h
2340 04-06-2020 02:55:00 15 C 11.67 g/m*3 15 C 4.8 km/h
2341 04-06-2020 03:00:00 15 C 11.8 g/m*3 15 C 4.8 km/h
2342 04-06-2020 03:05:00 14.9 C 11.73 g/m*3 14.9 C 1.6 km/h
2343 04-06-2020 03:10:00 14.9 C 11.73 g/m*3 14.9 C 0 km/h
2344 04-06-2020 03:15:00 15 C 11.8 g/m*3 15 C 0 km/h
2345 04-06-2020 03:20:00 14.9 C 11.73 g/m*3 14.9 C 0 km/h
2346 04-06-2020 03:25:00 14.9 C 11.73 g/m*3 14.9 C 1.6 km/h
2347 04-06-2020 03:30:00 14.9 C 11.85 g/m*3 14.9 C 0 km/h
2348 04-06-2020 03:35:00 14.9 C 11.85 g/m*3 14.9 C 0 km/h
2349 04-06-2020 03:40:00 14.9 C 11.85 g/m*3 14.9 C 0 km/h
2350 04-06-2020 03:45:00 14.9 C 11.85 g/m*3 14.9 C 0 km/h
Sensor: Nr:Datum:Temp:Abs-Feuchte:Windchill:Wind:
Aussen-T/F 2351 04-06-2020 03:50:00 14.9 C 11.98 g/m*3 14.9 C 0 km/h
2352 04-06-2020 03:55:00 14.9 C 11.98 g/m*3 14.9 C 0 km/h
2353 04-06-2020 04:00:00 14.9 C 11.98 g/m*3 14.9 C 0 km/h
2354 04-06-2020 04:05:00 14.9 C 11.98 g/m*3 14.9 C 0 km/h
2355 04-06-2020 04:10:00 14.8 C 11.91 g/m*3 14.8 C 0 km/h
2356 04-06-2020 04:15:00 14.8 C 11.91 g/m*3 14.8 C 0 km/h
2357 04-06-2020 04:20:00 14.8 C 11.91 g/m*3 14.8 C 3.2 km/h
2358 04-06-2020 04:25:00 14.8 C 11.91 g/m*3 14.8 C 3.2 km/h
2359 04-06-2020 04:30:00 14.8 C 11.91 g/m*3 14.8 C 3.2 km/h
2360 04-06-2020 04:35:00 14.8 C 11.91 g/m*3 14.8 C 4.8 km/h
2361 04-06-2020 04:40:00 14.7 C 11.83 g/m*3 14.7 C 1.6 km/h
2362 04-06-2020 04:45:00 14.8 C 11.91 g/m*3 14.8 C 0 km/h
2363 04-06-2020 04:50:00 14.7 C 11.83 g/m*3 14.7 C 1.6 km/h
2364 04-06-2020 04:55:00 14.7 C 11.83 g/m*3 14.7 C 0 km/h
2365 04-06-2020 05:00:00 14.7 C 11.83 g/m*3 14.7 C 0 km/h
2366 04-06-2020 05:05:00 14.7 C 11.83 g/m*3 14.7 C 0 km/h
2367 04-06-2020 05:10:00 14.7 C 11.83 g/m*3 14.7 C 1.6 km/h
2368 04-06-2020 05:15:00 14.7 C 11.83 g/m*3 14.7 C 1.6 km/h
2369 04-06-2020 05:20:00 14.6 C 11.76 g/m*3 14.6 C 3.2 km/h
2370 04-06-2020 05:25:00 14.6 C 11.76 g/m*3 14.6 C 0 km/h
2371 04-06-2020 05:30:00 14.6 C 11.76 g/m*3 14.6 C 1.6 km/h
2372 04-06-2020 05:35:00 14.5 C 11.69 g/m*3 14.5 C 0 km/h
2373 04-06-2020 05:40:00 14.4 C 11.62 g/m*3 14.4 C 0 km/h
2374 04-06-2020 05:45:00 14.4 C 11.62 g/m*3 14.4 C 3.2 km/h
2375 04-06-2020 05:50:00 14.3 C 11.55 g/m*3 14.3 C 0 km/h
Sensor: Nr:Datum:Temp:Abs-Feuchte:Windchill:Wind:
Aussen-T/F 2376 04-06-2020 05:55:00 14.3 C 11.67 g/m*3 14.3 C 0 km/h
2377 04-06-2020 06:00:00 14.3 C 11.67 g/m*3 14.3 C 0 km/h
2378 04-06-2020 06:05:00 14.3 C 11.67 g/m*3 14.3 C 0 km/h
2379 04-06-2020 06:10:00 14.3 C 11.67 g/m*3 14.3 C 0 km/h
2380 04-06-2020 06:15:00 14.3 C 11.67 g/m*3 14.3 C 0 km/h
2381 04-06-2020 06:20:00 14.3 C 11.67 g/m*3 14.3 C 0 km/h
2382 04-06-2020 06:25:00 14.3 C 11.67 g/m*3 14.3 C 0 km/h
2383 04-06-2020 06:30:00 14.3 C 11.67 g/m*3 14.3 C 0 km/h
2384 04-06-2020 06:35:00 14.3 C 11.67 g/m*3 14.3 C 0 km/h
2385 04-06-2020 06:40:00 14.3 C 11.67 g/m*3 14.3 C 0 km/h
2386 04-06-2020 06:45:00 14.3 C 11.67 g/m*3 14.3 C 0 km/h
2387 04-06-2020 06:50:00 14.3 C 11.67 g/m*3 14.3 C 0 km/h
2388 04-06-2020 06:55:00 14.3 C 11.67 g/m*3 14.3 C 0 km/h
2389 04-06-2020 07:00:00 14.4 C 11.74 g/m*3 14.4 C 0 km/h
2390 04-06-2020 07:05:00 14.4 C 11.74 g/m*3 14.4 C 0 km/h
2391 04-06-2020 07:10:00 14.4 C 11.74 g/m*3 14.4 C 0 km/h
2392 04-06-2020 07:15:00 14.4 C 11.74 g/m*3 14.4 C 0 km/h
2393 04-06-2020 07:20:00 14.4 C 11.74 g/m*3 14.4 C 0 km/h
2394 04-06-2020 07:25:00 14.4 C 11.74 g/m*3 14.4 C 0 km/h
2395 04-06-2020 07:30:00 14.4 C 11.74 g/m*3 14.4 C 0 km/h
2396 04-06-2020 07:35:00 14.5 C 11.82 g/m*3 14.5 C 0 km/h
2397 04-06-2020 07:40:00 14.5 C 11.82 g/m*3 14.5 C 0 km/h
2398 04-06-2020 07:45:00 14.6 C 12.01 g/m*3 14.6 C 0 km/h
2399 04-06-2020 07:50:00 14.6 C 12.01 g/m*3 14.6 C 0 km/h
2400 04-06-2020 07:55:00 14.6 C 12.01 g/m*3 14.6 C 0 km/h
Sensor: Nr:Datum:Temp:Abs-Feuchte:Windchill:Wind:
Aussen-T/F 2401 04-06-2020 08:00:00 14.6 C 12.01 g/m*3 14.6 C 0 km/h
2402 04-06-2020 08:05:00 14.6 C 12.01 g/m*3 14.6 C 0 km/h
2403 04-06-2020 08:10:00 14.6 C 12.01 g/m*3 14.6 C 0 km/h
2404 04-06-2020 08:15:00 14.6 C 12.01 g/m*3 14.6 C 0 km/h
2405 04-06-2020 08:20:00 14.6 C 12.01 g/m*3 14.6 C 0 km/h
2406 04-06-2020 08:25:00 14.6 C 12.01 g/m*3 14.6 C 0 km/h
2407 04-06-2020 08:30:00 14.6 C 12.01 g/m*3 14.6 C 0 km/h
2408 04-06-2020 08:35:00 14.6 C 12.01 g/m*3 14.6 C 0 km/h
2409 04-06-2020 08:40:00 14.6 C 12.01 g/m*3 14.6 C 0 km/h
2410 04-06-2020 08:45:00 14.7 C 12.09 g/m*3 14.7 C 0 km/h
2411 04-06-2020 08:50:00 14.7 C 12.09 g/m*3 14.7 C 0 km/h
2412 04-06-2020 08:55:00 14.7 C 12.09 g/m*3 14.7 C 0 km/h
2413 04-06-2020 09:00:00 14.7 C 12.09 g/m*3 14.7 C 0 km/h
2414 04-06-2020 09:05:00 14.7 C 12.09 g/m*3 14.7 C 0 km/h
2415 04-06-2020 09:10:00 14.8 C 12.16 g/m*3 14.8 C 0 km/h
2416 04-06-2020 09:15:00 14.9 C 12.24 g/m*3 14.9 C 0 km/h
2417 04-06-2020 09:20:00 14.9 C 12.24 g/m*3 14.9 C 0 km/h
2418 04-06-2020 09:25:00 15 C 12.31 g/m*3 15 C 0 km/h
2419 04-06-2020 09:30:00 15.1 C 12.39 g/m*3 15.1 C 0 km/h
2420 04-06-2020 09:35:00 15.1 C 12.39 g/m*3 15.1 C 0 km/h
2421 04-06-2020 09:40:00 15.1 C 12.39 g/m*3 15.1 C 0 km/h
2422 04-06-2020 09:45:00 15.1 C 12.39 g/m*3 15.1 C 0 km/h
2423 04-06-2020 09:50:00 14.9 C 12.24 g/m*3 14.9 C 0 km/h
2424 04-06-2020 09:55:00 14.9 C 12.24 g/m*3 14.9 C 0 km/h
2425 04-06-2020 10:00:00 14.9 C 12.24 g/m*3 14.9 C 0 km/h
Sensor: Nr:Datum:Temp:Abs-Feuchte:Windchill:Wind:
Aussen-T/F 2426 04-06-2020 10:05:00 14.9 C 12.24 g/m*3 14.9 C 0 km/h
2427 04-06-2020 10:10:00 15 C 12.31 g/m*3 15 C 0 km/h
2428 04-06-2020 10:15:00 15.1 C 12.39 g/m*3 15.1 C 0 km/h
2429 04-06-2020 10:20:00 15.1 C 12.39 g/m*3 15.1 C 3.2 km/h
2430 04-06-2020 10:25:00 14.9 C 12.24 g/m*3 14.9 C 0 km/h
2431 04-06-2020 10:30:00 14.9 C 12.24 g/m*3 14.9 C 0 km/h
2432 04-06-2020 10:35:00 15.1 C 12.39 g/m*3 15.1 C 0 km/h
2433 04-06-2020 10:40:00 15.2 C 12.46 g/m*3 15.2 C 0 km/h
2434 04-06-2020 10:45:00 15.4 C 12.61 g/m*3 15.4 C 0 km/h
2435 04-06-2020 10:50:00 15.5 C 12.69 g/m*3 15.5 C 0 km/h
2436 04-06-2020 10:55:00 15.5 C 12.69 g/m*3 15.5 C 0 km/h
2437 04-06-2020 11:00:00 15.4 C 12.61 g/m*3 15.4 C 0 km/h
2438 04-06-2020 11:05:00 15.4 C 12.61 g/m*3 15.4 C 3.2 km/h
2439 04-06-2020 11:10:00 15.5 C 12.69 g/m*3 15.5 C 3.2 km/h
2440 04-06-2020 11:15:00 15.6 C 12.77 g/m*3 15.6 C 3.2 km/h
2441 04-06-2020 11:20:00 15.7 C 12.84 g/m*3 15.7 C 0 km/h
2442 04-06-2020 11:25:00 15.7 C 12.84 g/m*3 15.7 C 0 km/h
2443 04-06-2020 11:30:00 15.9 C 13.14 g/m*3 15.9 C 0 km/h
2444 04-06-2020 11:35:00 15.9 C 13 g/m*3 15.9 C 0 km/h
2445 04-06-2020 11:40:00 16.1 C 13.16 g/m*3 16.1 C 0 km/h
2446 04-06-2020 11:45:00 16.1 C 13.16 g/m*3 16.1 C 1.6 km/h
2447 04-06-2020 11:50:00 16.2 C 13.24 g/m*3 16.2 C 0 km/h
2448 04-06-2020 11:55:00 16.1 C 13.02 g/m*3 16.1 C 1.6 km/h
2449 04-06-2020 12:00:00 16 C 12.94 g/m*3 16 C 0 km/h
2450 04-06-2020 12:05:00 15.8 C 12.65 g/m*3 15.8 C 4.8 km/h
Sensor: Nr:Datum:Temp:Abs-Feuchte:Windchill:Wind:
Aussen-T/F 2451 04-06-2020 12:10:00 15.5 C 12.29 g/m*3 15.5 C 4.8 km/h
2452 04-06-2020 12:15:00 15.4 C 12.22 g/m*3 15.4 C 4.8 km/h
2453 04-06-2020 12:20:00 15.5 C 12.43 g/m*3 15.5 C 1.6 km/h
2454 04-06-2020 12:25:00 15.5 C 12.43 g/m*3 15.5 C 3.2 km/h
2455 04-06-2020 12:30:00 15.6 C 12.5 g/m*3 15.6 C 1.6 km/h
2456 04-06-2020 12:35:00 15.8 C 12.79 g/m*3 15.8 C 1.6 km/h
2457 04-06-2020 12:40:00 15.9 C 12.87 g/m*3 15.9 C 0 km/h
2458 04-06-2020 12:45:00 16.2 C 13.1 g/m*3 16.2 C 0 km/h
2459 04-06-2020 12:50:00 16.2 C 12.96 g/m*3 16.2 C 1.6 km/h
2460 04-06-2020 12:55:00 16.3 C 13.04 g/m*3 16.3 C 3.2 km/h
2461 04-06-2020 13:00:00 16.2 C 12.55 g/m*3 16.2 C 6.4 km/h
2462 04-06-2020 13:05:00 16.2 C 12.55 g/m*3 16.2 C 3.2 km/h
2463 04-06-2020 13:10:00 16.2 C 12.41 g/m*3 16.2 C 4.8 km/h
2464 04-06-2020 13:15:00 16.3 C 12.35 g/m*3 16.3 C 6.4 km/h
2465 04-06-2020 13:20:00 16.5 C 12.5 g/m*3 16.5 C 3.2 km/h
2466 04-06-2020 13:25:00 16.6 C 12.57 g/m*3 16.6 C 3.2 km/h
2467 04-06-2020 13:30:00 16.7 C 12.65 g/m*3 16.7 C 0 km/h
2468 04-06-2020 13:35:00 16.8 C 13.01 g/m*3 16.8 C 0 km/h
2469 04-06-2020 13:40:00 16.7 C 12.51 g/m*3 16.7 C 9.7 km/h
2470 04-06-2020 13:45:00 16.6 C 12.29 g/m*3 16.6 C 9.7 km/h
2471 04-06-2020 13:50:00 16.2 C 12 g/m*3 16.2 C 12.9 km/h
2472 04-06-2020 13:55:00 16 C 11.99 g/m*3 16 C 6.4 km/h
2473 04-06-2020 14:00:00 15.8 C 11.85 g/m*3 15.8 C 4.8 km/h
2474 04-06-2020 14:05:00 15.6 C 11.97 g/m*3 15.6 C 8.1 km/h
2475 04-06-2020 14:10:00 15.4 C 11.96 g/m*3 15.4 C 0 km/h
Sensor: Nr:Datum:Temp:Abs-Feuchte:Windchill:Wind:
Aussen-T/F 2476 04-06-2020 14:15:00 15.4 C 11.96 g/m*3 15.4 C 0 km/h
2477 04-06-2020 14:20:00 15.4 C 12.09 g/m*3 15.4 C 6.4 km/h
2478 04-06-2020 14:25:00 15.3 C 12.01 g/m*3 15.3 C 1.6 km/h
2479 04-06-2020 14:30:00 15.3 C 12.01 g/m*3 15.3 C 0 km/h
2480 04-06-2020 14:35:00 15.3 C 12.01 g/m*3 15.3 C 6.4 km/h
2481 04-06-2020 14:40:00 15.3 C 12.01 g/m*3 15.3 C 6.4 km/h
2482 04-06-2020 14:45:00 15.2 C 11.94 g/m*3 15.2 C 6.4 km/h
2483 04-06-2020 14:50:00 15.1 C 11.87 g/m*3 15.1 C 4.8 km/h
2484 04-06-2020 14:55:00 15 C 11.67 g/m*3 15 C 8.1 km/h
2485 04-06-2020 15:00:00 15 C 11.67 g/m*3 15 C 6.4 km/h
2486 04-06-2020 15:05:00 15.1 C 12 g/m*3 15.1 C 1.6 km/h
2487 04-06-2020 15:10:00 15.1 C 11.87 g/m*3 15.1 C 4.8 km/h
2488 04-06-2020 15:15:00 15.1 C 11.87 g/m*3 15.1 C 8.1 km/h
2489 04-06-2020 15:20:00 15.1 C 11.87 g/m*3 15.1 C 8.1 km/h
2490 04-06-2020 15:25:00 15.3 C 12.14 g/m*3 15.3 C 3.2 km/h
2491 04-06-2020 15:30:00 15.3 C 12.01 g/m*3 15.3 C 9.7 km/h
2492 04-06-2020 15:35:00 15.2 C 11.94 g/m*3 15.2 C 9.7 km/h
2493 04-06-2020 15:40:00 15.3 C 12.01 g/m*3 15.3 C 6.4 km/h
2494 04-06-2020 15:45:00 15.3 C 12.01 g/m*3 15.3 C 6.4 km/h
2495 04-06-2020 15:50:00 15.3 C 11.88 g/m*3 15.3 C 8.1 km/h
2496 04-06-2020 15:55:00 15.2 C 11.81 g/m*3 15.2 C 12.9 km/h
2497 04-06-2020 16:00:00 15.2 C 11.81 g/m*3 15.2 C 8.1 km/h
2498 04-06-2020 16:05:00 15.2 C 11.68 g/m*3 15.2 C 11.3 km/h
2499 04-06-2020 16:10:00 15.2 C 11.68 g/m*3 15.2 C 9.7 km/h
2500 04-06-2020 16:15:00 15.3 C 11.88 g/m*3 15.3 C 9.7 km/h
Sensor: Nr:Datum:Temp:Abs-Feuchte:Windchill:Wind:
Aussen-T/F 2501 04-06-2020 16:20:00 15.2 C 11.68 g/m*3 15.2 C 6.4 km/h
2502 04-06-2020 16:25:00 15.2 C 11.81 g/m*3 15.2 C 1.6 km/h
2503 04-06-2020 16:30:00 15.1 C 11.74 g/m*3 15.1 C 9.7 km/h
2504 04-06-2020 16:35:00 15 C 11.54 g/m*3 15 C 6.4 km/h
2505 04-06-2020 16:40:00 15 C 11.67 g/m*3 15 C 11.3 km/h
2506 04-06-2020 16:45:00 14.9 C 11.6 g/m*3 14.9 C 3.2 km/h
2507 04-06-2020 16:50:00 14.9 C 11.6 g/m*3 14.9 C 8.1 km/h
2508 04-06-2020 16:55:00 15 C 11.54 g/m*3 15 C 6.4 km/h
2509 04-06-2020 17:00:00 15.1 C 11.74 g/m*3 15.1 C 6.4 km/h
2510 04-06-2020 17:05:00 15 C 11.54 g/m*3 15 C 12.9 km/h
2511 04-06-2020 17:10:00 14.9 C 11.34 g/m*3 14.9 C 14.5 km/h
2512 04-06-2020 17:15:00 14.9 C 11.34 g/m*3 14.9 C 11.3 km/h
2513 04-06-2020 17:20:00 14.8 C 11.27 g/m*3 14.8 C 14.5 km/h
2514 04-06-2020 17:25:00 14.7 C 11.21 g/m*3 14.7 C 11.3 km/h
2515 04-06-2020 17:30:00 14.6 C 11.14 g/m*3 14.6 C 11.3 km/h
2516 04-06-2020 17:35:00 14.5 C 11.07 g/m*3 14.5 C 19.3 km/h
2517 04-06-2020 17:40:00 14.3 C 10.93 g/m*3 14.3 C 6.4 km/h
2518 04-06-2020 17:45:00 14.3 C 10.93 g/m*3 14.3 C 6.4 km/h
2519 04-06-2020 17:50:00 14.2 C 10.87 g/m*3 14.2 C 9.7 km/h
2520 04-06-2020 17:55:00 14.2 C 10.87 g/m*3 14.2 C 16.1 km/h
2521 04-06-2020 18:00:00 14.1 C 10.8 g/m*3 14.1 C 16.1 km/h
2522 04-06-2020 18:05:00 14 C 10.74 g/m*3 14 C 6.4 km/h
2523 04-06-2020 18:10:00 13.9 C 10.67 g/m*3 13.9 C 9.7 km/h
2524 04-06-2020 18:15:00 13.8 C 10.48 g/m*3 13.8 C 11.3 km/h
2525 04-06-2020 18:20:00 13.7 C 10.42 g/m*3 13.7 C 11.3 km/h
Sensor: Nr:Datum:Temp:Abs-Feuchte:Windchill:Wind:
Aussen-T/F 2526 04-06-2020 18:25:00 13.6 C 10.47 g/m*3 13.6 C 4.8 km/h
2527 04-06-2020 18:30:00 13.6 C 10.59 g/m*3 13.6 C 4.8 km/h
2528 04-06-2020 18:35:00 13.5 C 10.53 g/m*3 13.5 C 3.2 km/h
2529 04-06-2020 18:40:00 13.4 C 10.46 g/m*3 13.4 C 1.6 km/h
2530 04-06-2020 18:45:00 13.4 C 10.58 g/m*3 13.4 C 1.6 km/h
2531 04-06-2020 18:50:00 13.4 C 10.58 g/m*3 13.4 C 1.6 km/h
2532 04-06-2020 18:55:00 13.4 C 10.69 g/m*3 13.4 C 0 km/h
2533 04-06-2020 19:00:00 13.4 C 10.69 g/m*3 13.4 C 1.6 km/h
2534 04-06-2020 19:05:00 13.3 C 10.63 g/m*3 13.3 C 4.8 km/h
2535 04-06-2020 19:10:00 13.3 C 10.63 g/m*3 13.3 C 1.6 km/h
2536 04-06-2020 19:15:00 13.2 C 10.56 g/m*3 13.2 C 3.2 km/h
2537 04-06-2020 19:20:00 13.2 C 10.56 g/m*3 13.2 C 3.2 km/h
2538 04-06-2020 19:25:00 13.2 C 10.56 g/m*3 13.2 C 1.6 km/h
2539 04-06-2020 19:30:00 13.2 C 10.68 g/m*3 13.2 C 0 km/h
2540 04-06-2020 19:35:00 13.2 C 10.68 g/m*3 13.2 C 1.6 km/h
2541 04-06-2020 19:40:00 13 C 10.43 g/m*3 13 C 3.2 km/h
2542 04-06-2020 19:45:00 12.9 C 10.48 g/m*3 12.9 C 0 km/h
2543 04-06-2020 19:50:00 12.9 C 10.48 g/m*3 12.9 C 0 km/h
2544 04-06-2020 19:55:00 12.9 C 10.48 g/m*3 12.9 C 0 km/h
2545 04-06-2020 20:00:00 12.9 C 10.48 g/m*3 12.9 C 0 km/h
2546 04-06-2020 20:05:00 12.9 C 10.48 g/m*3 12.9 C 1.6 km/h
2547 04-06-2020 20:10:00 12.9 C 10.48 g/m*3 12.9 C 3.2 km/h
2548 04-06-2020 20:15:00 12.8 C 10.42 g/m*3 12.8 C 4.8 km/h
2549 04-06-2020 20:20:00 12.7 C 10.35 g/m*3 12.7 C 1.6 km/h
2550 04-06-2020 20:25:00 12.7 C 10.35 g/m*3 12.7 C 6.4 km/h
Sensor: Nr:Datum:Temp:Abs-Feuchte:Windchill:Wind:
Aussen-T/F 2551 04-06-2020 20:30:00 12.7 C 10.24 g/m*3 12.7 C 8.1 km/h
2552 04-06-2020 20:35:00 12.7 C 10.24 g/m*3 12.7 C 4.8 km/h
2553 04-06-2020 20:40:00 12.6 C 10.18 g/m*3 12.6 C 4.8 km/h
2554 04-06-2020 20:45:00 12.7 C 10.24 g/m*3 12.7 C 0 km/h
2555 04-06-2020 20:50:00 12.7 C 10.24 g/m*3 12.7 C 4.8 km/h
2556 04-06-2020 20:55:00 12.7 C 10.24 g/m*3 12.7 C 1.6 km/h
2557 04-06-2020 21:00:00 12.7 C 10.24 g/m*3 12.7 C 6.4 km/h
2558 04-06-2020 21:05:00 12.6 C 10.18 g/m*3 12.6 C 3.2 km/h
2559 04-06-2020 21:10:00 12.6 C 10.18 g/m*3 12.6 C 6.4 km/h
2560 04-06-2020 21:15:00 12.5 C 10 g/m*3 12.5 C 11.3 km/h
2561 04-06-2020 21:20:00 12.4 C 9.83 g/m*3 12.4 C 8.1 km/h
2562 04-06-2020 21:25:00 12.4 C 9.94 g/m*3 12.4 C 4.8 km/h
2563 04-06-2020 21:30:00 12.4 C 9.94 g/m*3 12.4 C 6.4 km/h
2564 04-06-2020 21:35:00 12.3 C 9.77 g/m*3 12.3 C 0 km/h
2565 04-06-2020 21:40:00 12.3 C 9.88 g/m*3 12.3 C 4.8 km/h
2566 04-06-2020 21:45:00 12.2 C 9.82 g/m*3 12.2 C 4.8 km/h
2567 04-06-2020 21:50:00 12.2 C 9.82 g/m*3 12.2 C 1.6 km/h
2568 04-06-2020 21:55:00 12.1 C 9.87 g/m*3 12.1 C 3.2 km/h
2569 04-06-2020 22:00:00 12.1 C 9.87 g/m*3 12.1 C 4.8 km/h
2570 04-06-2020 22:05:00 11.9 C 9.74 g/m*3 11.9 C 4.8 km/h
2571 04-06-2020 22:10:00 11.9 C 9.74 g/m*3 11.9 C 1.6 km/h
2572 04-06-2020 22:15:00 11.8 C 9.68 g/m*3 11.8 C 6.4 km/h
2573 04-06-2020 22:20:00 11.8 C 9.68 g/m*3 11.8 C 4.8 km/h
2574 04-06-2020 22:25:00 11.7 C 9.73 g/m*3 11.7 C 4.8 km/h
2575 04-06-2020 22:30:00 11.7 C 9.73 g/m*3 11.7 C 4.8 km/h
Sensor: Nr:Datum:Temp:Abs-Feuchte:Windchill:Wind:
Aussen-T/F 2576 04-06-2020 22:35:00 11.6 C 9.67 g/m*3 11.6 C 4.8 km/h
2577 04-06-2020 22:40:00 11.6 C 9.67 g/m*3 11.6 C 4.8 km/h
2578 04-06-2020 22:45:00 11.5 C 9.61 g/m*3 11.5 C 4.8 km/h
2579 04-06-2020 22:50:00 11.4 C 9.55 g/m*3 11.4 C 6.4 km/h
2580 04-06-2020 22:55:00 11.3 C 9.49 g/m*3 11.3 C 8.1 km/h
2581 04-06-2020 23:00:00 11.3 C 9.49 g/m*3 11.3 C 4.8 km/h
2582 04-06-2020 23:05:00 11.3 C 9.59 g/m*3 11.3 C 4.8 km/h
2583 04-06-2020 23:10:00 11.2 C 9.53 g/m*3 11.2 C 6.4 km/h
2584 04-06-2020 23:15:00 11.2 C 9.53 g/m*3 11.2 C 6.4 km/h
2585 04-06-2020 23:20:00 11.2 C 9.53 g/m*3 11.2 C 6.4 km/h
2586 04-06-2020 23:25:00 11.2 C 9.53 g/m*3 11.2 C 6.4 km/h
2587 04-06-2020 23:30:00 11.1 C 9.47 g/m*3 11.1 C 4.8 km/h
2588 04-06-2020 23:35:00 11.1 C 9.47 g/m*3 11.1 C 4.8 km/h
2589 04-06-2020 23:40:00 11.1 C 9.47 g/m*3 11.1 C 4.8 km/h
2590 04-06-2020 23:45:00 11.1 C 9.47 g/m*3 11.1 C 1.6 km/h
2591 04-06-2020 23:50:00 11.1 C 9.47 g/m*3 11.1 C 3.2 km/h
2592 04-06-2020 23:55:00 11.1 C 9.57 g/m*3 11.1 C 1.6 km/h
2593 05-06-2020 00:00:00 11.1 C 9.57 g/m*3 11.1 C 3.2 km/h
2594 05-06-2020 00:05:00 11.1 C 9.57 g/m*3 11.1 C 3.2 km/h
2595 05-06-2020 00:10:00 11.2 C 9.63 g/m*3 11.2 C 1.6 km/h
2596 05-06-2020 00:15:00 11.2 C 9.63 g/m*3 11.2 C 6.4 km/h
2597 05-06-2020 00:20:00 11.1 C 9.37 g/m*3 11.1 C 11.3 km/h
2598 05-06-2020 00:25:00 11.1 C 9.27 g/m*3 11.1 C 11.3 km/h
2599 05-06-2020 00:30:00 11.2 C 9.33 g/m*3 11.2 C 3.2 km/h
2600 05-06-2020 00:35:00 11.3 C 9.28 g/m*3 11.3 C 6.4 km/h
Sensor: Nr:Datum:Temp:Abs-Feuchte:Windchill:Wind:
Aussen-T/F 2601 05-06-2020 00:40:00 11.3 C 9.28 g/m*3 11.3 C 4.8 km/h
2602 05-06-2020 00:45:00 11.2 C 9.22 g/m*3 11.2 C 1.6 km/h
2603 05-06-2020 00:50:00 11.2 C 9.22 g/m*3 11.2 C 6.4 km/h
2604 05-06-2020 00:55:00 11.2 C 9.22 g/m*3 11.2 C 0 km/h
2605 05-06-2020 01:00:00 11.1 C 9.17 g/m*3 11.1 C 6.4 km/h
2606 05-06-2020 01:05:00 11.2 C 9.22 g/m*3 11.2 C 1.6 km/h
2607 05-06-2020 01:10:00 11.1 C 9.17 g/m*3 11.1 C 4.8 km/h
2608 05-06-2020 01:15:00 11.1 C 9.07 g/m*3 11.1 C 6.4 km/h
2609 05-06-2020 01:20:00 11 C 9.01 g/m*3 11 C 3.2 km/h
2610 05-06-2020 01:25:00 11.1 C 9.17 g/m*3 11.1 C 1.6 km/h
2611 05-06-2020 01:30:00 11.1 C 9.17 g/m*3 11.1 C 1.6 km/h
2612 05-06-2020 01:35:00 11 C 9.11 g/m*3 11 C 3.2 km/h
2613 05-06-2020 01:40:00 11 C 9.01 g/m*3 11 C 4.8 km/h
2614 05-06-2020 01:45:00 11 C 9.01 g/m*3 10.52 C 6.4 km/h
2615 05-06-2020 01:50:00 10.9 C 8.75 g/m*3 9.76 C 9.7 km/h
2616 05-06-2020 01:55:00 11 C 8.71 g/m*3 9.88 C 9.7 km/h
2617 05-06-2020 02:00:00 11.1 C 8.76 g/m*3 11.1 C 11.3 km/h
2618 05-06-2020 02:05:00 11.1 C 8.66 g/m*3 11.1 C 8.1 km/h
2619 05-06-2020 02:10:00 11.1 C 8.66 g/m*3 11.1 C 6.4 km/h
2620 05-06-2020 02:15:00 11.1 C 8.56 g/m*3 11.1 C 11.3 km/h
2621 05-06-2020 02:20:00 11.1 C 8.56 g/m*3 11.1 C 4.8 km/h
2622 05-06-2020 02:25:00 11.1 C 8.56 g/m*3 11.1 C 8.1 km/h
2623 05-06-2020 02:30:00 11.1 C 8.66 g/m*3 11.1 C 1.6 km/h
2624 05-06-2020 02:35:00 11.1 C 8.66 g/m*3 11.1 C 3.2 km/h
2625 05-06-2020 02:40:00 10.9 C 8.55 g/m*3 10.9 C 1.6 km/h
Sensor: Nr:Datum:Temp:Abs-Feuchte:Windchill:Wind:
Aussen-T/F 2626 05-06-2020 02:45:00 10.8 C 8.6 g/m*3 10.29 C 6.4 km/h
2627 05-06-2020 02:50:00 10.8 C 8.6 g/m*3 10.8 C 1.6 km/h
2628 05-06-2020 02:55:00 10.7 C 8.64 g/m*3 10.7 C 1.6 km/h
2629 05-06-2020 03:00:00 10.7 C 8.64 g/m*3 10.7 C 4.8 km/h
2630 05-06-2020 03:05:00 10.6 C 8.59 g/m*3 10.6 C 1.6 km/h
2631 05-06-2020 03:10:00 10.6 C 8.69 g/m*3 10.6 C 1.6 km/h
2632 05-06-2020 03:15:00 10.5 C 8.53 g/m*3 10.5 C 0 km/h
2633 05-06-2020 03:20:00 10.5 C 8.53 g/m*3 10.5 C 0 km/h
2634 05-06-2020 03:25:00 10.4 C 8.48 g/m*3 10.4 C 1.6 km/h
2635 05-06-2020 03:30:00 10.4 C 8.48 g/m*3 10.4 C 3.2 km/h
2636 05-06-2020 03:35:00 10.5 C 8.53 g/m*3 10.5 C 4.8 km/h
2637 05-06-2020 03:40:00 10.5 C 8.44 g/m*3 10.5 C 1.6 km/h
2638 05-06-2020 03:45:00 10.5 C 8.44 g/m*3 10.5 C 1.6 km/h
2639 05-06-2020 03:50:00 10.6 C 8.49 g/m*3 10.6 C 1.6 km/h
2640 05-06-2020 03:55:00 10.6 C 8.59 g/m*3 10.6 C 1.6 km/h
2641 05-06-2020 04:00:00 10.4 C 8.48 g/m*3 10.4 C 1.6 km/h
2642 05-06-2020 04:05:00 10.3 C 8.43 g/m*3 10.3 C 3.2 km/h
2643 05-06-2020 04:10:00 10.1 C 8.32 g/m*3 10.1 C 3.2 km/h
2644 05-06-2020 04:15:00 9.8 C 8.26 g/m*3 9.14 C 6.4 km/h
2645 05-06-2020 04:20:00 9.6 C 8.15 g/m*3 9.6 C 4.8 km/h
2646 05-06-2020 04:25:00 9.4 C 8.05 g/m*3 9.4 C 4.8 km/h
2647 05-06-2020 04:30:00 9.3 C 8.09 g/m*3 9.3 C 0 km/h
2648 05-06-2020 04:35:00 9.2 C 8.13 g/m*3 9.2 C 4.8 km/h
2649 05-06-2020 04:40:00 9.1 C 8.07 g/m*3 9.1 C 4.8 km/h
2650 05-06-2020 04:45:00 8.9 C 7.97 g/m*3 8.9 C 4.8 km/h
Sensor: Nr:Datum:Temp:Abs-Feuchte:Windchill:Wind:
Aussen-T/F 2651 05-06-2020 04:50:00 8.9 C 7.97 g/m*3 8.9 C 1.6 km/h
2652 05-06-2020 04:55:00 8.8 C 8.01 g/m*3 8.8 C 1.6 km/h
2653 05-06-2020 05:00:00 8.8 C 8.01 g/m*3 8.8 C 3.2 km/h
2654 05-06-2020 05:05:00 8.8 C 8.09 g/m*3 8.8 C 1.6 km/h
2655 05-06-2020 05:10:00 8.8 C 8.09 g/m*3 8.8 C 3.2 km/h
2656 05-06-2020 05:15:00 8.8 C 8.09 g/m*3 8.8 C 3.2 km/h
2657 05-06-2020 05:20:00 8.8 C 8.09 g/m*3 8.8 C 3.2 km/h
2658 05-06-2020 05:25:00 8.9 C 8.15 g/m*3 8.9 C 1.6 km/h
2659 05-06-2020 05:30:00 8.9 C 8.15 g/m*3 8.9 C 0 km/h
2660 05-06-2020 05:35:00 9 C 8.2 g/m*3 9 C 0 km/h
2661 05-06-2020 05:40:00 9 C 8.2 g/m*3 9 C 0 km/h
2662 05-06-2020 05:45:00 9.1 C 8.34 g/m*3 9.1 C 0 km/h
2663 05-06-2020 05:50:00 9.1 C 8.34 g/m*3 9.1 C 0 km/h
2664 05-06-2020 05:55:00 9.1 C 8.34 g/m*3 9.1 C 0 km/h
2665 05-06-2020 06:00:00 9.1 C 8.34 g/m*3 9.1 C 0 km/h
2666 05-06-2020 06:05:00 9.1 C 8.34 g/m*3 9.1 C 1.6 km/h
2667 05-06-2020 06:10:00 9.2 C 8.39 g/m*3 9.2 C 3.2 km/h
2668 05-06-2020 06:15:00 9.2 C 8.3 g/m*3 9.2 C 1.6 km/h
2669 05-06-2020 06:20:00 9.3 C 8.36 g/m*3 9.3 C 0 km/h
2670 05-06-2020 06:25:00 9.3 C 8.36 g/m*3 9.3 C 1.6 km/h
2671 05-06-2020 06:30:00 9.4 C 8.41 g/m*3 9.4 C 4.8 km/h
2672 05-06-2020 06:35:00 9.5 C 8.37 g/m*3 9.5 C 4.8 km/h
2673 05-06-2020 06:40:00 9.5 C 8.37 g/m*3 8.79 C 6.4 km/h
2674 05-06-2020 06:45:00 9.6 C 8.43 g/m*3 9.6 C 3.2 km/h
2675 05-06-2020 06:50:00 9.6 C 8.34 g/m*3 9.6 C 3.2 km/h
Sensor: Nr:Datum:Temp:Abs-Feuchte:Windchill:Wind:
Aussen-T/F 2676 05-06-2020 06:55:00 9.7 C 8.39 g/m*3 9.7 C 1.6 km/h
2677 05-06-2020 07:00:00 9.7 C 8.39 g/m*3 9.7 C 3.2 km/h
2678 05-06-2020 07:05:00 9.7 C 8.39 g/m*3 9.7 C 3.2 km/h
2679 05-06-2020 07:10:00 9.8 C 8.44 g/m*3 9.8 C 1.6 km/h
2680 05-06-2020 07:15:00 9.8 C 8.35 g/m*3 9.8 C 1.6 km/h
2681 05-06-2020 07:20:00 9.9 C 8.5 g/m*3 9.9 C 1.6 km/h
2682 05-06-2020 07:25:00 10 C 8.46 g/m*3 10 C 4.8 km/h
2683 05-06-2020 07:30:00 10.1 C 8.51 g/m*3 10.1 C 4.8 km/h
2684 05-06-2020 07:35:00 10.3 C 8.52 g/m*3 9.04 C 9.7 km/h
2685 05-06-2020 07:40:00 10.4 C 8.58 g/m*3 9.16 C 9.7 km/h
2686 05-06-2020 07:45:00 10.6 C 8.59 g/m*3 9.69 C 8.1 km/h
2687 05-06-2020 07:50:00 10.7 C 8.64 g/m*3 9.52 C 9.7 km/h
2688 05-06-2020 07:55:00 10.7 C 8.64 g/m*3 10.7 C 3.2 km/h
2689 05-06-2020 08:00:00 10.7 C 8.55 g/m*3 10.7 C 4.8 km/h
2690 05-06-2020 08:05:00 10.7 C 8.64 g/m*3 10.7 C 1.6 km/h
2691 05-06-2020 08:10:00 10.7 C 8.55 g/m*3 9.81 C 8.1 km/h
2692 05-06-2020 08:15:00 10.7 C 8.55 g/m*3 9.26 C 11.3 km/h
2693 05-06-2020 08:20:00 10.7 C 8.55 g/m*3 10.18 C 6.4 km/h
2694 05-06-2020 08:25:00 10.6 C 8.49 g/m*3 9.69 C 8.1 km/h
2695 05-06-2020 08:30:00 10.7 C 8.55 g/m*3 10.7 C 3.2 km/h
2696 05-06-2020 08:35:00 10.7 C 8.64 g/m*3 10.7 C 1.6 km/h
2697 05-06-2020 08:40:00 10.8 C 8.7 g/m*3 10.8 C 4.8 km/h
2698 05-06-2020 08:45:00 10.8 C 8.6 g/m*3 9.93 C 8.1 km/h
2699 05-06-2020 08:50:00 11 C 8.71 g/m*3 9.88 C 9.7 km/h
2700 05-06-2020 08:55:00 11.2 C 8.82 g/m*3 11.2 C 9.7 km/h
Sensor: Nr:Datum:Temp:Abs-Feuchte:Windchill:Wind:
Aussen-T/F 2701 05-06-2020 09:00:00 11.3 C 8.87 g/m*3 11.3 C 9.7 km/h
2702 05-06-2020 09:05:00 11.4 C 8.93 g/m*3 11.4 C 6.4 km/h
2703 05-06-2020 09:10:00 11.6 C 8.94 g/m*3 11.6 C 9.7 km/h
2704 05-06-2020 09:15:00 11.6 C 8.83 g/m*3 11.6 C 9.7 km/h
2705 05-06-2020 09:20:00 11.6 C 8.73 g/m*3 11.6 C 8.1 km/h
2706 05-06-2020 09:25:00 11.7 C 8.68 g/m*3 11.7 C 9.7 km/h
2707 05-06-2020 09:30:00 11.8 C 8.84 g/m*3 11.8 C 11.3 km/h
2708 05-06-2020 09:35:00 11.8 C 8.74 g/m*3 11.8 C 11.3 km/h
2709 05-06-2020 09:40:00 11.9 C 8.79 g/m*3 11.9 C 9.7 km/h
2710 05-06-2020 09:45:00 12 C 8.85 g/m*3 12 C 12.9 km/h
2711 05-06-2020 09:50:00 12.1 C 9.01 g/m*3 12.1 C 6.4 km/h
2712 05-06-2020 09:55:00 12.1 C 8.79 g/m*3 12.1 C 6.4 km/h
2713 05-06-2020 10:00:00 12.1 C 8.79 g/m*3 12.1 C 9.7 km/h
2714 05-06-2020 10:05:00 12.2 C 8.85 g/m*3 12.2 C 6.4 km/h
2715 05-06-2020 10:10:00 12.2 C 8.85 g/m*3 12.2 C 6.4 km/h
2716 05-06-2020 10:15:00 12.3 C 8.9 g/m*3 12.3 C 4.8 km/h
2717 05-06-2020 10:20:00 12.4 C 8.85 g/m*3 12.4 C 8.1 km/h
2718 05-06-2020 10:25:00 12.5 C 8.91 g/m*3 12.5 C 8.1 km/h
2719 05-06-2020 10:30:00 12.7 C 9.02 g/m*3 12.7 C 12.9 km/h
2720 05-06-2020 10:35:00 12.8 C 8.96 g/m*3 12.8 C 4.8 km/h
2721 05-06-2020 10:40:00 12.9 C 9.02 g/m*3 12.9 C 6.4 km/h
2722 05-06-2020 10:45:00 13.2 C 9.19 g/m*3 13.2 C 8.1 km/h
2723 05-06-2020 10:50:00 13.4 C 9.18 g/m*3 13.4 C 11.3 km/h
2724 05-06-2020 10:55:00 13.7 C 9.12 g/m*3 13.7 C 11.3 km/h
2725 05-06-2020 11:00:00 14.1 C 9.22 g/m*3 14.1 C 12.9 km/h
Sensor: Nr:Datum:Temp:Abs-Feuchte:Windchill:Wind:
Aussen-T/F 2726 05-06-2020 11:05:00 14.3 C 9.09 g/m*3 14.3 C 12.9 km/h
2727 05-06-2020 11:10:00 14.6 C 9.13 g/m*3 14.6 C 12.9 km/h
2728 05-06-2020 11:15:00 14.4 C 8.78 g/m*3 14.4 C 20.9 km/h
2729 05-06-2020 11:20:00 14.1 C 8.62 g/m*3 14.1 C 17.7 km/h
2730 05-06-2020 11:25:00 13.8 C 8.7 g/m*3 13.8 C 16.1 km/h
2731 05-06-2020 11:30:00 13.8 C 8.7 g/m*3 13.8 C 11.3 km/h
2732 05-06-2020 11:35:00 13.7 C 8.64 g/m*3 13.7 C 14.5 km/h
2733 05-06-2020 11:40:00 13.7 C 8.76 g/m*3 13.7 C 17.7 km/h
2734 05-06-2020 11:45:00 13.6 C 8.59 g/m*3 13.6 C 9.7 km/h
2735 05-06-2020 11:50:00 13.6 C 8.59 g/m*3 13.6 C 9.7 km/h
2736 05-06-2020 11:55:00 13.5 C 8.66 g/m*3 13.5 C 9.7 km/h
2737 05-06-2020 12:00:00 13.6 C 8.59 g/m*3 13.6 C 12.9 km/h
2738 05-06-2020 12:05:00 13.8 C 8.94 g/m*3 13.8 C 8.1 km/h
2739 05-06-2020 12:10:00 14.1 C 8.74 g/m*3 14.1 C 12.9 km/h
2740 05-06-2020 12:15:00 14.3 C 8.85 g/m*3 14.3 C 8.1 km/h
2741 05-06-2020 12:20:00 14.4 C 8.78 g/m*3 14.4 C 6.4 km/h
2742 05-06-2020 12:25:00 14.6 C 9.01 g/m*3 14.6 C 6.4 km/h
2743 05-06-2020 12:30:00 14.6 C 8.76 g/m*3 14.6 C 14.5 km/h
2744 05-06-2020 12:35:00 14.5 C 8.71 g/m*3 14.5 C 9.7 km/h
2745 05-06-2020 12:40:00 14.5 C 8.83 g/m*3 14.5 C 14.5 km/h
2746 05-06-2020 12:45:00 14.7 C 8.81 g/m*3 14.7 C 12.9 km/h
2747 05-06-2020 12:50:00 14.8 C 8.74 g/m*3 14.8 C 14.5 km/h
2748 05-06-2020 12:55:00 14.9 C 8.79 g/m*3 14.9 C 17.7 km/h
2749 05-06-2020 13:00:00 14.9 C 8.79 g/m*3 14.9 C 16.1 km/h
2750 05-06-2020 13:05:00 14.8 C 8.74 g/m*3 14.8 C 9.7 km/h
Sensor: Nr:Datum:Temp:Abs-Feuchte:Windchill:Wind:
Aussen-T/F 2751 05-06-2020 13:10:00 14.5 C 8.58 g/m*3 14.5 C 11.3 km/h
2752 05-06-2020 13:15:00 14.2 C 8.43 g/m*3 14.2 C 17.7 km/h
2753 05-06-2020 13:20:00 14.1 C 8.5 g/m*3 14.1 C 12.9 km/h
2754 05-06-2020 13:25:00 13.9 C 8.51 g/m*3 13.9 C 12.9 km/h
2755 05-06-2020 13:30:00 13.8 C 8.34 g/m*3 13.8 C 20.9 km/h
2756 05-06-2020 13:35:00 13.9 C 8.63 g/m*3 13.9 C 14.5 km/h
2757 05-06-2020 13:40:00 13.9 C 8.75 g/m*3 13.9 C 14.5 km/h
2758 05-06-2020 13:45:00 13.9 C 8.75 g/m*3 13.9 C 12.9 km/h
2759 05-06-2020 13:50:00 14 C 8.81 g/m*3 14 C 12.9 km/h
2760 05-06-2020 13:55:00 14.2 C 9.04 g/m*3 14.2 C 11.3 km/h
2761 05-06-2020 14:00:00 14.2 C 8.91 g/m*3 14.2 C 22.5 km/h
2762 05-06-2020 14:05:00 14.2 C 8.79 g/m*3 14.2 C 24.1 km/h
2763 05-06-2020 14:10:00 14.2 C 9.04 g/m*3 14.2 C 16.1 km/h
2764 05-06-2020 14:15:00 14.1 C 9.1 g/m*3 14.1 C 16.1 km/h
2765 05-06-2020 14:20:00 13.9 C 9.35 g/m*3 13.9 C 12.9 km/h
2766 05-06-2020 14:25:00 13.7 C 9.24 g/m*3 13.7 C 16.1 km/h
2767 05-06-2020 14:30:00 13.6 C 9.3 g/m*3 13.6 C 11.3 km/h
2768 05-06-2020 14:35:00 13.5 C 9.36 g/m*3 13.5 C 14.5 km/h
2769 05-06-2020 14:40:00 13.4 C 9.53 g/m*3 13.4 C 9.7 km/h
2770 05-06-2020 14:45:00 13.3 C 9.59 g/m*3 13.3 C 8.1 km/h
2771 05-06-2020 14:50:00 13.2 C 9.64 g/m*3 13.2 C 4.8 km/h
2772 05-06-2020 14:55:00 13.2 C 9.64 g/m*3 13.2 C 4.8 km/h
2773 05-06-2020 15:00:00 13.2 C 9.87 g/m*3 13.2 C 12.9 km/h
2774 05-06-2020 15:05:00 13.3 C 9.94 g/m*3 13.3 C 6.4 km/h
2775 05-06-2020 15:10:00 13.4 C 10.11 g/m*3 13.4 C 12.9 km/h
Sensor: Nr:Datum:Temp:Abs-Feuchte:Windchill:Wind:
Aussen-T/F 2776 05-06-2020 15:15:00 13.6 C 10.12 g/m*3 13.6 C 8.1 km/h
2777 05-06-2020 15:20:00 13.7 C 10.3 g/m*3 13.7 C 6.4 km/h
2778 05-06-2020 15:25:00 13.8 C 10.13 g/m*3 13.8 C 9.7 km/h
2779 05-06-2020 15:30:00 13.9 C 10.31 g/m*3 13.9 C 14.5 km/h
2780 05-06-2020 15:35:00 14 C 10.13 g/m*3 14 C 14.5 km/h
2781 05-06-2020 15:40:00 14.1 C 10.32 g/m*3 14.1 C 4.8 km/h
2782 05-06-2020 15:45:00 14 C 10.01 g/m*3 14 C 17.7 km/h
2783 05-06-2020 15:50:00 13.9 C 10.07 g/m*3 13.9 C 14.5 km/h
2784 05-06-2020 15:55:00 13.8 C 10.01 g/m*3 13.8 C 11.3 km/h
2785 05-06-2020 16:00:00 13.7 C 9.95 g/m*3 13.7 C 14.5 km/h
2786 05-06-2020 16:05:00 13.7 C 10.07 g/m*3 13.7 C 17.7 km/h
2787 05-06-2020 16:10:00 13.7 C 10.07 g/m*3 13.7 C 19.3 km/h
2788 05-06-2020 16:15:00 13.4 C 10 g/m*3 13.4 C 19.3 km/h
2789 05-06-2020 16:20:00 13.1 C 9.93 g/m*3 13.1 C 27.4 km/h
2790 05-06-2020 16:25:00 12.8 C 9.97 g/m*3 12.8 C 20.9 km/h
2791 05-06-2020 16:30:00 12.5 C 10 g/m*3 12.5 C 14.5 km/h
2792 05-06-2020 16:35:00 12.2 C 9.71 g/m*3 12.2 C 20.9 km/h
2793 05-06-2020 16:40:00 11.9 C 9.64 g/m*3 11.9 C 11.3 km/h
2794 05-06-2020 16:45:00 11.7 C 9.52 g/m*3 11.7 C 11.3 km/h
2795 05-06-2020 16:50:00 11.4 C 9.34 g/m*3 11.4 C 12.9 km/h
2796 05-06-2020 16:55:00 11.3 C 9.28 g/m*3 11.3 C 12.9 km/h
2797 05-06-2020 17:00:00 11.2 C 9.33 g/m*3 11.2 C 12.9 km/h
2798 05-06-2020 17:05:00 11.2 C 9.33 g/m*3 11.2 C 12.9 km/h
2799 05-06-2020 17:10:00 11.2 C 9.43 g/m*3 11.2 C 8.1 km/h
2800 05-06-2020 17:15:00 11.3 C 9.49 g/m*3 11.3 C 6.4 km/h
Sensor: Nr:Datum:Temp:Abs-Feuchte:Windchill:Wind:
Aussen-T/F 2801 05-06-2020 17:20:00 12.2 C 10.25 g/m*3 12.2 C 8.1 km/h
2802 05-06-2020 17:25:00 13.1 C 10.95 g/m*3 13.1 C 8.1 km/h
2803 05-06-2020 17:30:00 12.9 C 10.26 g/m*3 12.9 C 14.5 km/h
2804 05-06-2020 17:35:00 12.8 C 10.08 g/m*3 12.8 C 11.3 km/h
2805 05-06-2020 17:40:00 12.8 C 10.19 g/m*3 12.8 C 6.4 km/h
2806 05-06-2020 17:45:00 12.6 C 9.85 g/m*3 12.6 C 9.7 km/h
2807 05-06-2020 17:50:00 12.6 C 9.85 g/m*3 12.6 C 9.7 km/h
2808 05-06-2020 17:55:00 12.6 C 9.96 g/m*3 12.6 C 9.7 km/h
2809 05-06-2020 18:00:00 12.4 C 9.72 g/m*3 12.4 C 17.7 km/h
2810 05-06-2020 18:05:00 12.2 C 9.17 g/m*3 12.2 C 19.3 km/h
2811 05-06-2020 18:10:00 12.1 C 9.33 g/m*3 12.1 C 4.8 km/h
2812 05-06-2020 18:15:00 11.9 C 9.43 g/m*3 11.9 C 4.8 km/h
2813 05-06-2020 18:20:00 11.8 C 9.37 g/m*3 11.8 C 14.5 km/h
2814 05-06-2020 18:25:00 11.4 C 9.03 g/m*3 11.4 C 14.5 km/h
2815 05-06-2020 18:30:00 11.2 C 9.12 g/m*3 11.2 C 6.4 km/h
2816 05-06-2020 18:35:00 11.1 C 9.17 g/m*3 11.1 C 9.7 km/h
2817 05-06-2020 18:40:00 11.1 C 9.17 g/m*3 11.1 C 9.7 km/h
2818 05-06-2020 18:45:00 11.1 C 9.17 g/m*3 11.1 C 11.3 km/h
2819 05-06-2020 18:50:00 11 C 9.11 g/m*3 8.86 C 17.7 km/h
2820 05-06-2020 18:55:00 11 C 9.11 g/m*3 9.88 C 9.7 km/h
2821 05-06-2020 19:00:00 11.1 C 9.27 g/m*3 11.1 C 8.1 km/h
2822 05-06-2020 19:05:00 11.2 C 9.33 g/m*3 11.2 C 8.1 km/h
2823 05-06-2020 19:10:00 11.2 C 9.33 g/m*3 11.2 C 9.7 km/h
2824 05-06-2020 19:15:00 11.2 C 9.33 g/m*3 11.2 C 4.8 km/h
2825 05-06-2020 19:20:00 11.3 C 9.49 g/m*3 11.3 C 4.8 km/h
Sensor: Nr:Datum:Temp:Abs-Feuchte:Windchill:Wind:
Aussen-T/F 2826 05-06-2020 19:25:00 11.6 C 9.77 g/m*3 11.6 C 4.8 km/h
2827 05-06-2020 19:30:00 11.8 C 9.79 g/m*3 11.8 C 11.3 km/h
2828 05-06-2020 19:35:00 11.7 C 9.31 g/m*3 11.7 C 11.3 km/h
2829 05-06-2020 19:40:00 11.7 C 8.99 g/m*3 11.7 C 14.5 km/h
2830 05-06-2020 19:45:00 11.7 C 8.99 g/m*3 11.7 C 11.3 km/h
2831 05-06-2020 19:50:00 11.7 C 9.1 g/m*3 11.7 C 6.4 km/h
2832 05-06-2020 19:55:00 11.7 C 9.2 g/m*3 11.7 C 4.8 km/h
2833 05-06-2020 20:00:00 11.6 C 9.15 g/m*3 11.6 C 9.7 km/h
2834 05-06-2020 20:05:00 11.7 C 9.41 g/m*3 11.7 C 1.6 km/h
2835 05-06-2020 20:10:00 11.8 C 9.16 g/m*3 11.8 C 8.1 km/h
2836 05-06-2020 20:15:00 11.6 C 8.94 g/m*3 11.6 C 11.3 km/h
2837 05-06-2020 20:20:00 11.4 C 8.72 g/m*3 11.4 C 8.1 km/h
2838 05-06-2020 20:25:00 11.2 C 8.72 g/m*3 11.2 C 9.7 km/h
2839 05-06-2020 20:30:00 11.2 C 8.92 g/m*3 11.2 C 8.1 km/h
2840 05-06-2020 20:35:00 11 C 8.71 g/m*3 10.52 C 6.4 km/h
2841 05-06-2020 20:40:00 10.9 C 8.75 g/m*3 10.41 C 6.4 km/h
2842 05-06-2020 20:45:00 10.8 C 8.7 g/m*3 10.29 C 6.4 km/h
2843 05-06-2020 20:50:00 10.8 C 8.8 g/m*3 10.8 C 4.8 km/h
2844 05-06-2020 20:55:00 10.7 C 8.74 g/m*3 10.18 C 6.4 km/h
2845 05-06-2020 21:00:00 10.6 C 8.69 g/m*3 10.06 C 6.4 km/h
2846 05-06-2020 21:05:00 10.5 C 8.63 g/m*3 9.28 C 9.7 km/h
2847 05-06-2020 21:10:00 10.4 C 8.58 g/m*3 9.83 C 6.4 km/h
2848 05-06-2020 21:15:00 10.4 C 8.48 g/m*3 9.46 C 8.1 km/h
2849 05-06-2020 21:20:00 10.5 C 8.63 g/m*3 9.95 C 6.4 km/h
2850 05-06-2020 21:25:00 10.4 C 8.48 g/m*3 9.46 C 8.1 km/h
Sensor: Nr:Datum:Temp:Abs-Feuchte:Windchill:Wind:
Aussen-T/F 2851 05-06-2020 21:30:00 10.4 C 8.48 g/m*3 9.16 C 9.7 km/h
2852 05-06-2020 21:35:00 10.4 C 8.48 g/m*3 8.67 C 12.9 km/h
2853 05-06-2020 21:40:00 10.3 C 8.43 g/m*3 9.04 C 9.7 km/h
2854 05-06-2020 21:45:00 10.3 C 8.33 g/m*3 8.55 C 12.9 km/h
2855 05-06-2020 21:50:00 10.3 C 8.43 g/m*3 9.04 C 9.7 km/h
2856 05-06-2020 21:55:00 10.3 C 8.43 g/m*3 9.34 C 8.1 km/h
2857 05-06-2020 22:00:00 10.3 C 8.33 g/m*3 8.78 C 11.3 km/h
2858 05-06-2020 22:05:00 10.3 C 8.33 g/m*3 8.55 C 12.9 km/h
2859 05-06-2020 22:10:00 10.2 C 8.28 g/m*3 8.43 C 12.9 km/h
2860 05-06-2020 22:15:00 10.3 C 8.24 g/m*3 8.78 C 11.3 km/h
2861 05-06-2020 22:20:00 10.3 C 8.33 g/m*3 9.72 C 6.4 km/h
2862 05-06-2020 22:25:00 10.2 C 8.28 g/m*3 8.92 C 9.7 km/h
2863 05-06-2020 22:30:00 10.1 C 8.32 g/m*3 9.48 C 6.4 km/h
2864 05-06-2020 22:35:00 10.1 C 8.32 g/m*3 9.48 C 6.4 km/h
2865 05-06-2020 22:40:00 10 C 8.27 g/m*3 8.42 C 11.3 km/h
2866 05-06-2020 22:45:00 10 C 8.17 g/m*3 8.42 C 11.3 km/h
2867 05-06-2020 22:50:00 10 C 8.17 g/m*3 8.68 C 9.7 km/h
2868 05-06-2020 22:55:00 10 C 8.17 g/m*3 10 C 4.8 km/h
2869 05-06-2020 23:00:00 10 C 8.17 g/m*3 9.37 C 6.4 km/h
2870 05-06-2020 23:05:00 9.9 C 8.12 g/m*3 9.9 C 4.8 km/h
2871 05-06-2020 23:10:00 9.8 C 8.16 g/m*3 8.75 C 8.1 km/h
2872 05-06-2020 23:15:00 9.7 C 8.11 g/m*3 8.33 C 9.7 km/h
2873 05-06-2020 23:20:00 9.7 C 8.11 g/m*3 9.02 C 6.4 km/h
2874 05-06-2020 23:25:00 9.7 C 8.11 g/m*3 7.41 C 16.1 km/h
2875 05-06-2020 23:30:00 9.8 C 8.07 g/m*3 8.75 C 8.1 km/h
Sensor: Nr:Datum:Temp:Abs-Feuchte:Windchill:Wind:
Aussen-T/F 2876 05-06-2020 23:35:00 9.8 C 8.16 g/m*3 8.45 C 9.7 km/h
2877 05-06-2020 23:40:00 9.8 C 8.07 g/m*3 8.75 C 8.1 km/h
2878 05-06-2020 23:45:00 9.8 C 8.07 g/m*3 9.14 C 6.4 km/h
2879 05-06-2020 23:50:00 9.8 C 8.07 g/m*3 9.14 C 6.4 km/h
2880 05-06-2020 23:55:00 9.8 C 7.98 g/m*3 8.18 C 11.3 km/h
2881 06-06-2020 00:00:00 9.8 C 8.07 g/m*3 9.8 C 4.8 km/h
2882 06-06-2020 00:05:00 9.7 C 7.93 g/m*3 8.33 C 9.7 km/h
2883 06-06-2020 00:10:00 9.7 C 8.02 g/m*3 8.33 C 9.7 km/h
2884 06-06-2020 00:15:00 9.7 C 7.84 g/m*3 7.41 C 16.1 km/h
2885 06-06-2020 00:20:00 9.7 C 7.93 g/m*3 8.33 C 9.7 km/h
2886 06-06-2020 00:25:00 9.7 C 7.84 g/m*3 9.02 C 6.4 km/h
2887 06-06-2020 00:30:00 9.7 C 7.74 g/m*3 8.33 C 9.7 km/h
2888 06-06-2020 00:35:00 9.7 C 7.93 g/m*3 9.7 C 4.8 km/h
2889 06-06-2020 00:40:00 9.6 C 7.79 g/m*3 8.21 C 9.7 km/h
2890 06-06-2020 00:45:00 9.6 C 7.79 g/m*3 9.6 C 4.8 km/h
2891 06-06-2020 00:50:00 9.6 C 7.79 g/m*3 8.52 C 8.1 km/h
2892 06-06-2020 00:55:00 9.5 C 7.83 g/m*3 8.79 C 6.4 km/h
2893 06-06-2020 01:00:00 9.4 C 7.78 g/m*3 8.68 C 6.4 km/h
2894 06-06-2020 01:05:00 9.3 C 7.73 g/m*3 9.3 C 4.8 km/h
2895 06-06-2020 01:10:00 9.3 C 7.73 g/m*3 9.3 C 3.2 km/h
2896 06-06-2020 01:15:00 9.4 C 7.78 g/m*3 9.4 C 4.8 km/h
2897 06-06-2020 01:20:00 9.4 C 7.78 g/m*3 9.4 C 3.2 km/h
2898 06-06-2020 01:25:00 9.3 C 7.82 g/m*3 8.56 C 6.4 km/h
2899 06-06-2020 01:30:00 9.2 C 7.77 g/m*3 8.45 C 6.4 km/h
2900 06-06-2020 01:35:00 9.1 C 7.63 g/m*3 7.93 C 8.1 km/h
Sensor: Nr:Datum:Temp:Abs-Feuchte:Windchill:Wind:
Aussen-T/F 2901 06-06-2020 01:40:00 9.1 C 7.72 g/m*3 8.33 C 6.4 km/h
2902 06-06-2020 01:45:00 8.9 C 7.62 g/m*3 8.9 C 4.8 km/h
2903 06-06-2020 01:50:00 8.8 C 7.66 g/m*3 7.25 C 9.7 km/h
2904 06-06-2020 01:55:00 8.7 C 7.61 g/m*3 8.7 C 4.8 km/h
2905 06-06-2020 02:00:00 8.6 C 7.65 g/m*3 8.6 C 4.8 km/h
2906 06-06-2020 02:05:00 8.5 C 7.6 g/m*3 7.64 C 6.4 km/h
2907 06-06-2020 02:10:00 8.4 C 7.55 g/m*3 8.4 C 3.2 km/h
2908 06-06-2020 02:15:00 8.3 C 7.5 g/m*3 6.99 C 8.1 km/h
2909 06-06-2020 02:20:00 8.3 C 7.5 g/m*3 8.3 C 3.2 km/h
2910 06-06-2020 02:25:00 8.3 C 7.59 g/m*3 7.41 C 6.4 km/h
2911 06-06-2020 02:30:00 8.3 C 7.5 g/m*3 6.12 C 12.9 km/h
2912 06-06-2020 02:35:00 8.3 C 7.59 g/m*3 6.99 C 8.1 km/h
2913 06-06-2020 02:40:00 8.3 C 7.59 g/m*3 7.41 C 6.4 km/h
2914 06-06-2020 02:45:00 8.3 C 7.59 g/m*3 7.41 C 6.4 km/h
2915 06-06-2020 02:50:00 8.3 C 7.59 g/m*3 8.3 C 4.8 km/h
2916 06-06-2020 02:55:00 8.2 C 7.54 g/m*3 8.2 C 4.8 km/h
2917 06-06-2020 03:00:00 8.1 C 7.57 g/m*3 7.17 C 6.4 km/h
2918 06-06-2020 03:05:00 8.1 C 7.57 g/m*3 8.1 C 3.2 km/h
2919 06-06-2020 03:10:00 7.9 C 7.47 g/m*3 7.9 C 1.6 km/h
2920 06-06-2020 03:15:00 7.9 C 7.47 g/m*3 7.9 C 3.2 km/h
2921 06-06-2020 03:20:00 7.9 C 7.56 g/m*3 7.9 C 3.2 km/h
2922 06-06-2020 03:25:00 7.9 C 7.56 g/m*3 7.9 C 3.2 km/h
2923 06-06-2020 03:30:00 7.9 C 7.56 g/m*3 7.9 C 3.2 km/h
2924 06-06-2020 03:35:00 8.1 C 7.66 g/m*3 8.1 C 4.8 km/h
2925 06-06-2020 03:40:00 8.1 C 7.66 g/m*3 8.1 C 0 km/h
Sensor: Nr:Datum:Temp:Abs-Feuchte:Windchill:Wind:
Aussen-T/F 2926 06-06-2020 03:45:00 8.1 C 7.74 g/m*3 8.1 C 3.2 km/h
2927 06-06-2020 03:50:00 8.2 C 7.79 g/m*3 7.29 C 6.4 km/h
2928 06-06-2020 03:55:00 8.3 C 7.84 g/m*3 8.3 C 1.6 km/h
2929 06-06-2020 04:00:00 8.3 C 7.84 g/m*3 8.3 C 1.6 km/h
2930 06-06-2020 04:05:00 8.4 C 7.89 g/m*3 7.11 C 8.1 km/h
2931 06-06-2020 04:10:00 8.4 C 7.89 g/m*3 8.4 C 1.6 km/h
2932 06-06-2020 04:15:00 8.4 C 7.89 g/m*3 8.4 C 4.8 km/h
2933 06-06-2020 04:20:00 8.5 C 7.94 g/m*3 8.5 C 3.2 km/h
2934 06-06-2020 04:25:00 8.5 C 7.94 g/m*3 7.22 C 8.1 km/h
2935 06-06-2020 04:30:00 8.6 C 7.99 g/m*3 8.6 C 4.8 km/h
2936 06-06-2020 04:35:00 8.6 C 7.91 g/m*3 8.6 C 3.2 km/h
2937 06-06-2020 04:40:00 8.6 C 7.91 g/m*3 8.6 C 1.6 km/h
2938 06-06-2020 04:45:00 8.7 C 7.96 g/m*3 8.7 C 1.6 km/h
2939 06-06-2020 04:50:00 8.7 C 7.87 g/m*3 8.7 C 1.6 km/h
2940 06-06-2020 04:55:00 8.7 C 7.87 g/m*3 8.7 C 0 km/h
2941 06-06-2020 05:00:00 8.6 C 7.82 g/m*3 8.6 C 1.6 km/h
2942 06-06-2020 05:05:00 8.6 C 7.82 g/m*3 8.6 C 1.6 km/h
2943 06-06-2020 05:10:00 8.6 C 7.91 g/m*3 8.6 C 1.6 km/h
2944 06-06-2020 05:15:00 8.6 C 7.91 g/m*3 8.6 C 1.6 km/h
2945 06-06-2020 05:20:00 8.6 C 7.91 g/m*3 8.6 C 0 km/h
2946 06-06-2020 05:25:00 8.6 C 7.91 g/m*3 8.6 C 0 km/h
2947 06-06-2020 05:30:00 8.6 C 7.91 g/m*3 8.6 C 1.6 km/h
2948 06-06-2020 05:35:00 8.6 C 7.91 g/m*3 8.6 C 1.6 km/h
2949 06-06-2020 05:40:00 8.6 C 7.91 g/m*3 8.6 C 3.2 km/h
2950 06-06-2020 05:45:00 8.6 C 7.91 g/m*3 8.6 C 1.6 km/h
Sensor: Nr:Datum:Temp:Abs-Feuchte:Windchill:Wind:
Aussen-T/F 2951 06-06-2020 05:50:00 8.6 C 7.91 g/m*3 8.6 C 1.6 km/h
2952 06-06-2020 05:55:00 8.6 C 7.91 g/m*3 8.6 C 1.6 km/h
2953 06-06-2020 06:00:00 8.7 C 8.04 g/m*3 8.7 C 3.2 km/h
2954 06-06-2020 06:05:00 8.7 C 8.04 g/m*3 8.7 C 0 km/h
2955 06-06-2020 06:10:00 8.7 C 8.04 g/m*3 8.7 C 3.2 km/h
2956 06-06-2020 06:15:00 8.7 C 8.04 g/m*3 7.87 C 6.4 km/h
2957 06-06-2020 06:20:00 8.8 C 8.09 g/m*3 8.8 C 4.8 km/h
2958 06-06-2020 06:25:00 8.8 C 8.09 g/m*3 8.8 C 1.6 km/h
2959 06-06-2020 06:30:00 8.9 C 8.15 g/m*3 8.9 C 1.6 km/h
2960 06-06-2020 06:35:00 9 C 8.2 g/m*3 9 C 3.2 km/h
2961 06-06-2020 06:40:00 9.1 C 8.25 g/m*3 9.1 C 1.6 km/h
2962 06-06-2020 06:45:00 9.2 C 8.3 g/m*3 8.45 C 6.4 km/h
2963 06-06-2020 06:50:00 9.4 C 8.41 g/m*3 8.68 C 6.4 km/h
2964 06-06-2020 06:55:00 9.6 C 8.52 g/m*3 9.6 C 3.2 km/h
2965 06-06-2020 07:00:00 9.7 C 8.57 g/m*3 8.06 C 11.3 km/h
2966 06-06-2020 07:05:00 9.8 C 8.54 g/m*3 9.8 C 1.6 km/h
2967 06-06-2020 07:10:00 9.9 C 8.59 g/m*3 7.85 C 14.5 km/h
2968 06-06-2020 07:15:00 10.1 C 8.7 g/m*3 7.57 C 19.3 km/h
2969 06-06-2020 07:20:00 10.2 C 8.66 g/m*3 7.7 C 19.3 km/h
2970 06-06-2020 07:25:00 10.4 C 8.67 g/m*3 8.28 C 16.1 km/h
2971 06-06-2020 07:30:00 10.5 C 8.73 g/m*3 9.28 C 9.7 km/h
2972 06-06-2020 07:35:00 10.6 C 8.69 g/m*3 9.14 C 11.3 km/h
2973 06-06-2020 07:40:00 10.7 C 8.64 g/m*3 9.26 C 11.3 km/h
2974 06-06-2020 07:45:00 10.8 C 8.7 g/m*3 9.93 C 8.1 km/h
2975 06-06-2020 07:50:00 10.9 C 8.75 g/m*3 10.04 C 8.1 km/h
Sensor: Nr:Datum:Temp:Abs-Feuchte:Windchill:Wind:
Aussen-T/F 2976 06-06-2020 07:55:00 11.1 C 8.76 g/m*3 11.1 C 8.1 km/h
2977 06-06-2020 08:00:00 11.2 C 8.72 g/m*3 11.2 C 8.1 km/h
2978 06-06-2020 08:05:00 11.2 C 8.72 g/m*3 11.2 C 8.1 km/h
2979 06-06-2020 08:10:00 11.3 C 8.67 g/m*3 11.3 C 12.9 km/h
2980 06-06-2020 08:15:00 11.4 C 8.83 g/m*3 11.4 C 12.9 km/h
2981 06-06-2020 08:20:00 11.3 C 8.67 g/m*3 11.3 C 19.3 km/h
2982 06-06-2020 08:25:00 11.3 C 8.67 g/m*3 11.3 C 14.5 km/h
2983 06-06-2020 08:30:00 11.3 C 8.77 g/m*3 11.3 C 6.4 km/h
2984 06-06-2020 08:35:00 11.4 C 8.72 g/m*3 11.4 C 8.1 km/h
2985 06-06-2020 08:40:00 11.4 C 8.72 g/m*3 11.4 C 9.7 km/h
2986 06-06-2020 08:45:00 11.4 C 8.83 g/m*3 11.4 C 6.4 km/h
2987 06-06-2020 08:50:00 11.5 C 8.78 g/m*3 11.5 C 9.7 km/h
2988 06-06-2020 08:55:00 11.6 C 8.83 g/m*3 11.6 C 6.4 km/h
2989 06-06-2020 09:00:00 11.7 C 8.89 g/m*3 11.7 C 9.7 km/h
2990 06-06-2020 09:05:00 11.9 C 8.9 g/m*3 11.9 C 14.5 km/h
2991 06-06-2020 09:10:00 12.1 C 8.9 g/m*3 12.1 C 19.3 km/h
2992 06-06-2020 09:15:00 12.3 C 8.9 g/m*3 12.3 C 9.7 km/h
2993 06-06-2020 09:20:00 12.4 C 8.96 g/m*3 12.4 C 12.9 km/h
2994 06-06-2020 09:25:00 12.5 C 9.02 g/m*3 12.5 C 9.7 km/h
2995 06-06-2020 09:30:00 12.6 C 8.96 g/m*3 12.6 C 16.1 km/h
2996 06-06-2020 09:35:00 12.7 C 9.02 g/m*3 12.7 C 14.5 km/h
2997 06-06-2020 09:40:00 12.8 C 8.96 g/m*3 12.8 C 16.1 km/h
2998 06-06-2020 09:45:00 13.1 C 9.01 g/m*3 13.1 C 16.1 km/h
2999 06-06-2020 09:50:00 13.2 C 8.96 g/m*3 13.2 C 16.1 km/h
3000 06-06-2020 09:55:00 13.3 C 9.01 g/m*3 13.3 C 16.1 km/h
Sensor: Nr:Datum:Temp:Abs-Feuchte:Windchill:Wind:
Aussen-T/F 3001 06-06-2020 10:00:00 13.6 C 9.06 g/m*3 13.6 C 20.9 km/h
3002 06-06-2020 10:05:00 13.7 C 9 g/m*3 13.7 C 16.1 km/h
3003 06-06-2020 10:10:00 13.8 C 9.06 g/m*3 13.8 C 16.1 km/h
3004 06-06-2020 10:15:00 13.9 C 8.99 g/m*3 13.9 C 12.9 km/h
3005 06-06-2020 10:20:00 13.9 C 9.11 g/m*3 13.9 C 14.5 km/h
3006 06-06-2020 10:25:00 13.7 C 9.47 g/m*3 13.7 C 12.9 km/h
3007 06-06-2020 10:30:00 13.2 C 9.42 g/m*3 13.2 C 9.7 km/h
3008 06-06-2020 10:35:00 12.9 C 9.47 g/m*3 12.9 C 6.4 km/h
3009 06-06-2020 10:40:00 12.8 C 9.63 g/m*3 12.8 C 6.4 km/h
3010 06-06-2020 10:45:00 12.8 C 9.63 g/m*3 12.8 C 8.1 km/h
3011 06-06-2020 10:50:00 12.6 C 9.4 g/m*3 12.6 C 8.1 km/h
3012 06-06-2020 10:55:00 12.6 C 9.62 g/m*3 12.6 C 4.8 km/h
3013 06-06-2020 11:00:00 12.6 C 9.74 g/m*3 12.6 C 1.6 km/h
3014 06-06-2020 11:05:00 12.7 C 9.8 g/m*3 12.7 C 0 km/h
3015 06-06-2020 11:10:00 12.6 C 9.85 g/m*3 12.6 C 0 km/h
3016 06-06-2020 11:15:00 12.7 C 10.02 g/m*3 12.7 C 4.8 km/h
3017 06-06-2020 11:20:00 12.7 C 10.02 g/m*3 12.7 C 0 km/h
3018 06-06-2020 11:25:00 12.7 C 10.13 g/m*3 12.7 C 0 km/h
3019 06-06-2020 11:30:00 12.7 C 10.13 g/m*3 12.7 C 0 km/h
3020 06-06-2020 11:35:00 12.8 C 10.19 g/m*3 12.8 C 0 km/h
3021 06-06-2020 11:40:00 12.6 C 9.96 g/m*3 12.6 C 3.2 km/h
3022 06-06-2020 11:45:00 12.4 C 9.83 g/m*3 12.4 C 4.8 km/h
3023 06-06-2020 11:50:00 12.3 C 9.88 g/m*3 12.3 C 8.1 km/h
3024 06-06-2020 11:55:00 12.4 C 10.05 g/m*3 12.4 C 9.7 km/h
3025 06-06-2020 12:00:00 12.4 C 10.05 g/m*3 12.4 C 9.7 km/h
Sensor: Nr:Datum:Temp:Abs-Feuchte:Windchill:Wind:
Aussen-T/F 3026 06-06-2020 12:05:00 12.4 C 10.05 g/m*3 12.4 C 9.7 km/h
3027 06-06-2020 12:10:00 12.6 C 10.29 g/m*3 12.6 C 3.2 km/h
3028 06-06-2020 12:15:00 12.7 C 10.35 g/m*3 12.7 C 3.2 km/h
3029 06-06-2020 12:20:00 12.9 C 10.48 g/m*3 12.9 C 6.4 km/h
3030 06-06-2020 12:25:00 13.1 C 10.61 g/m*3 13.1 C 4.8 km/h
3031 06-06-2020 12:30:00 13.3 C 10.74 g/m*3 13.3 C 12.9 km/h
3032 06-06-2020 12:35:00 13.4 C 10.69 g/m*3 13.4 C 14.5 km/h
3033 06-06-2020 12:40:00 13.1 C 9.47 g/m*3 13.1 C 20.9 km/h
3034 06-06-2020 12:45:00 12.6 C 9.29 g/m*3 12.6 C 12.9 km/h
3035 06-06-2020 12:50:00 12.2 C 9.17 g/m*3 12.2 C 9.7 km/h
3036 06-06-2020 12:55:00 12.1 C 9.33 g/m*3 12.1 C 6.4 km/h
3037 06-06-2020 13:00:00 12.1 C 9.54 g/m*3 12.1 C 6.4 km/h
3038 06-06-2020 13:05:00 12.1 C 9.54 g/m*3 12.1 C 4.8 km/h
3039 06-06-2020 13:10:00 12.1 C 9.65 g/m*3 12.1 C 4.8 km/h
3040 06-06-2020 13:15:00 12.2 C 9.71 g/m*3 12.2 C 4.8 km/h
3041 06-06-2020 13:20:00 12.4 C 9.62 g/m*3 12.4 C 6.4 km/h
3042 06-06-2020 13:25:00 12.6 C 9.85 g/m*3 12.6 C 4.8 km/h
3043 06-06-2020 13:30:00 12.7 C 9.68 g/m*3 12.7 C 11.3 km/h
3044 06-06-2020 13:35:00 12.7 C 9.57 g/m*3 12.7 C 9.7 km/h
3045 06-06-2020 13:40:00 12.9 C 9.92 g/m*3 12.9 C 4.8 km/h
3046 06-06-2020 13:45:00 13 C 9.75 g/m*3 13 C 8.1 km/h
3047 06-06-2020 13:50:00 12.9 C 9.81 g/m*3 12.9 C 9.7 km/h
3048 06-06-2020 13:55:00 13 C 9.98 g/m*3 13 C 4.8 km/h
3049 06-06-2020 14:00:00 13.1 C 10.04 g/m*3 13.1 C 8.1 km/h
3050 06-06-2020 14:05:00 13.2 C 9.99 g/m*3 13.2 C 4.8 km/h
Sensor: Nr:Datum:Temp:Abs-Feuchte:Windchill:Wind:
Aussen-T/F 3051 06-06-2020 14:10:00 13.3 C 9.94 g/m*3 13.3 C 6.4 km/h
3052 06-06-2020 14:15:00 13.4 C 9.88 g/m*3 13.4 C 6.4 km/h
3053 06-06-2020 14:20:00 13.6 C 9.89 g/m*3 13.6 C 14.5 km/h
3054 06-06-2020 14:25:00 13.8 C 9.89 g/m*3 13.8 C 9.7 km/h
3055 06-06-2020 14:30:00 14 C 10.01 g/m*3 14 C 8.1 km/h
3056 06-06-2020 14:35:00 14.3 C 10.2 g/m*3 14.3 C 9.7 km/h
3057 06-06-2020 14:40:00 14.6 C 10.14 g/m*3 14.6 C 9.7 km/h
3058 06-06-2020 14:45:00 14.8 C 9.88 g/m*3 14.8 C 12.9 km/h
3059 06-06-2020 14:50:00 15.1 C 10.06 g/m*3 15.1 C 12.9 km/h
3060 06-06-2020 14:55:00 15.4 C 10.12 g/m*3 15.4 C 12.9 km/h
3061 06-06-2020 15:00:00 15.9 C 10.02 g/m*3 15.9 C 12.9 km/h
3062 06-06-2020 15:05:00 16.2 C 10.62 g/m*3 16.2 C 11.3 km/h
3063 06-06-2020 15:10:00 15.9 C 10.16 g/m*3 15.9 C 11.3 km/h
3064 06-06-2020 15:15:00 15.4 C 9.99 g/m*3 15.4 C 9.7 km/h
3065 06-06-2020 15:20:00 14.9 C 10.32 g/m*3 14.9 C 8.1 km/h
3066 06-06-2020 15:25:00 14.7 C 10.58 g/m*3 14.7 C 8.1 km/h
3067 06-06-2020 15:30:00 14.7 C 10.58 g/m*3 14.7 C 9.7 km/h
3068 06-06-2020 15:35:00 14.6 C 10.26 g/m*3 14.6 C 8.1 km/h
3069 06-06-2020 15:40:00 14.6 C 10.26 g/m*3 14.6 C 8.1 km/h
3070 06-06-2020 15:45:00 14.7 C 10.32 g/m*3 14.7 C 8.1 km/h
3071 06-06-2020 15:50:00 15.1 C 10.71 g/m*3 15.1 C 8.1 km/h
3072 06-06-2020 15:55:00 15.7 C 11.11 g/m*3 15.7 C 3.2 km/h
3073 06-06-2020 16:00:00 16.3 C 11.24 g/m*3 16.3 C 11.3 km/h
3074 06-06-2020 16:05:00 16.9 C 10.64 g/m*3 16.9 C 12.9 km/h
3075 06-06-2020 16:10:00 17.2 C 10.84 g/m*3 17.2 C 12.9 km/h
Sensor: Nr:Datum:Temp:Abs-Feuchte:Windchill:Wind:
Aussen-T/F 3076 06-06-2020 16:15:00 17.2 C 9.96 g/m*3 17.2 C 11.3 km/h
3077 06-06-2020 16:20:00 17.1 C 10.19 g/m*3 17.1 C 11.3 km/h
3078 06-06-2020 16:25:00 17.2 C 10.54 g/m*3 17.2 C 20.9 km/h
3079 06-06-2020 16:30:00 17.2 C 9.96 g/m*3 17.2 C 12.9 km/h
3080 06-06-2020 16:35:00 17.1 C 10.19 g/m*3 17.1 C 12.9 km/h
3081 06-06-2020 16:40:00 17.4 C 10.08 g/m*3 17.4 C 19.3 km/h
3082 06-06-2020 16:45:00 17.6 C 10.2 g/m*3 17.6 C 17.7 km/h
3083 06-06-2020 16:50:00 17.8 C 10.32 g/m*3 17.8 C 14.5 km/h
3084 06-06-2020 16:55:00 17.7 C 9.81 g/m*3 17.7 C 19.3 km/h
3085 06-06-2020 17:00:00 17.8 C 10.02 g/m*3 17.8 C 11.3 km/h
3086 06-06-2020 17:05:00 17.8 C 9.71 g/m*3 17.8 C 14.5 km/h
3087 06-06-2020 17:10:00 17.8 C 9.56 g/m*3 17.8 C 16.1 km/h
3088 06-06-2020 17:15:00 17.4 C 9.48 g/m*3 17.4 C 8.1 km/h
3089 06-06-2020 17:20:00 17.2 C 9.08 g/m*3 17.2 C 8.1 km/h
3090 06-06-2020 17:25:00 16.9 C 8.77 g/m*3 16.9 C 12.9 km/h
3091 06-06-2020 17:30:00 16.7 C 9.1 g/m*3 16.7 C 6.4 km/h
3092 06-06-2020 17:35:00 16.6 C 8.76 g/m*3 16.6 C 12.9 km/h
3093 06-06-2020 17:40:00 16.4 C 8.79 g/m*3 16.4 C 11.3 km/h
3094 06-06-2020 17:45:00 16.3 C 9.16 g/m*3 16.3 C 6.4 km/h
3095 06-06-2020 17:50:00 16.2 C 9.24 g/m*3 16.2 C 4.8 km/h
3096 06-06-2020 17:55:00 16.1 C 8.77 g/m*3 16.1 C 20.9 km/h
3097 06-06-2020 18:00:00 15.9 C 8.4 g/m*3 15.9 C 16.1 km/h
3098 06-06-2020 18:05:00 15.8 C 8.21 g/m*3 15.8 C 14.5 km/h
3099 06-06-2020 18:10:00 16.2 C 8.41 g/m*3 16.2 C 14.5 km/h
3100 06-06-2020 18:15:00 16.9 C 8.77 g/m*3 16.9 C 14.5 km/h
Sensor: Nr:Datum:Temp:Abs-Feuchte:Windchill:Wind:
Aussen-T/F 3101 06-06-2020 18:20:00 17.7 C 8.75 g/m*3 17.7 C 12.9 km/h
3102 06-06-2020 18:25:00 18 C 8.14 g/m*3 18 C 19.3 km/h
3103 06-06-2020 18:30:00 18.2 C 8.24 g/m*3 18.2 C 14.5 km/h
3104 06-06-2020 18:35:00 18.4 C 8.49 g/m*3 18.4 C 16.1 km/h
3105 06-06-2020 18:40:00 18.7 C 9.13 g/m*3 18.7 C 9.7 km/h
3106 06-06-2020 18:45:00 18.8 C 8.7 g/m*3 18.8 C 22.5 km/h
3107 06-06-2020 18:50:00 18.7 C 8.33 g/m*3 18.7 C 19.3 km/h
3108 06-06-2020 18:55:00 18.4 C 8.18 g/m*3 18.4 C 17.7 km/h
3109 06-06-2020 19:00:00 18.3 C 8.29 g/m*3 18.3 C 14.5 km/h
3110 06-06-2020 19:05:00 18.6 C 8.12 g/m*3 18.6 C 14.5 km/h
3111 06-06-2020 19:10:00 18.8 C 8.54 g/m*3 18.8 C 8.1 km/h
3112 06-06-2020 19:15:00 18.9 C 8.26 g/m*3 18.9 C 9.7 km/h
3113 06-06-2020 19:20:00 18.7 C 8.33 g/m*3 18.7 C 11.3 km/h
3114 06-06-2020 19:25:00 18.4 C 8.49 g/m*3 18.4 C 14.5 km/h
3115 06-06-2020 19:30:00 18.4 C 8.18 g/m*3 18.4 C 14.5 km/h
3116 06-06-2020 19:35:00 18.4 C 8.18 g/m*3 18.4 C 11.3 km/h
3117 06-06-2020 19:40:00 18.1 C 7.88 g/m*3 18.1 C 12.9 km/h
3118 06-06-2020 19:45:00 17.8 C 8.04 g/m*3 17.8 C 8.1 km/h
3119 06-06-2020 19:50:00 17.6 C 7.8 g/m*3 17.6 C 11.3 km/h
3120 06-06-2020 19:55:00 17.5 C 8.35 g/m*3 17.5 C 6.4 km/h
3121 06-06-2020 20:00:00 17.7 C 8.45 g/m*3 17.7 C 3.2 km/h
3122 06-06-2020 20:05:00 17.9 C 8.4 g/m*3 17.9 C 3.2 km/h
3123 06-06-2020 20:10:00 17.8 C 8.35 g/m*3 17.8 C 8.1 km/h
3124 06-06-2020 20:15:00 17.8 C 8.65 g/m*3 17.8 C 6.4 km/h
3125 06-06-2020 20:20:00 17.8 C 9.41 g/m*3 17.8 C 3.2 km/h
Sensor: Nr:Datum:Temp:Abs-Feuchte:Windchill:Wind:
Aussen-T/F 3126 06-06-2020 20:25:00 17.7 C 8.6 g/m*3 17.7 C 4.8 km/h
3127 06-06-2020 20:30:00 17.4 C 9.04 g/m*3 17.4 C 4.8 km/h
3128 06-06-2020 20:35:00 17.2 C 8.64 g/m*3 17.2 C 4.8 km/h
3129 06-06-2020 20:40:00 16.9 C 9.35 g/m*3 16.9 C 6.4 km/h
3130 06-06-2020 20:45:00 16.5 C 8.99 g/m*3 16.5 C 8.1 km/h
3131 06-06-2020 20:50:00 16.1 C 9.18 g/m*3 16.1 C 4.8 km/h
3132 06-06-2020 20:55:00 15.7 C 9.37 g/m*3 15.7 C 6.4 km/h
3133 06-06-2020 21:00:00 15.3 C 9.14 g/m*3 15.3 C 6.4 km/h
3134 06-06-2020 21:05:00 14.8 C 9.12 g/m*3 14.8 C 6.4 km/h
3135 06-06-2020 21:10:00 14.4 C 9.02 g/m*3 14.4 C 6.4 km/h
3136 06-06-2020 21:15:00 14.1 C 8.86 g/m*3 14.1 C 6.4 km/h
3137 06-06-2020 21:20:00 13.8 C 8.94 g/m*3 13.8 C 4.8 km/h
3138 06-06-2020 21:25:00 13.6 C 8.71 g/m*3 13.6 C 4.8 km/h
3139 06-06-2020 21:30:00 13.3 C 8.78 g/m*3 13.3 C 4.8 km/h
3140 06-06-2020 21:35:00 13.1 C 8.67 g/m*3 13.1 C 4.8 km/h
3141 06-06-2020 21:40:00 12.9 C 8.68 g/m*3 12.9 C 4.8 km/h
3142 06-06-2020 21:45:00 12.7 C 8.68 g/m*3 12.7 C 3.2 km/h
3143 06-06-2020 21:50:00 12.6 C 8.74 g/m*3 12.6 C 4.8 km/h
3144 06-06-2020 21:55:00 12.4 C 8.63 g/m*3 12.4 C 0 km/h
3145 06-06-2020 22:00:00 12.2 C 8.52 g/m*3 12.2 C 3.2 km/h
3146 06-06-2020 22:05:00 12.2 C 8.63 g/m*3 12.2 C 4.8 km/h
3147 06-06-2020 22:10:00 12.1 C 8.69 g/m*3 12.1 C 1.6 km/h
3148 06-06-2020 22:15:00 11.9 C 8.68 g/m*3 11.9 C 0 km/h
3149 06-06-2020 22:20:00 11.8 C 8.74 g/m*3 11.8 C 0 km/h
3150 06-06-2020 22:25:00 11.8 C 8.74 g/m*3 11.8 C 0 km/h
Sensor: Nr:Datum:Temp:Abs-Feuchte:Windchill:Wind:
Aussen-T/F 3151 06-06-2020 22:30:00 11.7 C 8.89 g/m*3 11.7 C 0 km/h
3152 06-06-2020 22:35:00 11.6 C 8.83 g/m*3 11.6 C 3.2 km/h
3153 06-06-2020 22:40:00 11.5 C 8.78 g/m*3 11.5 C 1.6 km/h
3154 06-06-2020 22:45:00 11.4 C 8.72 g/m*3 11.4 C 0 km/h
3155 06-06-2020 22:50:00 11.3 C 8.67 g/m*3 11.3 C 3.2 km/h
3156 06-06-2020 22:55:00 11.2 C 8.62 g/m*3 11.2 C 3.2 km/h
3157 06-06-2020 23:00:00 11.1 C 8.56 g/m*3 11.1 C 1.6 km/h
3158 06-06-2020 23:05:00 11 C 8.61 g/m*3 11 C 0 km/h
3159 06-06-2020 23:10:00 10.8 C 8.5 g/m*3 10.8 C 0 km/h
3160 06-06-2020 23:15:00 10.7 C 8.35 g/m*3 10.7 C 3.2 km/h
3161 06-06-2020 23:20:00 10.6 C 8.39 g/m*3 10.6 C 0 km/h
3162 06-06-2020 23:25:00 10.6 C 8.49 g/m*3 10.6 C 0 km/h
3163 06-06-2020 23:30:00 10.5 C 8.44 g/m*3 10.5 C 3.2 km/h
3164 06-06-2020 23:35:00 10.5 C 8.44 g/m*3 10.5 C 1.6 km/h
3165 06-06-2020 23:40:00 10.4 C 8.38 g/m*3 10.4 C 3.2 km/h
3166 06-06-2020 23:45:00 10.3 C 8.33 g/m*3 10.3 C 0 km/h
3167 06-06-2020 23:50:00 10.3 C 8.33 g/m*3 10.3 C 1.6 km/h
3168 06-06-2020 23:55:00 10.3 C 8.33 g/m*3 10.3 C 1.6 km/h
3169 07-06-2020 00:00:00 10.2 C 8.18 g/m*3 10.2 C 0 km/h
3170 07-06-2020 00:05:00 10.2 C 8.18 g/m*3 10.2 C 3.2 km/h
3171 07-06-2020 00:10:00 10.2 C 8.18 g/m*3 10.2 C 3.2 km/h
3172 07-06-2020 00:15:00 10.2 C 8.18 g/m*3 10.2 C 1.6 km/h
3173 07-06-2020 00:20:00 10.2 C 8.18 g/m*3 10.2 C 0 km/h
3174 07-06-2020 00:25:00 10.2 C 8.18 g/m*3 10.2 C 1.6 km/h
3175 07-06-2020 00:30:00 10.1 C 8.13 g/m*3 10.1 C 1.6 km/h
Sensor: Nr:Datum:Temp:Abs-Feuchte:Windchill:Wind:
Aussen-T/F 3176 07-06-2020 00:35:00 10.1 C 8.13 g/m*3 10.1 C 0 km/h
3177 07-06-2020 00:40:00 10.2 C 8.18 g/m*3 10.2 C 0 km/h
3178 07-06-2020 00:45:00 10.2 C 8.28 g/m*3 10.2 C 0 km/h
3179 07-06-2020 00:50:00 10.2 C 8.28 g/m*3 10.2 C 0 km/h
3180 07-06-2020 00:55:00 10.2 C 8.28 g/m*3 10.2 C 0 km/h
3181 07-06-2020 01:00:00 10.1 C 8.23 g/m*3 10.1 C 4.8 km/h
3182 07-06-2020 01:05:00 10.1 C 8.23 g/m*3 10.1 C 1.6 km/h
3183 07-06-2020 01:10:00 10.1 C 8.23 g/m*3 10.1 C 0 km/h
3184 07-06-2020 01:15:00 10 C 8.17 g/m*3 10 C 1.6 km/h
3185 07-06-2020 01:20:00 10 C 8.17 g/m*3 10 C 1.6 km/h
3186 07-06-2020 01:25:00 9.9 C 8.12 g/m*3 9.9 C 0 km/h
3187 07-06-2020 01:30:00 9.9 C 8.12 g/m*3 9.9 C 0 km/h
3188 07-06-2020 01:35:00 10 C 8.17 g/m*3 10 C 0 km/h
3189 07-06-2020 01:40:00 10 C 8.27 g/m*3 10 C 0 km/h
3190 07-06-2020 01:45:00 10 C 8.27 g/m*3 10 C 0 km/h
3191 07-06-2020 01:50:00 9.9 C 8.22 g/m*3 9.9 C 3.2 km/h
3192 07-06-2020 01:55:00 9.9 C 8.12 g/m*3 9.9 C 1.6 km/h
3193 07-06-2020 02:00:00 9.9 C 8.12 g/m*3 9.9 C 1.6 km/h
3194 07-06-2020 02:05:00 9.9 C 8.12 g/m*3 9.9 C 4.8 km/h
3195 07-06-2020 02:10:00 10 C 8.17 g/m*3 10 C 1.6 km/h
3196 07-06-2020 02:15:00 10.1 C 8.23 g/m*3 10.1 C 0 km/h
3197 07-06-2020 02:20:00 10.1 C 8.13 g/m*3 10.1 C 0 km/h
3198 07-06-2020 02:25:00 10.1 C 8.13 g/m*3 10.1 C 1.6 km/h
3199 07-06-2020 02:30:00 10.1 C 8.13 g/m*3 10.1 C 3.2 km/h
3200 07-06-2020 02:35:00 10.1 C 8.13 g/m*3 10.1 C 1.6 km/h
Sensor: Nr:Datum:Temp:Abs-Feuchte:Windchill:Wind:
Aussen-T/F 3201 07-06-2020 02:40:00 10.1 C 8.13 g/m*3 10.1 C 1.6 km/h
3202 07-06-2020 02:45:00 10.1 C 8.13 g/m*3 10.1 C 3.2 km/h
3203 07-06-2020 02:50:00 10.1 C 8.13 g/m*3 10.1 C 1.6 km/h
3204 07-06-2020 02:55:00 10.1 C 8.13 g/m*3 10.1 C 1.6 km/h
3205 07-06-2020 03:00:00 10.1 C 8.13 g/m*3 10.1 C 1.6 km/h
3206 07-06-2020 03:05:00 10.1 C 8.13 g/m*3 10.1 C 0 km/h
3207 07-06-2020 03:10:00 10 C 8.08 g/m*3 10 C 1.6 km/h
3208 07-06-2020 03:15:00 9.9 C 8.03 g/m*3 9.9 C 1.6 km/h
3209 07-06-2020 03:20:00 9.9 C 8.03 g/m*3 9.9 C 1.6 km/h
3210 07-06-2020 03:25:00 9.8 C 7.98 g/m*3 9.8 C 3.2 km/h
3211 07-06-2020 03:30:00 9.8 C 7.98 g/m*3 9.8 C 3.2 km/h
3212 07-06-2020 03:35:00 9.7 C 7.93 g/m*3 9.7 C 1.6 km/h
3213 07-06-2020 03:40:00 9.6 C 7.88 g/m*3 9.6 C 1.6 km/h
3214 07-06-2020 03:45:00 9.5 C 7.74 g/m*3 9.5 C 1.6 km/h </